<?xml version="1.0" encoding="UTF-8" standalone="no" ?>
<gpx xmlns="http://www.topografix.com/GPX/1/1" xmlns:xsi="http://www.w3.org/2001/XMLSchema-instance" xsi:schemaLocation="http://www.topografix.com/GPX/1/1 http://www.topografix.com/GPX/1/1/gpx.xsd" version="1.1" creator="VisuGPX - https://www.visugpx.com">
  <metadata>
    <name>Sommet de Tourte-Barreaux</name>
    <desc><![CDATA[Boucle au départ du parking de Fournaire (bout de la route de Romeyer). Montée par le Pas de Chabrinel, puis sommet de Tourte-Barreaux (hors sentier) et retour par la cabane du Pison.

[b]Sommet de Tourte-Barreaux[/b]
Cette partie du circuit est complètement hors sentier et s'effectue "à vue". A éviter par temps de brouillard où la recherche d'itinéraire peut devenir très compliquée compte tenu de la nature du terrain (pentes raides, petites barres rocheuses, pierriers, lapiaz, ...).
]]></desc>
  </metadata>
  <trk>
    <name><![CDATA[2023-09-24 15:51:26]]></name>
    <trkseg>
      <trkpt lat="44.80643" lon="5.44654">
        <ele>1010</ele>
        <time>2023-09-24T07:13:53Z</time>
      </trkpt>
      <trkpt lat="44.8064" lon="5.44658">
        <ele>1010.96</ele>
        <time>2023-09-24T07:14:13Z</time>
      </trkpt>
      <trkpt lat="44.8063" lon="5.44655">
        <ele>1013.37</ele>
        <time>2023-09-24T07:14:30Z</time>
      </trkpt>
      <trkpt lat="44.80621" lon="5.44651">
        <ele>1014.81</ele>
        <time>2023-09-24T07:14:43Z</time>
      </trkpt>
      <trkpt lat="44.80609" lon="5.44636">
        <ele>1015.77</ele>
        <time>2023-09-24T07:14:58Z</time>
      </trkpt>
      <trkpt lat="44.80603" lon="5.44621">
        <ele>1016.25</ele>
        <time>2023-09-24T07:15:11Z</time>
      </trkpt>
      <trkpt lat="44.80595" lon="5.44608">
        <ele>1016.73</ele>
        <time>2023-09-24T07:15:24Z</time>
      </trkpt>
      <trkpt lat="44.80587" lon="5.44589">
        <ele>1018.17</ele>
        <time>2023-09-24T07:15:41Z</time>
      </trkpt>
      <trkpt lat="44.80581" lon="5.44569">
        <ele>1019.13</ele>
        <time>2023-09-24T07:15:56Z</time>
      </trkpt>
      <trkpt lat="44.80578" lon="5.44549">
        <ele>1020.58</ele>
        <time>2023-09-24T07:16:10Z</time>
      </trkpt>
      <trkpt lat="44.80566" lon="5.44531">
        <ele>1022.02</ele>
        <time>2023-09-24T07:16:27Z</time>
      </trkpt>
      <trkpt lat="44.80565" lon="5.44538">
        <ele>1022.98</ele>
        <time>2023-09-24T07:16:35Z</time>
      </trkpt>
      <trkpt lat="44.8057" lon="5.44559">
        <ele>1023.94</ele>
        <time>2023-09-24T07:16:51Z</time>
      </trkpt>
      <trkpt lat="44.80573" lon="5.44578">
        <ele>1025.38</ele>
        <time>2023-09-24T07:17:04Z</time>
      </trkpt>
      <trkpt lat="44.80573" lon="5.44596">
        <ele>1026.83</ele>
        <time>2023-09-24T07:17:17Z</time>
      </trkpt>
      <trkpt lat="44.80578" lon="5.44612">
        <ele>1027.79</ele>
        <time>2023-09-24T07:17:29Z</time>
      </trkpt>
      <trkpt lat="44.80582" lon="5.44633">
        <ele>1029.71</ele>
        <time>2023-09-24T07:17:42Z</time>
      </trkpt>
      <trkpt lat="44.80585" lon="5.44651">
        <ele>1030.67</ele>
        <time>2023-09-24T07:17:55Z</time>
      </trkpt>
      <trkpt lat="44.80588" lon="5.4467">
        <ele>1032.59</ele>
        <time>2023-09-24T07:18:10Z</time>
      </trkpt>
      <trkpt lat="44.80594" lon="5.44689">
        <ele>1034.52</ele>
        <time>2023-09-24T07:18:25Z</time>
      </trkpt>
      <trkpt lat="44.80597" lon="5.44705">
        <ele>1036.92</ele>
        <time>2023-09-24T07:18:38Z</time>
      </trkpt>
      <trkpt lat="44.80603" lon="5.44729">
        <ele>1039.32</ele>
        <time>2023-09-24T07:18:55Z</time>
      </trkpt>
      <trkpt lat="44.80611" lon="5.44744">
        <ele>1040.76</ele>
        <time>2023-09-24T07:19:10Z</time>
      </trkpt>
      <trkpt lat="44.80615" lon="5.4475">
        <ele>1042.21</ele>
        <time>2023-09-24T07:19:16Z</time>
      </trkpt>
      <trkpt lat="44.80626" lon="5.44763">
        <ele>1043.65</ele>
        <time>2023-09-24T07:19:31Z</time>
      </trkpt>
      <trkpt lat="44.80635" lon="5.44777">
        <ele>1045.09</ele>
        <time>2023-09-24T07:19:45Z</time>
      </trkpt>
      <trkpt lat="44.80641" lon="5.44792">
        <ele>1047.01</ele>
        <time>2023-09-24T07:19:58Z</time>
      </trkpt>
      <trkpt lat="44.80647" lon="5.44806">
        <ele>1048.94</ele>
        <time>2023-09-24T07:20:11Z</time>
      </trkpt>
      <trkpt lat="44.80653" lon="5.44818">
        <ele>1050.38</ele>
        <time>2023-09-24T07:20:23Z</time>
      </trkpt>
      <trkpt lat="44.80662" lon="5.44829">
        <ele>1051.82</ele>
        <time>2023-09-24T07:20:35Z</time>
      </trkpt>
      <trkpt lat="44.80673" lon="5.44838">
        <ele>1053.26</ele>
        <time>2023-09-24T07:20:48Z</time>
      </trkpt>
      <trkpt lat="44.80688" lon="5.44848">
        <ele>1054.7</ele>
        <time>2023-09-24T07:21:03Z</time>
      </trkpt>
      <trkpt lat="44.80688" lon="5.44849">
        <ele>1054.7</ele>
        <time>2023-09-24T07:21:04Z</time>
      </trkpt>
      <trkpt lat="44.80696" lon="5.44864">
        <ele>1057.11</ele>
        <time>2023-09-24T07:21:17Z</time>
      </trkpt>
      <trkpt lat="44.80697" lon="5.44873">
        <ele>1057.59</ele>
        <time>2023-09-24T07:21:24Z</time>
      </trkpt>
      <trkpt lat="44.80698" lon="5.44891">
        <ele>1059.99</ele>
        <time>2023-09-24T07:21:38Z</time>
      </trkpt>
      <trkpt lat="44.80699" lon="5.44898">
        <ele>1060.47</ele>
        <time>2023-09-24T07:21:43Z</time>
      </trkpt>
      <trkpt lat="44.807" lon="5.44915">
        <ele>1062.39</ele>
        <time>2023-09-24T07:21:58Z</time>
      </trkpt>
      <trkpt lat="44.807" lon="5.44916">
        <ele>1062.87</ele>
        <time>2023-09-24T07:21:59Z</time>
      </trkpt>
      <trkpt lat="44.80699" lon="5.44923">
        <ele>1063.36</ele>
        <time>2023-09-24T07:22:04Z</time>
      </trkpt>
      <trkpt lat="44.80694" lon="5.44936">
        <ele>1064.8</ele>
        <time>2023-09-24T07:22:16Z</time>
      </trkpt>
      <trkpt lat="44.80691" lon="5.44958">
        <ele>1066.24</ele>
        <time>2023-09-24T07:22:29Z</time>
      </trkpt>
      <trkpt lat="44.80692" lon="5.44965">
        <ele>1066.72</ele>
        <time>2023-09-24T07:22:34Z</time>
      </trkpt>
      <trkpt lat="44.80707" lon="5.4498">
        <ele>1068.64</ele>
        <time>2023-09-24T07:22:50Z</time>
      </trkpt>
      <trkpt lat="44.80709" lon="5.44981">
        <ele>1068.64</ele>
        <time>2023-09-24T07:22:53Z</time>
      </trkpt>
      <trkpt lat="44.80718" lon="5.44987">
        <ele>1069.6</ele>
        <time>2023-09-24T07:23:01Z</time>
      </trkpt>
      <trkpt lat="44.80732" lon="5.45">
        <ele>1071.05</ele>
        <time>2023-09-24T07:23:16Z</time>
      </trkpt>
      <trkpt lat="44.80744" lon="5.45008">
        <ele>1072.49</ele>
        <time>2023-09-24T07:23:30Z</time>
      </trkpt>
      <trkpt lat="44.80755" lon="5.45014">
        <ele>1074.41</ele>
        <time>2023-09-24T07:23:45Z</time>
      </trkpt>
      <trkpt lat="44.80759" lon="5.45015">
        <ele>1075.37</ele>
        <time>2023-09-24T07:23:49Z</time>
      </trkpt>
      <trkpt lat="44.80768" lon="5.4502">
        <ele>1075.85</ele>
        <time>2023-09-24T07:23:58Z</time>
      </trkpt>
      <trkpt lat="44.80786" lon="5.4503">
        <ele>1076.81</ele>
        <time>2023-09-24T07:24:13Z</time>
      </trkpt>
      <trkpt lat="44.80796" lon="5.45033">
        <ele>1078.26</ele>
        <time>2023-09-24T07:24:24Z</time>
      </trkpt>
      <trkpt lat="44.80798" lon="5.45033">
        <ele>1078.74</ele>
        <time>2023-09-24T07:24:26Z</time>
      </trkpt>
      <trkpt lat="44.80817" lon="5.45026">
        <ele>1080.18</ele>
        <time>2023-09-24T07:24:42Z</time>
      </trkpt>
      <trkpt lat="44.80835" lon="5.45033">
        <ele>1082.1</ele>
        <time>2023-09-24T07:24:58Z</time>
      </trkpt>
      <trkpt lat="44.8085" lon="5.45048">
        <ele>1084.02</ele>
        <time>2023-09-24T07:25:14Z</time>
      </trkpt>
      <trkpt lat="44.80865" lon="5.45063">
        <ele>1085.47</ele>
        <time>2023-09-24T07:25:29Z</time>
      </trkpt>
      <trkpt lat="44.80878" lon="5.45081">
        <ele>1085.95</ele>
        <time>2023-09-24T07:25:44Z</time>
      </trkpt>
      <trkpt lat="44.8088" lon="5.45087">
        <ele>1085.95</ele>
        <time>2023-09-24T07:25:48Z</time>
      </trkpt>
      <trkpt lat="44.80877" lon="5.4511">
        <ele>1084.99</ele>
        <time>2023-09-24T07:26:04Z</time>
      </trkpt>
      <trkpt lat="44.80875" lon="5.45134">
        <ele>1083.54</ele>
        <time>2023-09-24T07:26:19Z</time>
      </trkpt>
      <trkpt lat="44.80873" lon="5.45158">
        <ele>1082.1</ele>
        <time>2023-09-24T07:26:34Z</time>
      </trkpt>
      <trkpt lat="44.80868" lon="5.45177">
        <ele>1081.14</ele>
        <time>2023-09-24T07:26:49Z</time>
      </trkpt>
      <trkpt lat="44.80862" lon="5.45197">
        <ele>1078.26</ele>
        <time>2023-09-24T07:27:04Z</time>
      </trkpt>
      <trkpt lat="44.8086" lon="5.45227">
        <ele>1076.81</ele>
        <time>2023-09-24T07:27:21Z</time>
      </trkpt>
      <trkpt lat="44.80859" lon="5.45252">
        <ele>1074.89</ele>
        <time>2023-09-24T07:27:36Z</time>
      </trkpt>
      <trkpt lat="44.80857" lon="5.45275">
        <ele>1073.93</ele>
        <time>2023-09-24T07:27:51Z</time>
      </trkpt>
      <trkpt lat="44.80851" lon="5.45299">
        <ele>1072.01</ele>
        <time>2023-09-24T07:28:07Z</time>
      </trkpt>
      <trkpt lat="44.80847" lon="5.45309">
        <ele>1071.05</ele>
        <time>2023-09-24T07:28:13Z</time>
      </trkpt>
      <trkpt lat="44.80845" lon="5.45313">
        <ele>1071.05</ele>
        <time>2023-09-24T07:28:16Z</time>
      </trkpt>
      <trkpt lat="44.80839" lon="5.45341">
        <ele>1069.6</ele>
        <time>2023-09-24T07:28:31Z</time>
      </trkpt>
      <trkpt lat="44.80831" lon="5.45363">
        <ele>1068.16</ele>
        <time>2023-09-24T07:28:47Z</time>
      </trkpt>
      <trkpt lat="44.80826" lon="5.45379">
        <ele>1066.72</ele>
        <time>2023-09-24T07:28:59Z</time>
      </trkpt>
      <trkpt lat="44.80827" lon="5.45386">
        <ele>1066.24</ele>
        <time>2023-09-24T07:29:04Z</time>
      </trkpt>
      <trkpt lat="44.80826" lon="5.45397">
        <ele>1066.24</ele>
        <time>2023-09-24T07:29:08Z</time>
      </trkpt>
      <trkpt lat="44.80827" lon="5.45406">
        <ele>1065.76</ele>
        <time>2023-09-24T07:29:12Z</time>
      </trkpt>
      <trkpt lat="44.80829" lon="5.45418">
        <ele>1065.28</ele>
        <time>2023-09-24T07:29:17Z</time>
      </trkpt>
      <trkpt lat="44.80829" lon="5.4543">
        <ele>1064.32</ele>
        <time>2023-09-24T07:29:23Z</time>
      </trkpt>
      <trkpt lat="44.8082" lon="5.45447">
        <ele>1062.87</ele>
        <time>2023-09-24T07:29:37Z</time>
      </trkpt>
      <trkpt lat="44.80818" lon="5.4545">
        <ele>1062.87</ele>
        <time>2023-09-24T07:29:39Z</time>
      </trkpt>
      <trkpt lat="44.80804" lon="5.45463">
        <ele>1061.43</ele>
        <time>2023-09-24T07:29:52Z</time>
      </trkpt>
      <trkpt lat="44.80791" lon="5.4548">
        <ele>1059.99</ele>
        <time>2023-09-24T07:30:06Z</time>
      </trkpt>
      <trkpt lat="44.80784" lon="5.45502">
        <ele>1058.55</ele>
        <time>2023-09-24T07:30:21Z</time>
      </trkpt>
      <trkpt lat="44.80785" lon="5.45518">
        <ele>1058.07</ele>
        <time>2023-09-24T07:30:34Z</time>
      </trkpt>
      <trkpt lat="44.80789" lon="5.45532">
        <ele>1057.59</ele>
        <time>2023-09-24T07:30:43Z</time>
      </trkpt>
      <trkpt lat="44.80807" lon="5.45539">
        <ele>1054.22</ele>
        <time>2023-09-24T07:31:00Z</time>
      </trkpt>
      <trkpt lat="44.80821" lon="5.45541">
        <ele>1052.3</ele>
        <time>2023-09-24T07:31:13Z</time>
      </trkpt>
      <trkpt lat="44.80846" lon="5.45539">
        <ele>1049.9</ele>
        <time>2023-09-24T07:31:29Z</time>
      </trkpt>
      <trkpt lat="44.80848" lon="5.45539">
        <ele>1049.9</ele>
        <time>2023-09-24T07:31:30Z</time>
      </trkpt>
      <trkpt lat="44.80853" lon="5.45537">
        <ele>1049.42</ele>
        <time>2023-09-24T07:31:34Z</time>
      </trkpt>
      <trkpt lat="44.80873" lon="5.45528">
        <ele>1047.97</ele>
        <time>2023-09-24T07:31:52Z</time>
      </trkpt>
      <trkpt lat="44.80892" lon="5.45524">
        <ele>1046.05</ele>
        <time>2023-09-24T07:32:08Z</time>
      </trkpt>
      <trkpt lat="44.80908" lon="5.45531">
        <ele>1044.13</ele>
        <time>2023-09-24T07:32:23Z</time>
      </trkpt>
      <trkpt lat="44.80927" lon="5.45531">
        <ele>1042.21</ele>
        <time>2023-09-24T07:32:38Z</time>
      </trkpt>
      <trkpt lat="44.80943" lon="5.45533">
        <ele>1041.73</ele>
        <time>2023-09-24T07:32:51Z</time>
      </trkpt>
      <trkpt lat="44.80949" lon="5.45531">
        <ele>1041.25</ele>
        <time>2023-09-24T07:33:02Z</time>
      </trkpt>
      <trkpt lat="44.80956" lon="5.45542">
        <ele>1041.25</ele>
        <time>2023-09-24T07:33:10Z</time>
      </trkpt>
      <trkpt lat="44.80966" lon="5.45551">
        <ele>1042.21</ele>
        <time>2023-09-24T07:33:17Z</time>
      </trkpt>
      <trkpt lat="44.80971" lon="5.45559">
        <ele>1042.69</ele>
        <time>2023-09-24T07:33:23Z</time>
      </trkpt>
      <trkpt lat="44.80973" lon="5.45563">
        <ele>1042.69</ele>
        <time>2023-09-24T07:33:26Z</time>
      </trkpt>
      <trkpt lat="44.80981" lon="5.45574">
        <ele>1042.69</ele>
        <time>2023-09-24T07:33:38Z</time>
      </trkpt>
      <trkpt lat="44.80988" lon="5.45592">
        <ele>1041.25</ele>
        <time>2023-09-24T07:33:54Z</time>
      </trkpt>
      <trkpt lat="44.8099" lon="5.45603">
        <ele>1040.28</ele>
        <time>2023-09-24T07:34:02Z</time>
      </trkpt>
      <trkpt lat="44.80998" lon="5.45625">
        <ele>1038.36</ele>
        <time>2023-09-24T07:34:16Z</time>
      </trkpt>
      <trkpt lat="44.81002" lon="5.45637">
        <ele>1037.88</ele>
        <time>2023-09-24T07:34:23Z</time>
      </trkpt>
      <trkpt lat="44.81005" lon="5.4565">
        <ele>1037.4</ele>
        <time>2023-09-24T07:34:31Z</time>
      </trkpt>
      <trkpt lat="44.81005" lon="5.45659">
        <ele>1036.44</ele>
        <time>2023-09-24T07:34:36Z</time>
      </trkpt>
      <trkpt lat="44.81003" lon="5.45672">
        <ele>1035.48</ele>
        <time>2023-09-24T07:34:46Z</time>
      </trkpt>
      <trkpt lat="44.81003" lon="5.45678">
        <ele>1035.48</ele>
        <time>2023-09-24T07:34:50Z</time>
      </trkpt>
      <trkpt lat="44.81002" lon="5.45691">
        <ele>1034.52</ele>
        <time>2023-09-24T07:34:58Z</time>
      </trkpt>
      <trkpt lat="44.80996" lon="5.45715">
        <ele>1033.55</ele>
        <time>2023-09-24T07:35:12Z</time>
      </trkpt>
      <trkpt lat="44.80991" lon="5.45741">
        <ele>1032.59</ele>
        <time>2023-09-24T07:35:27Z</time>
      </trkpt>
      <trkpt lat="44.80988" lon="5.45749">
        <ele>1032.11</ele>
        <time>2023-09-24T07:35:33Z</time>
      </trkpt>
      <trkpt lat="44.80977" lon="5.45771">
        <ele>1030.67</ele>
        <time>2023-09-24T07:35:47Z</time>
      </trkpt>
      <trkpt lat="44.80973" lon="5.45778">
        <ele>1030.19</ele>
        <time>2023-09-24T07:35:55Z</time>
      </trkpt>
      <trkpt lat="44.80971" lon="5.45785">
        <ele>1030.19</ele>
        <time>2023-09-24T07:35:58Z</time>
      </trkpt>
      <trkpt lat="44.80971" lon="5.4579">
        <ele>1029.71</ele>
        <time>2023-09-24T07:36:01Z</time>
      </trkpt>
      <trkpt lat="44.8097" lon="5.458">
        <ele>1029.23</ele>
        <time>2023-09-24T07:36:06Z</time>
      </trkpt>
      <trkpt lat="44.8097" lon="5.45803">
        <ele>1029.23</ele>
        <time>2023-09-24T07:36:08Z</time>
      </trkpt>
      <trkpt lat="44.8097" lon="5.45819">
        <ele>1028.75</ele>
        <time>2023-09-24T07:36:16Z</time>
      </trkpt>
      <trkpt lat="44.8097" lon="5.45835">
        <ele>1027.31</ele>
        <time>2023-09-24T07:36:24Z</time>
      </trkpt>
      <trkpt lat="44.80978" lon="5.4586">
        <ele>1026.83</ele>
        <time>2023-09-24T07:36:38Z</time>
      </trkpt>
      <trkpt lat="44.80981" lon="5.45868">
        <ele>1026.34</ele>
        <time>2023-09-24T07:36:44Z</time>
      </trkpt>
      <trkpt lat="44.80987" lon="5.45891">
        <ele>1024.9</ele>
        <time>2023-09-24T07:36:59Z</time>
      </trkpt>
      <trkpt lat="44.80991" lon="5.45904">
        <ele>1023.94</ele>
        <time>2023-09-24T07:37:08Z</time>
      </trkpt>
      <trkpt lat="44.80994" lon="5.45912">
        <ele>1023.94</ele>
        <time>2023-09-24T07:37:12Z</time>
      </trkpt>
      <trkpt lat="44.81005" lon="5.45933">
        <ele>1022.5</ele>
        <time>2023-09-24T07:37:26Z</time>
      </trkpt>
      <trkpt lat="44.81018" lon="5.45938">
        <ele>1022.02</ele>
        <time>2023-09-24T07:37:41Z</time>
      </trkpt>
      <trkpt lat="44.81021" lon="5.45937">
        <ele>1022.02</ele>
        <time>2023-09-24T07:37:43Z</time>
      </trkpt>
      <trkpt lat="44.81037" lon="5.45915">
        <ele>1020.58</ele>
        <time>2023-09-24T07:37:59Z</time>
      </trkpt>
      <trkpt lat="44.81054" lon="5.45904">
        <ele>1020.1</ele>
        <time>2023-09-24T07:38:13Z</time>
      </trkpt>
      <trkpt lat="44.81056" lon="5.45903">
        <ele>1020.1</ele>
        <time>2023-09-24T07:38:15Z</time>
      </trkpt>
      <trkpt lat="44.81075" lon="5.45924">
        <ele>1018.17</ele>
        <time>2023-09-24T07:38:34Z</time>
      </trkpt>
      <trkpt lat="44.81089" lon="5.45943">
        <ele>1017.21</ele>
        <time>2023-09-24T07:38:50Z</time>
      </trkpt>
      <trkpt lat="44.81103" lon="5.45967">
        <ele>1016.73</ele>
        <time>2023-09-24T07:39:06Z</time>
      </trkpt>
      <trkpt lat="44.81111" lon="5.45994">
        <ele>1016.73</ele>
        <time>2023-09-24T07:39:23Z</time>
      </trkpt>
      <trkpt lat="44.81118" lon="5.46022">
        <ele>1016.73</ele>
        <time>2023-09-24T07:39:39Z</time>
      </trkpt>
      <trkpt lat="44.81123" lon="5.46039">
        <ele>1016.73</ele>
        <time>2023-09-24T07:39:50Z</time>
      </trkpt>
      <trkpt lat="44.81134" lon="5.46052">
        <ele>1016.73</ele>
        <time>2023-09-24T07:40:03Z</time>
      </trkpt>
      <trkpt lat="44.81136" lon="5.46053">
        <ele>1016.73</ele>
        <time>2023-09-24T07:40:05Z</time>
      </trkpt>
      <trkpt lat="44.81152" lon="5.46061">
        <ele>1017.69</ele>
        <time>2023-09-24T07:40:19Z</time>
      </trkpt>
      <trkpt lat="44.81163" lon="5.46065">
        <ele>1018.65</ele>
        <time>2023-09-24T07:40:29Z</time>
      </trkpt>
      <trkpt lat="44.81164" lon="5.46065">
        <ele>1019.13</ele>
        <time>2023-09-24T07:40:30Z</time>
      </trkpt>
      <trkpt lat="44.81182" lon="5.46077">
        <ele>1021.06</ele>
        <time>2023-09-24T07:40:44Z</time>
      </trkpt>
      <trkpt lat="44.81189" lon="5.46093">
        <ele>1022.5</ele>
        <time>2023-09-24T07:40:57Z</time>
      </trkpt>
      <trkpt lat="44.81189" lon="5.46104">
        <ele>1023.94</ele>
        <time>2023-09-24T07:41:09Z</time>
      </trkpt>
      <trkpt lat="44.81189" lon="5.46125">
        <ele>1025.86</ele>
        <time>2023-09-24T07:41:22Z</time>
      </trkpt>
      <trkpt lat="44.81189" lon="5.46129">
        <ele>1025.86</ele>
        <time>2023-09-24T07:41:25Z</time>
      </trkpt>
      <trkpt lat="44.81192" lon="5.46143">
        <ele>1026.83</ele>
        <time>2023-09-24T07:41:34Z</time>
      </trkpt>
      <trkpt lat="44.81204" lon="5.46151">
        <ele>1028.75</ele>
        <time>2023-09-24T07:41:50Z</time>
      </trkpt>
      <trkpt lat="44.8121" lon="5.46152">
        <ele>1029.71</ele>
        <time>2023-09-24T07:41:57Z</time>
      </trkpt>
      <trkpt lat="44.81228" lon="5.46151">
        <ele>1031.63</ele>
        <time>2023-09-24T07:42:15Z</time>
      </trkpt>
      <trkpt lat="44.81241" lon="5.46159">
        <ele>1033.55</ele>
        <time>2023-09-24T07:42:27Z</time>
      </trkpt>
      <trkpt lat="44.81251" lon="5.46169">
        <ele>1035.96</ele>
        <time>2023-09-24T07:42:40Z</time>
      </trkpt>
      <trkpt lat="44.81262" lon="5.46181">
        <ele>1038.84</ele>
        <time>2023-09-24T07:42:57Z</time>
      </trkpt>
      <trkpt lat="44.81273" lon="5.46191">
        <ele>1040.76</ele>
        <time>2023-09-24T07:43:13Z</time>
      </trkpt>
      <trkpt lat="44.81279" lon="5.46193">
        <ele>1042.21</ele>
        <time>2023-09-24T07:43:28Z</time>
      </trkpt>
      <trkpt lat="44.81286" lon="5.46203">
        <ele>1043.65</ele>
        <time>2023-09-24T07:43:42Z</time>
      </trkpt>
      <trkpt lat="44.81296" lon="5.4621">
        <ele>1045.09</ele>
        <time>2023-09-24T07:43:54Z</time>
      </trkpt>
      <trkpt lat="44.81309" lon="5.46224">
        <ele>1047.49</ele>
        <time>2023-09-24T07:44:09Z</time>
      </trkpt>
      <trkpt lat="44.81314" lon="5.46238">
        <ele>1049.42</ele>
        <time>2023-09-24T07:44:23Z</time>
      </trkpt>
      <trkpt lat="44.81317" lon="5.46241">
        <ele>1049.9</ele>
        <time>2023-09-24T07:44:26Z</time>
      </trkpt>
      <trkpt lat="44.81325" lon="5.46252">
        <ele>1051.82</ele>
        <time>2023-09-24T07:44:38Z</time>
      </trkpt>
      <trkpt lat="44.81329" lon="5.46259">
        <ele>1053.26</ele>
        <time>2023-09-24T07:44:46Z</time>
      </trkpt>
      <trkpt lat="44.81333" lon="5.46263">
        <ele>1053.74</ele>
        <time>2023-09-24T07:44:51Z</time>
      </trkpt>
      <trkpt lat="44.81335" lon="5.46278">
        <ele>1055.18</ele>
        <time>2023-09-24T07:45:04Z</time>
      </trkpt>
      <trkpt lat="44.81334" lon="5.46281">
        <ele>1055.67</ele>
        <time>2023-09-24T07:45:06Z</time>
      </trkpt>
      <trkpt lat="44.81334" lon="5.46285">
        <ele>1055.67</ele>
        <time>2023-09-24T07:45:08Z</time>
      </trkpt>
      <trkpt lat="44.81329" lon="5.46307">
        <ele>1057.59</ele>
        <time>2023-09-24T07:45:23Z</time>
      </trkpt>
      <trkpt lat="44.81327" lon="5.46327">
        <ele>1059.03</ele>
        <time>2023-09-24T07:45:37Z</time>
      </trkpt>
      <trkpt lat="44.81329" lon="5.46338">
        <ele>1060.95</ele>
        <time>2023-09-24T07:45:49Z</time>
      </trkpt>
      <trkpt lat="44.81343" lon="5.46338">
        <ele>1063.36</ele>
        <time>2023-09-24T07:46:07Z</time>
      </trkpt>
      <trkpt lat="44.81355" lon="5.46335">
        <ele>1064.8</ele>
        <time>2023-09-24T07:46:21Z</time>
      </trkpt>
      <trkpt lat="44.81367" lon="5.46331">
        <ele>1066.72</ele>
        <time>2023-09-24T07:46:36Z</time>
      </trkpt>
      <trkpt lat="44.81385" lon="5.46329">
        <ele>1067.68</ele>
        <time>2023-09-24T07:46:50Z</time>
      </trkpt>
      <trkpt lat="44.81394" lon="5.4633">
        <ele>1069.12</ele>
        <time>2023-09-24T07:47:03Z</time>
      </trkpt>
      <trkpt lat="44.81398" lon="5.46338">
        <ele>1070.57</ele>
        <time>2023-09-24T07:47:14Z</time>
      </trkpt>
      <trkpt lat="44.81403" lon="5.46348">
        <ele>1072.97</ele>
        <time>2023-09-24T07:47:26Z</time>
      </trkpt>
      <trkpt lat="44.81407" lon="5.46364">
        <ele>1074.89</ele>
        <time>2023-09-24T07:47:41Z</time>
      </trkpt>
      <trkpt lat="44.81409" lon="5.46376">
        <ele>1076.33</ele>
        <time>2023-09-24T07:47:56Z</time>
      </trkpt>
      <trkpt lat="44.81424" lon="5.46378">
        <ele>1077.29</ele>
        <time>2023-09-24T07:48:19Z</time>
      </trkpt>
      <trkpt lat="44.81437" lon="5.46387">
        <ele>1080.18</ele>
        <time>2023-09-24T07:48:34Z</time>
      </trkpt>
      <trkpt lat="44.81444" lon="5.464">
        <ele>1082.58</ele>
        <time>2023-09-24T07:48:48Z</time>
      </trkpt>
      <trkpt lat="44.81453" lon="5.46415">
        <ele>1085.47</ele>
        <time>2023-09-24T07:49:03Z</time>
      </trkpt>
      <trkpt lat="44.81461" lon="5.46429">
        <ele>1087.87</ele>
        <time>2023-09-24T07:49:17Z</time>
      </trkpt>
      <trkpt lat="44.81464" lon="5.46442">
        <ele>1089.79</ele>
        <time>2023-09-24T07:49:30Z</time>
      </trkpt>
      <trkpt lat="44.81474" lon="5.46456">
        <ele>1092.2</ele>
        <time>2023-09-24T07:49:45Z</time>
      </trkpt>
      <trkpt lat="44.81481" lon="5.46465">
        <ele>1095.08</ele>
        <time>2023-09-24T07:50:01Z</time>
      </trkpt>
      <trkpt lat="44.81487" lon="5.46473">
        <ele>1097.48</ele>
        <time>2023-09-24T07:50:15Z</time>
      </trkpt>
      <trkpt lat="44.81495" lon="5.46485">
        <ele>1099.89</ele>
        <time>2023-09-24T07:50:30Z</time>
      </trkpt>
      <trkpt lat="44.81497" lon="5.46496">
        <ele>1101.81</ele>
        <time>2023-09-24T07:50:44Z</time>
      </trkpt>
      <trkpt lat="44.81501" lon="5.46504">
        <ele>1104.21</ele>
        <time>2023-09-24T07:50:57Z</time>
      </trkpt>
      <trkpt lat="44.81502" lon="5.46505">
        <ele>1104.21</ele>
        <time>2023-09-24T07:50:58Z</time>
      </trkpt>
      <trkpt lat="44.81504" lon="5.46515">
        <ele>1106.61</ele>
        <time>2023-09-24T07:51:10Z</time>
      </trkpt>
      <trkpt lat="44.81504" lon="5.46527">
        <ele>1109.02</ele>
        <time>2023-09-24T07:51:22Z</time>
      </trkpt>
      <trkpt lat="44.81508" lon="5.4654">
        <ele>1110.46</ele>
        <time>2023-09-24T07:51:33Z</time>
      </trkpt>
      <trkpt lat="44.81512" lon="5.46551">
        <ele>1112.38</ele>
        <time>2023-09-24T07:51:44Z</time>
      </trkpt>
      <trkpt lat="44.81516" lon="5.46563">
        <ele>1114.79</ele>
        <time>2023-09-24T07:51:58Z</time>
      </trkpt>
      <trkpt lat="44.81522" lon="5.46573">
        <ele>1117.19</ele>
        <time>2023-09-24T07:52:13Z</time>
      </trkpt>
      <trkpt lat="44.81524" lon="5.46583">
        <ele>1118.15</ele>
        <time>2023-09-24T07:52:23Z</time>
      </trkpt>
      <trkpt lat="44.81525" lon="5.46585">
        <ele>1119.11</ele>
        <time>2023-09-24T07:52:25Z</time>
      </trkpt>
      <trkpt lat="44.81531" lon="5.46594">
        <ele>1121.03</ele>
        <time>2023-09-24T07:52:37Z</time>
      </trkpt>
      <trkpt lat="44.81532" lon="5.46606">
        <ele>1122.96</ele>
        <time>2023-09-24T07:52:49Z</time>
      </trkpt>
      <trkpt lat="44.81535" lon="5.46619">
        <ele>1125.84</ele>
        <time>2023-09-24T07:53:02Z</time>
      </trkpt>
      <trkpt lat="44.81537" lon="5.46629">
        <ele>1127.28</ele>
        <time>2023-09-24T07:53:15Z</time>
      </trkpt>
      <trkpt lat="44.81539" lon="5.46643">
        <ele>1130.17</ele>
        <time>2023-09-24T07:53:30Z</time>
      </trkpt>
      <trkpt lat="44.8154" lon="5.46657">
        <ele>1132.09</ele>
        <time>2023-09-24T07:53:43Z</time>
      </trkpt>
      <trkpt lat="44.81545" lon="5.4667">
        <ele>1134.49</ele>
        <time>2023-09-24T07:53:57Z</time>
      </trkpt>
      <trkpt lat="44.81554" lon="5.46683">
        <ele>1137.38</ele>
        <time>2023-09-24T07:54:14Z</time>
      </trkpt>
      <trkpt lat="44.81561" lon="5.46694">
        <ele>1139.78</ele>
        <time>2023-09-24T07:54:27Z</time>
      </trkpt>
      <trkpt lat="44.81571" lon="5.46704">
        <ele>1142.18</ele>
        <time>2023-09-24T07:54:43Z</time>
      </trkpt>
      <trkpt lat="44.81577" lon="5.46713">
        <ele>1144.59</ele>
        <time>2023-09-24T07:54:56Z</time>
      </trkpt>
      <trkpt lat="44.81581" lon="5.46721">
        <ele>1146.51</ele>
        <time>2023-09-24T07:55:08Z</time>
      </trkpt>
      <trkpt lat="44.81586" lon="5.46734">
        <ele>1149.39</ele>
        <time>2023-09-24T07:55:22Z</time>
      </trkpt>
      <trkpt lat="44.81589" lon="5.46749">
        <ele>1151.8</ele>
        <time>2023-09-24T07:55:36Z</time>
      </trkpt>
      <trkpt lat="44.81589" lon="5.46765">
        <ele>1154.2</ele>
        <time>2023-09-24T07:55:51Z</time>
      </trkpt>
      <trkpt lat="44.81587" lon="5.46775">
        <ele>1157.56</ele>
        <time>2023-09-24T07:56:08Z</time>
      </trkpt>
      <trkpt lat="44.81582" lon="5.46781">
        <ele>1160.45</ele>
        <time>2023-09-24T07:56:23Z</time>
      </trkpt>
      <trkpt lat="44.81574" lon="5.46785">
        <ele>1163.33</ele>
        <time>2023-09-24T07:56:37Z</time>
      </trkpt>
      <trkpt lat="44.81581" lon="5.46794">
        <ele>1165.74</ele>
        <time>2023-09-24T07:56:52Z</time>
      </trkpt>
      <trkpt lat="44.81588" lon="5.46805">
        <ele>1167.66</ele>
        <time>2023-09-24T07:57:07Z</time>
      </trkpt>
      <trkpt lat="44.81593" lon="5.46814">
        <ele>1170.06</ele>
        <time>2023-09-24T07:57:26Z</time>
      </trkpt>
      <trkpt lat="44.81596" lon="5.46824">
        <ele>1172.47</ele>
        <time>2023-09-24T07:57:43Z</time>
      </trkpt>
      <trkpt lat="44.81596" lon="5.4683">
        <ele>1173.91</ele>
        <time>2023-09-24T07:58:00Z</time>
      </trkpt>
      <trkpt lat="44.81591" lon="5.4683">
        <ele>1174.39</ele>
        <time>2023-09-24T08:01:08Z</time>
      </trkpt>
      <trkpt lat="44.81582" lon="5.46831">
        <ele>1177.27</ele>
        <time>2023-09-24T08:01:24Z</time>
      </trkpt>
      <trkpt lat="44.81569" lon="5.46832">
        <ele>1179.19</ele>
        <time>2023-09-24T08:01:40Z</time>
      </trkpt>
      <trkpt lat="44.81558" lon="5.46834">
        <ele>1180.64</ele>
        <time>2023-09-24T08:01:52Z</time>
      </trkpt>
      <trkpt lat="44.81548" lon="5.46836">
        <ele>1182.08</ele>
        <time>2023-09-24T08:02:04Z</time>
      </trkpt>
      <trkpt lat="44.81537" lon="5.46839">
        <ele>1184</ele>
        <time>2023-09-24T08:02:17Z</time>
      </trkpt>
      <trkpt lat="44.81529" lon="5.46838">
        <ele>1185.44</ele>
        <time>2023-09-24T08:02:30Z</time>
      </trkpt>
      <trkpt lat="44.81514" lon="5.46834">
        <ele>1186.88</ele>
        <time>2023-09-24T08:02:44Z</time>
      </trkpt>
      <trkpt lat="44.81504" lon="5.46833">
        <ele>1189.29</ele>
        <time>2023-09-24T08:02:55Z</time>
      </trkpt>
      <trkpt lat="44.81498" lon="5.46841">
        <ele>1191.69</ele>
        <time>2023-09-24T08:03:08Z</time>
      </trkpt>
      <trkpt lat="44.81509" lon="5.4685">
        <ele>1193.61</ele>
        <time>2023-09-24T08:03:24Z</time>
      </trkpt>
      <trkpt lat="44.81516" lon="5.46861">
        <ele>1196.02</ele>
        <time>2023-09-24T08:03:37Z</time>
      </trkpt>
      <trkpt lat="44.81525" lon="5.46871">
        <ele>1196.98</ele>
        <time>2023-09-24T08:03:50Z</time>
      </trkpt>
      <trkpt lat="44.81529" lon="5.46874">
        <ele>1197.46</ele>
        <time>2023-09-24T08:03:55Z</time>
      </trkpt>
      <trkpt lat="44.81539" lon="5.4688">
        <ele>1198.9</ele>
        <time>2023-09-24T08:04:08Z</time>
      </trkpt>
      <trkpt lat="44.81551" lon="5.46888">
        <ele>1200.34</ele>
        <time>2023-09-24T08:04:23Z</time>
      </trkpt>
      <trkpt lat="44.81562" lon="5.46898">
        <ele>1201.79</ele>
        <time>2023-09-24T08:04:37Z</time>
      </trkpt>
      <trkpt lat="44.8157" lon="5.46908">
        <ele>1203.23</ele>
        <time>2023-09-24T08:04:50Z</time>
      </trkpt>
      <trkpt lat="44.81574" lon="5.46914">
        <ele>1204.67</ele>
        <time>2023-09-24T08:04:58Z</time>
      </trkpt>
      <trkpt lat="44.81583" lon="5.46927">
        <ele>1205.63</ele>
        <time>2023-09-24T08:05:12Z</time>
      </trkpt>
      <trkpt lat="44.8159" lon="5.46941">
        <ele>1208.03</ele>
        <time>2023-09-24T08:05:28Z</time>
      </trkpt>
      <trkpt lat="44.81597" lon="5.46952">
        <ele>1209</ele>
        <time>2023-09-24T08:05:42Z</time>
      </trkpt>
      <trkpt lat="44.81606" lon="5.46965">
        <ele>1210.92</ele>
        <time>2023-09-24T08:05:56Z</time>
      </trkpt>
      <trkpt lat="44.81612" lon="5.46976">
        <ele>1211.4</ele>
        <time>2023-09-24T08:06:07Z</time>
      </trkpt>
      <trkpt lat="44.8162" lon="5.46987">
        <ele>1212.84</ele>
        <time>2023-09-24T08:06:20Z</time>
      </trkpt>
      <trkpt lat="44.8163" lon="5.46997">
        <ele>1214.76</ele>
        <time>2023-09-24T08:06:33Z</time>
      </trkpt>
      <trkpt lat="44.81631" lon="5.46998">
        <ele>1215.24</ele>
        <time>2023-09-24T08:06:34Z</time>
      </trkpt>
      <trkpt lat="44.81641" lon="5.47008">
        <ele>1217.17</ele>
        <time>2023-09-24T08:06:49Z</time>
      </trkpt>
      <trkpt lat="44.81651" lon="5.47017">
        <ele>1219.09</ele>
        <time>2023-09-24T08:07:03Z</time>
      </trkpt>
      <trkpt lat="44.81652" lon="5.47018">
        <ele>1219.09</ele>
        <time>2023-09-24T08:07:04Z</time>
      </trkpt>
      <trkpt lat="44.81664" lon="5.47026">
        <ele>1221.49</ele>
        <time>2023-09-24T08:07:23Z</time>
      </trkpt>
      <trkpt lat="44.81674" lon="5.47034">
        <ele>1224.38</ele>
        <time>2023-09-24T08:07:40Z</time>
      </trkpt>
      <trkpt lat="44.81682" lon="5.47043">
        <ele>1226.78</ele>
        <time>2023-09-24T08:07:55Z</time>
      </trkpt>
      <trkpt lat="44.81691" lon="5.47049">
        <ele>1227.26</ele>
        <time>2023-09-24T08:08:10Z</time>
      </trkpt>
      <trkpt lat="44.81699" lon="5.47053">
        <ele>1229.66</ele>
        <time>2023-09-24T08:08:24Z</time>
      </trkpt>
      <trkpt lat="44.81708" lon="5.47055">
        <ele>1232.07</ele>
        <time>2023-09-24T08:08:39Z</time>
      </trkpt>
      <trkpt lat="44.81722" lon="5.47058">
        <ele>1233.99</ele>
        <time>2023-09-24T08:08:56Z</time>
      </trkpt>
      <trkpt lat="44.8173" lon="5.47061">
        <ele>1235.43</ele>
        <time>2023-09-24T08:09:06Z</time>
      </trkpt>
      <trkpt lat="44.8174" lon="5.47074">
        <ele>1238.32</ele>
        <time>2023-09-24T08:09:24Z</time>
      </trkpt>
      <trkpt lat="44.81745" lon="5.47079">
        <ele>1239.28</ele>
        <time>2023-09-24T08:09:32Z</time>
      </trkpt>
      <trkpt lat="44.81755" lon="5.4709">
        <ele>1242.16</ele>
        <time>2023-09-24T08:09:48Z</time>
      </trkpt>
      <trkpt lat="44.81764" lon="5.47096">
        <ele>1244.08</ele>
        <time>2023-09-24T08:10:02Z</time>
      </trkpt>
      <trkpt lat="44.81774" lon="5.47105">
        <ele>1246.49</ele>
        <time>2023-09-24T08:10:17Z</time>
      </trkpt>
      <trkpt lat="44.81783" lon="5.47113">
        <ele>1248.89</ele>
        <time>2023-09-24T08:10:32Z</time>
      </trkpt>
      <trkpt lat="44.8179" lon="5.47121">
        <ele>1251.29</ele>
        <time>2023-09-24T08:10:45Z</time>
      </trkpt>
      <trkpt lat="44.81795" lon="5.47133">
        <ele>1253.7</ele>
        <time>2023-09-24T08:10:59Z</time>
      </trkpt>
      <trkpt lat="44.81798" lon="5.47145">
        <ele>1256.1</ele>
        <time>2023-09-24T08:11:13Z</time>
      </trkpt>
      <trkpt lat="44.81802" lon="5.4716">
        <ele>1258.5</ele>
        <time>2023-09-24T08:11:30Z</time>
      </trkpt>
      <trkpt lat="44.81804" lon="5.47172">
        <ele>1260.91</ele>
        <time>2023-09-24T08:11:42Z</time>
      </trkpt>
      <trkpt lat="44.81809" lon="5.47192">
        <ele>1263.79</ele>
        <time>2023-09-24T08:11:59Z</time>
      </trkpt>
      <trkpt lat="44.81812" lon="5.47206">
        <ele>1266.67</ele>
        <time>2023-09-24T08:12:14Z</time>
      </trkpt>
      <trkpt lat="44.81812" lon="5.47219">
        <ele>1269.08</ele>
        <time>2023-09-24T08:12:28Z</time>
      </trkpt>
      <trkpt lat="44.81816" lon="5.47235">
        <ele>1271.96</ele>
        <time>2023-09-24T08:12:44Z</time>
      </trkpt>
      <trkpt lat="44.8182" lon="5.47247">
        <ele>1273.88</ele>
        <time>2023-09-24T08:13:00Z</time>
      </trkpt>
      <trkpt lat="44.81827" lon="5.47262">
        <ele>1276.77</ele>
        <time>2023-09-24T08:13:17Z</time>
      </trkpt>
      <trkpt lat="44.81833" lon="5.47273">
        <ele>1279.17</ele>
        <time>2023-09-24T08:13:32Z</time>
      </trkpt>
      <trkpt lat="44.81838" lon="5.47287">
        <ele>1282.06</ele>
        <time>2023-09-24T08:13:48Z</time>
      </trkpt>
      <trkpt lat="44.81841" lon="5.47302">
        <ele>1285.42</ele>
        <time>2023-09-24T08:14:05Z</time>
      </trkpt>
      <trkpt lat="44.81847" lon="5.47315">
        <ele>1287.34</ele>
        <time>2023-09-24T08:14:21Z</time>
      </trkpt>
      <trkpt lat="44.81853" lon="5.47333">
        <ele>1290.23</ele>
        <time>2023-09-24T08:14:39Z</time>
      </trkpt>
      <trkpt lat="44.81856" lon="5.47346">
        <ele>1292.63</ele>
        <time>2023-09-24T08:14:55Z</time>
      </trkpt>
      <trkpt lat="44.8186" lon="5.47357">
        <ele>1295.03</ele>
        <time>2023-09-24T08:15:09Z</time>
      </trkpt>
      <trkpt lat="44.81867" lon="5.47364">
        <ele>1297.92</ele>
        <time>2023-09-24T08:15:23Z</time>
      </trkpt>
      <trkpt lat="44.81872" lon="5.47375">
        <ele>1300.8</ele>
        <time>2023-09-24T08:15:38Z</time>
      </trkpt>
      <trkpt lat="44.81875" lon="5.47386">
        <ele>1303.2</ele>
        <time>2023-09-24T08:15:52Z</time>
      </trkpt>
      <trkpt lat="44.81883" lon="5.47392">
        <ele>1304.65</ele>
        <time>2023-09-24T08:16:08Z</time>
      </trkpt>
      <trkpt lat="44.81886" lon="5.474">
        <ele>1307.05</ele>
        <time>2023-09-24T08:16:20Z</time>
      </trkpt>
      <trkpt lat="44.81889" lon="5.47412">
        <ele>1309.45</ele>
        <time>2023-09-24T08:16:34Z</time>
      </trkpt>
      <trkpt lat="44.81892" lon="5.47425">
        <ele>1311.86</ele>
        <time>2023-09-24T08:16:47Z</time>
      </trkpt>
      <trkpt lat="44.81895" lon="5.4744">
        <ele>1314.26</ele>
        <time>2023-09-24T08:17:02Z</time>
      </trkpt>
      <trkpt lat="44.819" lon="5.47449">
        <ele>1316.66</ele>
        <time>2023-09-24T08:17:16Z</time>
      </trkpt>
      <trkpt lat="44.81905" lon="5.4746">
        <ele>1319.55</ele>
        <time>2023-09-24T08:17:31Z</time>
      </trkpt>
      <trkpt lat="44.8191" lon="5.47471">
        <ele>1321.95</ele>
        <time>2023-09-24T08:17:47Z</time>
      </trkpt>
      <trkpt lat="44.81915" lon="5.47481">
        <ele>1324.83</ele>
        <time>2023-09-24T08:18:02Z</time>
      </trkpt>
      <trkpt lat="44.81923" lon="5.47492">
        <ele>1327.72</ele>
        <time>2023-09-24T08:18:19Z</time>
      </trkpt>
      <trkpt lat="44.81928" lon="5.47501">
        <ele>1331.08</ele>
        <time>2023-09-24T08:18:35Z</time>
      </trkpt>
      <trkpt lat="44.81935" lon="5.47509">
        <ele>1333.97</ele>
        <time>2023-09-24T08:18:51Z</time>
      </trkpt>
      <trkpt lat="44.81941" lon="5.47517">
        <ele>1336.37</ele>
        <time>2023-09-24T08:19:06Z</time>
      </trkpt>
      <trkpt lat="44.81946" lon="5.47524">
        <ele>1339.73</ele>
        <time>2023-09-24T08:19:20Z</time>
      </trkpt>
      <trkpt lat="44.81954" lon="5.47532">
        <ele>1342.14</ele>
        <time>2023-09-24T08:19:35Z</time>
      </trkpt>
      <trkpt lat="44.81957" lon="5.47543">
        <ele>1344.06</ele>
        <time>2023-09-24T08:19:47Z</time>
      </trkpt>
      <trkpt lat="44.81961" lon="5.47554">
        <ele>1345.98</ele>
        <time>2023-09-24T08:19:59Z</time>
      </trkpt>
      <trkpt lat="44.81963" lon="5.47557">
        <ele>1346.46</ele>
        <time>2023-09-24T08:20:04Z</time>
      </trkpt>
      <trkpt lat="44.81969" lon="5.47566">
        <ele>1347.91</ele>
        <time>2023-09-24T08:20:16Z</time>
      </trkpt>
      <trkpt lat="44.81975" lon="5.4758">
        <ele>1350.31</ele>
        <time>2023-09-24T08:20:31Z</time>
      </trkpt>
      <trkpt lat="44.81985" lon="5.47593">
        <ele>1352.71</ele>
        <time>2023-09-24T08:20:47Z</time>
      </trkpt>
      <trkpt lat="44.81991" lon="5.47604">
        <ele>1355.6</ele>
        <time>2023-09-24T08:21:03Z</time>
      </trkpt>
      <trkpt lat="44.82001" lon="5.47617">
        <ele>1358</ele>
        <time>2023-09-24T08:21:18Z</time>
      </trkpt>
      <trkpt lat="44.82003" lon="5.47621">
        <ele>1358.96</ele>
        <time>2023-09-24T08:21:25Z</time>
      </trkpt>
      <trkpt lat="44.82011" lon="5.47633">
        <ele>1361.36</ele>
        <time>2023-09-24T08:21:40Z</time>
      </trkpt>
      <trkpt lat="44.82012" lon="5.47635">
        <ele>1362.33</ele>
        <time>2023-09-24T08:21:44Z</time>
      </trkpt>
      <trkpt lat="44.82021" lon="5.47645">
        <ele>1364.25</ele>
        <time>2023-09-24T08:21:59Z</time>
      </trkpt>
      <trkpt lat="44.82031" lon="5.47654">
        <ele>1365.69</ele>
        <time>2023-09-24T08:22:12Z</time>
      </trkpt>
      <trkpt lat="44.8204" lon="5.47662">
        <ele>1367.61</ele>
        <time>2023-09-24T08:22:24Z</time>
      </trkpt>
      <trkpt lat="44.82047" lon="5.47672">
        <ele>1369.54</ele>
        <time>2023-09-24T08:22:38Z</time>
      </trkpt>
      <trkpt lat="44.82052" lon="5.47679">
        <ele>1370.98</ele>
        <time>2023-09-24T08:22:52Z</time>
      </trkpt>
      <trkpt lat="44.82053" lon="5.47683">
        <ele>1369.05</ele>
        <time>2023-09-24T08:28:30Z</time>
      </trkpt>
      <trkpt lat="44.82056" lon="5.4769">
        <ele>1370.98</ele>
        <time>2023-09-24T08:28:47Z</time>
      </trkpt>
      <trkpt lat="44.82061" lon="5.47705">
        <ele>1373.38</ele>
        <time>2023-09-24T08:29:03Z</time>
      </trkpt>
      <trkpt lat="44.82065" lon="5.47723">
        <ele>1375.78</ele>
        <time>2023-09-24T08:29:19Z</time>
      </trkpt>
      <trkpt lat="44.82065" lon="5.47737">
        <ele>1378.19</ele>
        <time>2023-09-24T08:29:34Z</time>
      </trkpt>
      <trkpt lat="44.82063" lon="5.47753">
        <ele>1380.59</ele>
        <time>2023-09-24T08:29:50Z</time>
      </trkpt>
      <trkpt lat="44.82062" lon="5.47764">
        <ele>1382.99</ele>
        <time>2023-09-24T08:30:01Z</time>
      </trkpt>
      <trkpt lat="44.82069" lon="5.47773">
        <ele>1384.92</ele>
        <time>2023-09-24T08:30:16Z</time>
      </trkpt>
      <trkpt lat="44.82078" lon="5.47785">
        <ele>1387.8</ele>
        <time>2023-09-24T08:30:32Z</time>
      </trkpt>
      <trkpt lat="44.82083" lon="5.47799">
        <ele>1391.17</ele>
        <time>2023-09-24T08:30:50Z</time>
      </trkpt>
      <trkpt lat="44.82086" lon="5.4781">
        <ele>1393.57</ele>
        <time>2023-09-24T08:31:06Z</time>
      </trkpt>
      <trkpt lat="44.82084" lon="5.47822">
        <ele>1395.97</ele>
        <time>2023-09-24T08:31:22Z</time>
      </trkpt>
      <trkpt lat="44.82083" lon="5.47832">
        <ele>1397.89</ele>
        <time>2023-09-24T08:31:36Z</time>
      </trkpt>
      <trkpt lat="44.82088" lon="5.47842">
        <ele>1400.78</ele>
        <time>2023-09-24T08:31:52Z</time>
      </trkpt>
      <trkpt lat="44.82092" lon="5.47852">
        <ele>1403.18</ele>
        <time>2023-09-24T08:32:07Z</time>
      </trkpt>
      <trkpt lat="44.82091" lon="5.47862">
        <ele>1405.58</ele>
        <time>2023-09-24T08:32:23Z</time>
      </trkpt>
      <trkpt lat="44.82092" lon="5.47868">
        <ele>1407.99</ele>
        <time>2023-09-24T08:32:36Z</time>
      </trkpt>
      <trkpt lat="44.82094" lon="5.47877">
        <ele>1410.39</ele>
        <time>2023-09-24T08:32:51Z</time>
      </trkpt>
      <trkpt lat="44.82096" lon="5.47886">
        <ele>1412.31</ele>
        <time>2023-09-24T08:33:04Z</time>
      </trkpt>
      <trkpt lat="44.82096" lon="5.47895">
        <ele>1414.72</ele>
        <time>2023-09-24T08:33:19Z</time>
      </trkpt>
      <trkpt lat="44.821" lon="5.47907">
        <ele>1417.12</ele>
        <time>2023-09-24T08:33:36Z</time>
      </trkpt>
      <trkpt lat="44.82099" lon="5.47917">
        <ele>1420</ele>
        <time>2023-09-24T08:33:52Z</time>
      </trkpt>
      <trkpt lat="44.82105" lon="5.47927">
        <ele>1422.89</ele>
        <time>2023-09-24T08:34:07Z</time>
      </trkpt>
      <trkpt lat="44.82107" lon="5.47937">
        <ele>1425.77</ele>
        <time>2023-09-24T08:34:23Z</time>
      </trkpt>
      <trkpt lat="44.82109" lon="5.47946">
        <ele>1428.18</ele>
        <time>2023-09-24T08:34:38Z</time>
      </trkpt>
      <trkpt lat="44.82116" lon="5.47954">
        <ele>1430.58</ele>
        <time>2023-09-24T08:34:52Z</time>
      </trkpt>
      <trkpt lat="44.82115" lon="5.47965">
        <ele>1432.98</ele>
        <time>2023-09-24T08:35:05Z</time>
      </trkpt>
      <trkpt lat="44.82116" lon="5.47977">
        <ele>1434.91</ele>
        <time>2023-09-24T08:35:23Z</time>
      </trkpt>
      <trkpt lat="44.82123" lon="5.47983">
        <ele>1437.79</ele>
        <time>2023-09-24T08:35:38Z</time>
      </trkpt>
      <trkpt lat="44.82128" lon="5.47994">
        <ele>1441.15</ele>
        <time>2023-09-24T08:35:55Z</time>
      </trkpt>
      <trkpt lat="44.82133" lon="5.48004">
        <ele>1443.08</ele>
        <time>2023-09-24T08:36:10Z</time>
      </trkpt>
      <trkpt lat="44.82134" lon="5.48008">
        <ele>1444.04</ele>
        <time>2023-09-24T08:36:17Z</time>
      </trkpt>
      <trkpt lat="44.82134" lon="5.48021">
        <ele>1445.96</ele>
        <time>2023-09-24T08:36:31Z</time>
      </trkpt>
      <trkpt lat="44.82129" lon="5.48035">
        <ele>1447.88</ele>
        <time>2023-09-24T08:36:45Z</time>
      </trkpt>
      <trkpt lat="44.82131" lon="5.48046">
        <ele>1450.29</ele>
        <time>2023-09-24T08:36:58Z</time>
      </trkpt>
      <trkpt lat="44.82129" lon="5.48054">
        <ele>1452.69</ele>
        <time>2023-09-24T08:37:12Z</time>
      </trkpt>
      <trkpt lat="44.82128" lon="5.48062">
        <ele>1455.57</ele>
        <time>2023-09-24T08:37:31Z</time>
      </trkpt>
      <trkpt lat="44.82127" lon="5.48071">
        <ele>1458.46</ele>
        <time>2023-09-24T08:37:46Z</time>
      </trkpt>
      <trkpt lat="44.82119" lon="5.48076">
        <ele>1461.82</ele>
        <time>2023-09-24T08:38:03Z</time>
      </trkpt>
      <trkpt lat="44.82115" lon="5.4807">
        <ele>1462.3</ele>
        <time>2023-09-24T08:38:16Z</time>
      </trkpt>
      <trkpt lat="44.82108" lon="5.48071">
        <ele>1464.23</ele>
        <time>2023-09-24T08:38:31Z</time>
      </trkpt>
      <trkpt lat="44.82099" lon="5.48075">
        <ele>1466.15</ele>
        <time>2023-09-24T08:38:46Z</time>
      </trkpt>
      <trkpt lat="44.82105" lon="5.4808">
        <ele>1469.03</ele>
        <time>2023-09-24T08:39:02Z</time>
      </trkpt>
      <trkpt lat="44.82107" lon="5.48088">
        <ele>1471.92</ele>
        <time>2023-09-24T08:39:19Z</time>
      </trkpt>
      <trkpt lat="44.82112" lon="5.48096">
        <ele>1475.28</ele>
        <time>2023-09-24T08:39:33Z</time>
      </trkpt>
      <trkpt lat="44.82118" lon="5.48102">
        <ele>1477.68</ele>
        <time>2023-09-24T08:39:48Z</time>
      </trkpt>
      <trkpt lat="44.82122" lon="5.4811">
        <ele>1480.57</ele>
        <time>2023-09-24T08:40:04Z</time>
      </trkpt>
      <trkpt lat="44.82125" lon="5.48117">
        <ele>1483.93</ele>
        <time>2023-09-24T08:40:18Z</time>
      </trkpt>
      <trkpt lat="44.82129" lon="5.48122">
        <ele>1486.34</ele>
        <time>2023-09-24T08:40:32Z</time>
      </trkpt>
      <trkpt lat="44.82134" lon="5.4813">
        <ele>1488.74</ele>
        <time>2023-09-24T08:40:49Z</time>
      </trkpt>
      <trkpt lat="44.82139" lon="5.48131">
        <ele>1492.1</ele>
        <time>2023-09-24T08:41:03Z</time>
      </trkpt>
      <trkpt lat="44.82144" lon="5.48134">
        <ele>1494.99</ele>
        <time>2023-09-24T08:41:21Z</time>
      </trkpt>
      <trkpt lat="44.82151" lon="5.48138">
        <ele>1496.91</ele>
        <time>2023-09-24T08:41:35Z</time>
      </trkpt>
      <trkpt lat="44.8216" lon="5.48139">
        <ele>1498.83</ele>
        <time>2023-09-24T08:41:51Z</time>
      </trkpt>
      <trkpt lat="44.8217" lon="5.48139">
        <ele>1501.24</ele>
        <time>2023-09-24T08:42:07Z</time>
      </trkpt>
      <trkpt lat="44.8218" lon="5.48136">
        <ele>1503.64</ele>
        <time>2023-09-24T08:42:23Z</time>
      </trkpt>
      <trkpt lat="44.82189" lon="5.48134">
        <ele>1506.04</ele>
        <time>2023-09-24T08:42:38Z</time>
      </trkpt>
      <trkpt lat="44.822" lon="5.48131">
        <ele>1508.45</ele>
        <time>2023-09-24T08:42:52Z</time>
      </trkpt>
      <trkpt lat="44.8221" lon="5.48128">
        <ele>1509.89</ele>
        <time>2023-09-24T08:43:07Z</time>
      </trkpt>
      <trkpt lat="44.8222" lon="5.48128">
        <ele>1512.29</ele>
        <time>2023-09-24T08:43:21Z</time>
      </trkpt>
      <trkpt lat="44.82227" lon="5.48138">
        <ele>1515.18</ele>
        <time>2023-09-24T08:43:35Z</time>
      </trkpt>
      <trkpt lat="44.82235" lon="5.48142">
        <ele>1518.06</ele>
        <time>2023-09-24T08:43:53Z</time>
      </trkpt>
      <trkpt lat="44.82245" lon="5.48145">
        <ele>1519.98</ele>
        <time>2023-09-24T08:44:08Z</time>
      </trkpt>
      <trkpt lat="44.82251" lon="5.48145">
        <ele>1522.39</ele>
        <time>2023-09-24T08:44:22Z</time>
      </trkpt>
      <trkpt lat="44.82259" lon="5.48151">
        <ele>1525.27</ele>
        <time>2023-09-24T08:44:37Z</time>
      </trkpt>
      <trkpt lat="44.82268" lon="5.48156">
        <ele>1527.67</ele>
        <time>2023-09-24T08:44:52Z</time>
      </trkpt>
      <trkpt lat="44.82276" lon="5.4816">
        <ele>1530.08</ele>
        <time>2023-09-24T08:45:08Z</time>
      </trkpt>
      <trkpt lat="44.82284" lon="5.48164">
        <ele>1532.96</ele>
        <time>2023-09-24T08:45:23Z</time>
      </trkpt>
      <trkpt lat="44.82292" lon="5.48167">
        <ele>1535.84</ele>
        <time>2023-09-24T08:45:39Z</time>
      </trkpt>
      <trkpt lat="44.823" lon="5.48173">
        <ele>1537.77</ele>
        <time>2023-09-24T08:45:54Z</time>
      </trkpt>
      <trkpt lat="44.82308" lon="5.48175">
        <ele>1540.65</ele>
        <time>2023-09-24T08:46:10Z</time>
      </trkpt>
      <trkpt lat="44.82315" lon="5.48179">
        <ele>1543.05</ele>
        <time>2023-09-24T08:46:23Z</time>
      </trkpt>
      <trkpt lat="44.82322" lon="5.48181">
        <ele>1545.46</ele>
        <time>2023-09-24T08:46:38Z</time>
      </trkpt>
      <trkpt lat="44.8233" lon="5.48189">
        <ele>1548.34</ele>
        <time>2023-09-24T08:46:54Z</time>
      </trkpt>
      <trkpt lat="44.82331" lon="5.4819">
        <ele>1548.34</ele>
        <time>2023-09-24T08:46:56Z</time>
      </trkpt>
      <trkpt lat="44.82336" lon="5.48199">
        <ele>1550.74</ele>
        <time>2023-09-24T08:47:10Z</time>
      </trkpt>
      <trkpt lat="44.82337" lon="5.48208">
        <ele>1552.19</ele>
        <time>2023-09-24T08:47:23Z</time>
      </trkpt>
      <trkpt lat="44.8234" lon="5.48218">
        <ele>1554.11</ele>
        <time>2023-09-24T08:47:36Z</time>
      </trkpt>
      <trkpt lat="44.82339" lon="5.48226">
        <ele>1556.03</ele>
        <time>2023-09-24T08:47:51Z</time>
      </trkpt>
      <trkpt lat="44.82343" lon="5.48232">
        <ele>1558.43</ele>
        <time>2023-09-24T08:48:05Z</time>
      </trkpt>
      <trkpt lat="44.82352" lon="5.48236">
        <ele>1560.36</ele>
        <time>2023-09-24T08:48:19Z</time>
      </trkpt>
      <trkpt lat="44.82356" lon="5.48239">
        <ele>1561.8</ele>
        <time>2023-09-24T08:48:32Z</time>
      </trkpt>
      <trkpt lat="44.82357" lon="5.48252">
        <ele>1564.68</ele>
        <time>2023-09-24T08:48:49Z</time>
      </trkpt>
      <trkpt lat="44.82365" lon="5.4826">
        <ele>1567.57</ele>
        <time>2023-09-24T08:49:05Z</time>
      </trkpt>
      <trkpt lat="44.82372" lon="5.48271">
        <ele>1569.01</ele>
        <time>2023-09-24T08:49:20Z</time>
      </trkpt>
      <trkpt lat="44.82379" lon="5.48283">
        <ele>1570.93</ele>
        <time>2023-09-24T08:49:35Z</time>
      </trkpt>
      <trkpt lat="44.82386" lon="5.48288">
        <ele>1571.89</ele>
        <time>2023-09-24T08:49:48Z</time>
      </trkpt>
      <trkpt lat="44.82397" lon="5.48286">
        <ele>1572.37</ele>
        <time>2023-09-24T08:50:03Z</time>
      </trkpt>
      <trkpt lat="44.824" lon="5.48284">
        <ele>1573.33</ele>
        <time>2023-09-24T08:50:07Z</time>
      </trkpt>
      <trkpt lat="44.82414" lon="5.48276">
        <ele>1574.3</ele>
        <time>2023-09-24T08:50:22Z</time>
      </trkpt>
      <trkpt lat="44.82426" lon="5.48272">
        <ele>1574.78</ele>
        <time>2023-09-24T08:50:35Z</time>
      </trkpt>
      <trkpt lat="44.82437" lon="5.48276">
        <ele>1575.74</ele>
        <time>2023-09-24T08:50:50Z</time>
      </trkpt>
      <trkpt lat="44.8244" lon="5.48277">
        <ele>1579.1</ele>
        <time>2023-09-24T08:58:45Z</time>
      </trkpt>
      <trkpt lat="44.82449" lon="5.48286">
        <ele>1581.03</ele>
        <time>2023-09-24T08:59:02Z</time>
      </trkpt>
      <trkpt lat="44.82453" lon="5.483">
        <ele>1583.91</ele>
        <time>2023-09-24T08:59:19Z</time>
      </trkpt>
      <trkpt lat="44.82455" lon="5.48319">
        <ele>1586.79</ele>
        <time>2023-09-24T08:59:36Z</time>
      </trkpt>
      <trkpt lat="44.82456" lon="5.48332">
        <ele>1589.68</ele>
        <time>2023-09-24T08:59:53Z</time>
      </trkpt>
      <trkpt lat="44.82461" lon="5.48339">
        <ele>1592.56</ele>
        <time>2023-09-24T09:00:11Z</time>
      </trkpt>
      <trkpt lat="44.82464" lon="5.48346">
        <ele>1594.96</ele>
        <time>2023-09-24T09:00:27Z</time>
      </trkpt>
      <trkpt lat="44.82465" lon="5.48359">
        <ele>1597.37</ele>
        <time>2023-09-24T09:00:44Z</time>
      </trkpt>
      <trkpt lat="44.82466" lon="5.48372">
        <ele>1599.77</ele>
        <time>2023-09-24T09:01:00Z</time>
      </trkpt>
      <trkpt lat="44.82466" lon="5.48385">
        <ele>1602.66</ele>
        <time>2023-09-24T09:01:15Z</time>
      </trkpt>
      <trkpt lat="44.82461" lon="5.48399">
        <ele>1606.02</ele>
        <time>2023-09-24T09:01:36Z</time>
      </trkpt>
      <trkpt lat="44.82458" lon="5.48409">
        <ele>1607.94</ele>
        <time>2023-09-24T09:01:55Z</time>
      </trkpt>
      <trkpt lat="44.82458" lon="5.48421">
        <ele>1610.35</ele>
        <time>2023-09-24T09:02:13Z</time>
      </trkpt>
      <trkpt lat="44.82463" lon="5.48436">
        <ele>1612.75</ele>
        <time>2023-09-24T09:02:31Z</time>
      </trkpt>
      <trkpt lat="44.82463" lon="5.4844">
        <ele>1612.75</ele>
        <time>2023-09-24T09:02:34Z</time>
      </trkpt>
      <trkpt lat="44.82461" lon="5.4846">
        <ele>1614.67</ele>
        <time>2023-09-24T09:02:50Z</time>
      </trkpt>
      <trkpt lat="44.82462" lon="5.48477">
        <ele>1617.07</ele>
        <time>2023-09-24T09:03:06Z</time>
      </trkpt>
      <trkpt lat="44.82462" lon="5.48492">
        <ele>1618.04</ele>
        <time>2023-09-24T09:03:19Z</time>
      </trkpt>
      <trkpt lat="44.82461" lon="5.48494">
        <ele>1618.04</ele>
        <time>2023-09-24T09:03:21Z</time>
      </trkpt>
      <trkpt lat="44.82461" lon="5.48503">
        <ele>1618.52</ele>
        <time>2023-09-24T09:03:28Z</time>
      </trkpt>
      <trkpt lat="44.82456" lon="5.48519">
        <ele>1619.48</ele>
        <time>2023-09-24T09:03:43Z</time>
      </trkpt>
      <trkpt lat="44.82446" lon="5.48527">
        <ele>1620.92</ele>
        <time>2023-09-24T09:04:00Z</time>
      </trkpt>
      <trkpt lat="44.82443" lon="5.48527">
        <ele>1621.4</ele>
        <time>2023-09-24T09:04:04Z</time>
      </trkpt>
      <trkpt lat="44.82426" lon="5.4853">
        <ele>1622.36</ele>
        <time>2023-09-24T09:04:21Z</time>
      </trkpt>
      <trkpt lat="44.8241" lon="5.48535">
        <ele>1623.32</ele>
        <time>2023-09-24T09:04:37Z</time>
      </trkpt>
      <trkpt lat="44.82398" lon="5.4854">
        <ele>1624.77</ele>
        <time>2023-09-24T09:04:52Z</time>
      </trkpt>
      <trkpt lat="44.82386" lon="5.48538">
        <ele>1627.17</ele>
        <time>2023-09-24T09:05:08Z</time>
      </trkpt>
      <trkpt lat="44.82375" lon="5.48538">
        <ele>1629.57</ele>
        <time>2023-09-24T09:05:23Z</time>
      </trkpt>
      <trkpt lat="44.82365" lon="5.48544">
        <ele>1632.46</ele>
        <time>2023-09-24T09:05:39Z</time>
      </trkpt>
      <trkpt lat="44.82358" lon="5.48551">
        <ele>1634.86</ele>
        <time>2023-09-24T09:05:54Z</time>
      </trkpt>
      <trkpt lat="44.82352" lon="5.48556">
        <ele>1637.74</ele>
        <time>2023-09-24T09:06:09Z</time>
      </trkpt>
      <trkpt lat="44.82348" lon="5.48571">
        <ele>1639.67</ele>
        <time>2023-09-24T09:06:25Z</time>
      </trkpt>
      <trkpt lat="44.82345" lon="5.48586">
        <ele>1641.59</ele>
        <time>2023-09-24T09:06:41Z</time>
      </trkpt>
      <trkpt lat="44.8234" lon="5.48599">
        <ele>1643.03</ele>
        <time>2023-09-24T09:07:00Z</time>
      </trkpt>
      <trkpt lat="44.82335" lon="5.48601">
        <ele>1642.55</ele>
        <time>2023-09-24T09:08:58Z</time>
      </trkpt>
      <trkpt lat="44.82332" lon="5.48604">
        <ele>1642.07</ele>
        <time>2023-09-24T09:09:02Z</time>
      </trkpt>
      <trkpt lat="44.82311" lon="5.48617">
        <ele>1641.11</ele>
        <time>2023-09-24T09:09:22Z</time>
      </trkpt>
      <trkpt lat="44.8229" lon="5.48634">
        <ele>1640.15</ele>
        <time>2023-09-24T09:09:43Z</time>
      </trkpt>
      <trkpt lat="44.82278" lon="5.48648">
        <ele>1640.15</ele>
        <time>2023-09-24T09:09:57Z</time>
      </trkpt>
      <trkpt lat="44.82267" lon="5.48664">
        <ele>1640.15</ele>
        <time>2023-09-24T09:10:12Z</time>
      </trkpt>
      <trkpt lat="44.82266" lon="5.48668">
        <ele>1641.59</ele>
        <time>2023-09-24T09:10:15Z</time>
      </trkpt>
      <trkpt lat="44.82259" lon="5.48677">
        <ele>1642.55</ele>
        <time>2023-09-24T09:10:28Z</time>
      </trkpt>
      <trkpt lat="44.82255" lon="5.48683">
        <ele>1644.95</ele>
        <time>2023-09-24T09:10:36Z</time>
      </trkpt>
      <trkpt lat="44.82253" lon="5.48689">
        <ele>1645.43</ele>
        <time>2023-09-24T09:10:41Z</time>
      </trkpt>
      <trkpt lat="44.82251" lon="5.48705">
        <ele>1646.88</ele>
        <time>2023-09-24T09:10:58Z</time>
      </trkpt>
      <trkpt lat="44.82248" lon="5.48719">
        <ele>1649.76</ele>
        <time>2023-09-24T09:11:14Z</time>
      </trkpt>
      <trkpt lat="44.82248" lon="5.48731">
        <ele>1652.16</ele>
        <time>2023-09-24T09:11:29Z</time>
      </trkpt>
      <trkpt lat="44.82251" lon="5.48747">
        <ele>1655.05</ele>
        <time>2023-09-24T09:11:49Z</time>
      </trkpt>
      <trkpt lat="44.82253" lon="5.48757">
        <ele>1658.41</ele>
        <time>2023-09-24T09:12:03Z</time>
      </trkpt>
      <trkpt lat="44.82256" lon="5.4877">
        <ele>1660.33</ele>
        <time>2023-09-24T09:12:19Z</time>
      </trkpt>
      <trkpt lat="44.82258" lon="5.48777">
        <ele>1662.26</ele>
        <time>2023-09-24T09:12:29Z</time>
      </trkpt>
      <trkpt lat="44.82261" lon="5.48793">
        <ele>1663.7</ele>
        <time>2023-09-24T09:12:44Z</time>
      </trkpt>
      <trkpt lat="44.82265" lon="5.4881">
        <ele>1665.62</ele>
        <time>2023-09-24T09:13:00Z</time>
      </trkpt>
      <trkpt lat="44.82268" lon="5.48819">
        <ele>1666.58</ele>
        <time>2023-09-24T09:13:08Z</time>
      </trkpt>
      <trkpt lat="44.8227" lon="5.48837">
        <ele>1667.06</ele>
        <time>2023-09-24T09:13:22Z</time>
      </trkpt>
      <trkpt lat="44.82272" lon="5.48851">
        <ele>1669.95</ele>
        <time>2023-09-24T09:13:37Z</time>
      </trkpt>
      <trkpt lat="44.82275" lon="5.48865">
        <ele>1670.91</ele>
        <time>2023-09-24T09:13:51Z</time>
      </trkpt>
      <trkpt lat="44.82273" lon="5.4888">
        <ele>1671.39</ele>
        <time>2023-09-24T09:14:07Z</time>
      </trkpt>
      <trkpt lat="44.82267" lon="5.48888">
        <ele>1672.35</ele>
        <time>2023-09-24T09:14:22Z</time>
      </trkpt>
      <trkpt lat="44.82262" lon="5.48896">
        <ele>1675.72</ele>
        <time>2023-09-24T09:14:35Z</time>
      </trkpt>
      <trkpt lat="44.82255" lon="5.48908">
        <ele>1678.12</ele>
        <time>2023-09-24T09:14:55Z</time>
      </trkpt>
      <trkpt lat="44.82253" lon="5.48923">
        <ele>1680.04</ele>
        <time>2023-09-24T09:15:11Z</time>
      </trkpt>
      <trkpt lat="44.82254" lon="5.48934">
        <ele>1681</ele>
        <time>2023-09-24T09:15:23Z</time>
      </trkpt>
      <trkpt lat="44.82252" lon="5.4895">
        <ele>1681.96</ele>
        <time>2023-09-24T09:15:38Z</time>
      </trkpt>
      <trkpt lat="44.82244" lon="5.48966">
        <ele>1681.96</ele>
        <time>2023-09-24T09:15:55Z</time>
      </trkpt>
      <trkpt lat="44.82246" lon="5.4898">
        <ele>1683.41</ele>
        <time>2023-09-24T09:16:11Z</time>
      </trkpt>
      <trkpt lat="44.82247" lon="5.48994">
        <ele>1684.37</ele>
        <time>2023-09-24T09:16:26Z</time>
      </trkpt>
      <trkpt lat="44.82245" lon="5.49014">
        <ele>1685.81</ele>
        <time>2023-09-24T09:16:43Z</time>
      </trkpt>
      <trkpt lat="44.82241" lon="5.49028">
        <ele>1687.25</ele>
        <time>2023-09-24T09:16:56Z</time>
      </trkpt>
      <trkpt lat="44.82241" lon="5.49038">
        <ele>1688.21</ele>
        <time>2023-09-24T09:17:13Z</time>
      </trkpt>
      <trkpt lat="44.82243" lon="5.49041">
        <ele>1690.62</ele>
        <time>2023-09-24T09:17:16Z</time>
      </trkpt>
      <trkpt lat="44.82244" lon="5.49044">
        <ele>1689.17</ele>
        <time>2023-09-24T09:17:19Z</time>
      </trkpt>
      <trkpt lat="44.82249" lon="5.49055">
        <ele>1689.65</ele>
        <time>2023-09-24T09:17:31Z</time>
      </trkpt>
      <trkpt lat="44.82253" lon="5.49062">
        <ele>1688.69</ele>
        <time>2023-09-24T09:17:39Z</time>
      </trkpt>
      <trkpt lat="44.82263" lon="5.49076">
        <ele>1687.73</ele>
        <time>2023-09-24T09:17:58Z</time>
      </trkpt>
      <trkpt lat="44.8227" lon="5.49091">
        <ele>1687.25</ele>
        <time>2023-09-24T09:18:12Z</time>
      </trkpt>
      <trkpt lat="44.82268" lon="5.49105">
        <ele>1688.69</ele>
        <time>2023-09-24T09:18:27Z</time>
      </trkpt>
      <trkpt lat="44.82264" lon="5.49117">
        <ele>1691.58</ele>
        <time>2023-09-24T09:18:41Z</time>
      </trkpt>
      <trkpt lat="44.82263" lon="5.49125">
        <ele>1693.5</ele>
        <time>2023-09-24T09:18:54Z</time>
      </trkpt>
      <trkpt lat="44.82265" lon="5.49132">
        <ele>1696.86</ele>
        <time>2023-09-24T09:19:10Z</time>
      </trkpt>
      <trkpt lat="44.82268" lon="5.49146">
        <ele>1698.79</ele>
        <time>2023-09-24T09:19:26Z</time>
      </trkpt>
      <trkpt lat="44.82267" lon="5.49158">
        <ele>1700.71</ele>
        <time>2023-09-24T09:19:41Z</time>
      </trkpt>
      <trkpt lat="44.8226" lon="5.4917">
        <ele>1702.15</ele>
        <time>2023-09-24T09:19:55Z</time>
      </trkpt>
      <trkpt lat="44.82258" lon="5.49181">
        <ele>1704.07</ele>
        <time>2023-09-24T09:20:11Z</time>
      </trkpt>
      <trkpt lat="44.82256" lon="5.49194">
        <ele>1706.96</ele>
        <time>2023-09-24T09:20:29Z</time>
      </trkpt>
      <trkpt lat="44.82259" lon="5.49203">
        <ele>1707.92</ele>
        <time>2023-09-24T09:20:42Z</time>
      </trkpt>
      <trkpt lat="44.82258" lon="5.49212">
        <ele>1708.4</ele>
        <time>2023-09-24T09:20:58Z</time>
      </trkpt>
      <trkpt lat="44.82258" lon="5.49216">
        <ele>1706.96</ele>
        <time>2023-09-24T09:21:11Z</time>
      </trkpt>
      <trkpt lat="44.82259" lon="5.49218">
        <ele>1707.44</ele>
        <time>2023-09-24T09:22:56Z</time>
      </trkpt>
      <trkpt lat="44.8226" lon="5.4922">
        <ele>1706.96</ele>
        <time>2023-09-24T09:23:13Z</time>
      </trkpt>
      <trkpt lat="44.82257" lon="5.49229">
        <ele>1705.04</ele>
        <time>2023-09-24T09:23:27Z</time>
      </trkpt>
      <trkpt lat="44.82253" lon="5.49235">
        <ele>1704.07</ele>
        <time>2023-09-24T09:23:34Z</time>
      </trkpt>
      <trkpt lat="44.82249" lon="5.4925">
        <ele>1702.63</ele>
        <time>2023-09-24T09:23:47Z</time>
      </trkpt>
      <trkpt lat="44.82249" lon="5.49258">
        <ele>1702.63</ele>
        <time>2023-09-24T09:24:00Z</time>
      </trkpt>
      <trkpt lat="44.8225" lon="5.49259">
        <ele>1702.15</ele>
        <time>2023-09-24T09:24:20Z</time>
      </trkpt>
      <trkpt lat="44.82249" lon="5.49261">
        <ele>1701.67</ele>
        <time>2023-09-24T09:24:35Z</time>
      </trkpt>
      <trkpt lat="44.82247" lon="5.4926">
        <ele>1701.67</ele>
        <time>2023-09-24T09:24:39Z</time>
      </trkpt>
      <trkpt lat="44.82245" lon="5.49259">
        <ele>1701.67</ele>
        <time>2023-09-24T09:24:41Z</time>
      </trkpt>
      <trkpt lat="44.82239" lon="5.49259">
        <ele>1702.63</ele>
        <time>2023-09-24T09:24:50Z</time>
      </trkpt>
      <trkpt lat="44.8223" lon="5.49266">
        <ele>1704.07</ele>
        <time>2023-09-24T09:25:07Z</time>
      </trkpt>
      <trkpt lat="44.8222" lon="5.49272">
        <ele>1706</ele>
        <time>2023-09-24T09:25:23Z</time>
      </trkpt>
      <trkpt lat="44.82212" lon="5.49276">
        <ele>1706.48</ele>
        <time>2023-09-24T09:25:37Z</time>
      </trkpt>
      <trkpt lat="44.82206" lon="5.49275">
        <ele>1707.92</ele>
        <time>2023-09-24T09:25:51Z</time>
      </trkpt>
      <trkpt lat="44.82197" lon="5.4928">
        <ele>1710.32</ele>
        <time>2023-09-24T09:26:08Z</time>
      </trkpt>
      <trkpt lat="44.82191" lon="5.49288">
        <ele>1710.8</ele>
        <time>2023-09-24T09:26:22Z</time>
      </trkpt>
      <trkpt lat="44.82185" lon="5.49296">
        <ele>1712.73</ele>
        <time>2023-09-24T09:26:34Z</time>
      </trkpt>
      <trkpt lat="44.82178" lon="5.49298">
        <ele>1715.13</ele>
        <time>2023-09-24T09:26:50Z</time>
      </trkpt>
      <trkpt lat="44.8217" lon="5.49312">
        <ele>1716.57</ele>
        <time>2023-09-24T09:27:11Z</time>
      </trkpt>
      <trkpt lat="44.82158" lon="5.49317">
        <ele>1717.53</ele>
        <time>2023-09-24T09:27:26Z</time>
      </trkpt>
      <trkpt lat="44.82146" lon="5.49321">
        <ele>1717.53</ele>
        <time>2023-09-24T09:27:41Z</time>
      </trkpt>
      <trkpt lat="44.82141" lon="5.49327">
        <ele>1718.49</ele>
        <time>2023-09-24T09:27:57Z</time>
      </trkpt>
      <trkpt lat="44.82137" lon="5.49337">
        <ele>1718.97</ele>
        <time>2023-09-24T09:28:10Z</time>
      </trkpt>
      <trkpt lat="44.82132" lon="5.4934">
        <ele>1721.86</ele>
        <time>2023-09-24T09:28:24Z</time>
      </trkpt>
      <trkpt lat="44.82132" lon="5.49343">
        <ele>1721.86</ele>
        <time>2023-09-24T09:28:44Z</time>
      </trkpt>
      <trkpt lat="44.82127" lon="5.49346">
        <ele>1723.78</ele>
        <time>2023-09-24T09:29:03Z</time>
      </trkpt>
      <trkpt lat="44.82123" lon="5.49339">
        <ele>1727.15</ele>
        <time>2023-09-24T09:29:18Z</time>
      </trkpt>
      <trkpt lat="44.82118" lon="5.49329">
        <ele>1730.03</ele>
        <time>2023-09-24T09:29:34Z</time>
      </trkpt>
      <trkpt lat="44.82112" lon="5.4932">
        <ele>1732.43</ele>
        <time>2023-09-24T09:29:51Z</time>
      </trkpt>
      <trkpt lat="44.82109" lon="5.49311">
        <ele>1734.84</ele>
        <time>2023-09-24T09:30:06Z</time>
      </trkpt>
      <trkpt lat="44.82109" lon="5.49297">
        <ele>1736.76</ele>
        <time>2023-09-24T09:30:22Z</time>
      </trkpt>
      <trkpt lat="44.82109" lon="5.49286">
        <ele>1740.12</ele>
        <time>2023-09-24T09:30:39Z</time>
      </trkpt>
      <trkpt lat="44.82113" lon="5.49279">
        <ele>1740.6</ele>
        <time>2023-09-24T09:30:54Z</time>
      </trkpt>
      <trkpt lat="44.82109" lon="5.49271">
        <ele>1743.97</ele>
        <time>2023-09-24T09:31:08Z</time>
      </trkpt>
      <trkpt lat="44.82109" lon="5.49263">
        <ele>1745.89</ele>
        <time>2023-09-24T09:31:21Z</time>
      </trkpt>
      <trkpt lat="44.82104" lon="5.49257">
        <ele>1749.26</ele>
        <time>2023-09-24T09:31:37Z</time>
      </trkpt>
      <trkpt lat="44.82101" lon="5.49253">
        <ele>1750.7</ele>
        <time>2023-09-24T09:31:50Z</time>
      </trkpt>
      <trkpt lat="44.82097" lon="5.49252">
        <ele>1752.62</ele>
        <time>2023-09-24T09:32:04Z</time>
      </trkpt>
      <trkpt lat="44.82092" lon="5.49255">
        <ele>1755.02</ele>
        <time>2023-09-24T09:32:22Z</time>
      </trkpt>
      <trkpt lat="44.82087" lon="5.49253">
        <ele>1757.43</ele>
        <time>2023-09-24T09:32:38Z</time>
      </trkpt>
      <trkpt lat="44.82082" lon="5.4926">
        <ele>1760.31</ele>
        <time>2023-09-24T09:32:55Z</time>
      </trkpt>
      <trkpt lat="44.82078" lon="5.49263">
        <ele>1763.2</ele>
        <time>2023-09-24T09:33:06Z</time>
      </trkpt>
      <trkpt lat="44.82074" lon="5.49271">
        <ele>1766.08</ele>
        <time>2023-09-24T09:33:26Z</time>
      </trkpt>
      <trkpt lat="44.82071" lon="5.49277">
        <ele>1768.48</ele>
        <time>2023-09-24T09:33:40Z</time>
      </trkpt>
      <trkpt lat="44.82068" lon="5.49282">
        <ele>1771.37</ele>
        <time>2023-09-24T09:33:55Z</time>
      </trkpt>
      <trkpt lat="44.82064" lon="5.49288">
        <ele>1774.25</ele>
        <time>2023-09-24T09:34:12Z</time>
      </trkpt>
      <trkpt lat="44.82061" lon="5.4929">
        <ele>1775.69</ele>
        <time>2023-09-24T09:34:27Z</time>
      </trkpt>
      <trkpt lat="44.82056" lon="5.49287">
        <ele>1778.1</ele>
        <time>2023-09-24T09:35:04Z</time>
      </trkpt>
      <trkpt lat="44.82056" lon="5.49286">
        <ele>1778.58</ele>
        <time>2023-09-24T09:35:21Z</time>
      </trkpt>
      <trkpt lat="44.82054" lon="5.49287">
        <ele>1778.58</ele>
        <time>2023-09-24T09:35:43Z</time>
      </trkpt>
      <trkpt lat="44.8205" lon="5.49288">
        <ele>1780.98</ele>
        <time>2023-09-24T09:36:00Z</time>
      </trkpt>
      <trkpt lat="44.82045" lon="5.49286">
        <ele>1784.34</ele>
        <time>2023-09-24T09:36:15Z</time>
      </trkpt>
      <trkpt lat="44.82041" lon="5.49288">
        <ele>1786.27</ele>
        <time>2023-09-24T09:36:34Z</time>
      </trkpt>
      <trkpt lat="44.82038" lon="5.49294">
        <ele>1788.67</ele>
        <time>2023-09-24T09:36:52Z</time>
      </trkpt>
      <trkpt lat="44.82035" lon="5.49302">
        <ele>1791.07</ele>
        <time>2023-09-24T09:37:08Z</time>
      </trkpt>
      <trkpt lat="44.82031" lon="5.49311">
        <ele>1793</ele>
        <time>2023-09-24T09:37:21Z</time>
      </trkpt>
      <trkpt lat="44.82029" lon="5.4932">
        <ele>1795.88</ele>
        <time>2023-09-24T09:37:37Z</time>
      </trkpt>
      <trkpt lat="44.82029" lon="5.49325">
        <ele>1797.32</ele>
        <time>2023-09-24T09:37:55Z</time>
      </trkpt>
      <trkpt lat="44.82026" lon="5.49332">
        <ele>1800.21</ele>
        <time>2023-09-24T09:38:12Z</time>
      </trkpt>
      <trkpt lat="44.82023" lon="5.49336">
        <ele>1803.09</ele>
        <time>2023-09-24T09:38:29Z</time>
      </trkpt>
      <trkpt lat="44.82023" lon="5.49342">
        <ele>1804.05</ele>
        <time>2023-09-24T09:38:42Z</time>
      </trkpt>
      <trkpt lat="44.82021" lon="5.49349">
        <ele>1805.49</ele>
        <time>2023-09-24T09:38:57Z</time>
      </trkpt>
      <trkpt lat="44.82013" lon="5.49348">
        <ele>1808.86</ele>
        <time>2023-09-24T09:39:18Z</time>
      </trkpt>
      <trkpt lat="44.82009" lon="5.49344">
        <ele>1809.82</ele>
        <time>2023-09-24T09:39:31Z</time>
      </trkpt>
      <trkpt lat="44.82003" lon="5.49342">
        <ele>1811.26</ele>
        <time>2023-09-24T09:39:44Z</time>
      </trkpt>
      <trkpt lat="44.81998" lon="5.49345">
        <ele>1814.63</ele>
        <time>2023-09-24T09:40:02Z</time>
      </trkpt>
      <trkpt lat="44.81995" lon="5.49339">
        <ele>1816.07</ele>
        <time>2023-09-24T09:40:15Z</time>
      </trkpt>
      <trkpt lat="44.81989" lon="5.4933">
        <ele>1818.95</ele>
        <time>2023-09-24T09:40:31Z</time>
      </trkpt>
      <trkpt lat="44.81985" lon="5.49327">
        <ele>1821.35</ele>
        <time>2023-09-24T09:40:46Z</time>
      </trkpt>
      <trkpt lat="44.81979" lon="5.49326">
        <ele>1824.24</ele>
        <time>2023-09-24T09:41:04Z</time>
      </trkpt>
      <trkpt lat="44.81973" lon="5.49325">
        <ele>1827.12</ele>
        <time>2023-09-24T09:41:20Z</time>
      </trkpt>
      <trkpt lat="44.81968" lon="5.49322">
        <ele>1827.6</ele>
        <time>2023-09-24T09:41:39Z</time>
      </trkpt>
      <trkpt lat="44.81967" lon="5.49327">
        <ele>1829.05</ele>
        <time>2023-09-24T09:41:57Z</time>
      </trkpt>
      <trkpt lat="44.81965" lon="5.49329">
        <ele>1829.53</ele>
        <time>2023-09-24T09:47:40Z</time>
      </trkpt>
      <trkpt lat="44.81962" lon="5.49339">
        <ele>1831.93</ele>
        <time>2023-09-24T09:47:56Z</time>
      </trkpt>
      <trkpt lat="44.81959" lon="5.49352">
        <ele>1834.33</ele>
        <time>2023-09-24T09:48:11Z</time>
      </trkpt>
      <trkpt lat="44.81952" lon="5.49369">
        <ele>1835.77</ele>
        <time>2023-09-24T09:48:28Z</time>
      </trkpt>
      <trkpt lat="44.81948" lon="5.49378">
        <ele>1838.18</ele>
        <time>2023-09-24T09:48:44Z</time>
      </trkpt>
      <trkpt lat="44.81942" lon="5.49387">
        <ele>1840.58</ele>
        <time>2023-09-24T09:49:01Z</time>
      </trkpt>
      <trkpt lat="44.81933" lon="5.49392">
        <ele>1843.47</ele>
        <time>2023-09-24T09:49:17Z</time>
      </trkpt>
      <trkpt lat="44.81932" lon="5.49398">
        <ele>1846.35</ele>
        <time>2023-09-24T09:49:33Z</time>
      </trkpt>
      <trkpt lat="44.81928" lon="5.49402">
        <ele>1849.23</ele>
        <time>2023-09-24T09:49:48Z</time>
      </trkpt>
      <trkpt lat="44.81924" lon="5.49407">
        <ele>1851.64</ele>
        <time>2023-09-24T09:50:05Z</time>
      </trkpt>
      <trkpt lat="44.81921" lon="5.49412">
        <ele>1854.52</ele>
        <time>2023-09-24T09:50:20Z</time>
      </trkpt>
      <trkpt lat="44.81914" lon="5.49414">
        <ele>1856.92</ele>
        <time>2023-09-24T09:50:36Z</time>
      </trkpt>
      <trkpt lat="44.81912" lon="5.4942">
        <ele>1859.81</ele>
        <time>2023-09-24T09:50:51Z</time>
      </trkpt>
      <trkpt lat="44.81911" lon="5.49426">
        <ele>1862.69</ele>
        <time>2023-09-24T09:51:05Z</time>
      </trkpt>
      <trkpt lat="44.81905" lon="5.49432">
        <ele>1865.09</ele>
        <time>2023-09-24T09:51:21Z</time>
      </trkpt>
      <trkpt lat="44.81903" lon="5.4944">
        <ele>1867.02</ele>
        <time>2023-09-24T09:51:35Z</time>
      </trkpt>
      <trkpt lat="44.81903" lon="5.49446">
        <ele>1867.98</ele>
        <time>2023-09-24T09:51:47Z</time>
      </trkpt>
      <trkpt lat="44.81903" lon="5.4945">
        <ele>1867.98</ele>
        <time>2023-09-24T09:52:01Z</time>
      </trkpt>
      <trkpt lat="44.81904" lon="5.49451">
        <ele>1867.98</ele>
        <time>2023-09-24T09:52:22Z</time>
      </trkpt>
      <trkpt lat="44.81906" lon="5.49452">
        <ele>1868.94</ele>
        <time>2023-09-24T09:56:46Z</time>
      </trkpt>
      <trkpt lat="44.81898" lon="5.49454">
        <ele>1868.94</ele>
        <time>2023-09-24T09:57:01Z</time>
      </trkpt>
      <trkpt lat="44.81896" lon="5.49455">
        <ele>1868.94</ele>
        <time>2023-09-24T09:58:45Z</time>
      </trkpt>
      <trkpt lat="44.81893" lon="5.49456">
        <ele>1867.5</ele>
        <time>2023-09-24T09:59:01Z</time>
      </trkpt>
      <trkpt lat="44.81891" lon="5.49453">
        <ele>1867.5</ele>
        <time>2023-09-24T09:59:23Z</time>
      </trkpt>
      <trkpt lat="44.81888" lon="5.49452">
        <ele>1867.02</ele>
        <time>2023-09-24T09:59:42Z</time>
      </trkpt>
      <trkpt lat="44.81884" lon="5.4945">
        <ele>1872.79</ele>
        <time>2023-09-24T11:12:12Z</time>
      </trkpt>
      <trkpt lat="44.81878" lon="5.49445">
        <ele>1871.34</ele>
        <time>2023-09-24T11:12:26Z</time>
      </trkpt>
      <trkpt lat="44.81878" lon="5.49444">
        <ele>1870.38</ele>
        <time>2023-09-24T11:13:06Z</time>
      </trkpt>
      <trkpt lat="44.81869" lon="5.49444">
        <ele>1869.9</ele>
        <time>2023-09-24T11:13:20Z</time>
      </trkpt>
      <trkpt lat="44.81861" lon="5.49447">
        <ele>1869.9</ele>
        <time>2023-09-24T11:13:32Z</time>
      </trkpt>
      <trkpt lat="44.8185" lon="5.49445">
        <ele>1868.94</ele>
        <time>2023-09-24T11:13:48Z</time>
      </trkpt>
      <trkpt lat="44.81846" lon="5.49443">
        <ele>1866.54</ele>
        <time>2023-09-24T11:14:02Z</time>
      </trkpt>
      <trkpt lat="44.81839" lon="5.49444">
        <ele>1864.61</ele>
        <time>2023-09-24T11:14:14Z</time>
      </trkpt>
      <trkpt lat="44.81837" lon="5.49441">
        <ele>1863.17</ele>
        <time>2023-09-24T11:14:27Z</time>
      </trkpt>
      <trkpt lat="44.81831" lon="5.49438">
        <ele>1862.69</ele>
        <time>2023-09-24T11:14:40Z</time>
      </trkpt>
      <trkpt lat="44.81826" lon="5.49436">
        <ele>1864.13</ele>
        <time>2023-09-24T11:14:48Z</time>
      </trkpt>
      <trkpt lat="44.81817" lon="5.49432">
        <ele>1864.61</ele>
        <time>2023-09-24T11:15:02Z</time>
      </trkpt>
      <trkpt lat="44.81813" lon="5.49428">
        <ele>1863.17</ele>
        <time>2023-09-24T11:15:08Z</time>
      </trkpt>
      <trkpt lat="44.81812" lon="5.49427">
        <ele>1863.17</ele>
        <time>2023-09-24T11:15:10Z</time>
      </trkpt>
      <trkpt lat="44.81802" lon="5.49411">
        <ele>1861.73</ele>
        <time>2023-09-24T11:15:26Z</time>
      </trkpt>
      <trkpt lat="44.81793" lon="5.49402">
        <ele>1861.25</ele>
        <time>2023-09-24T11:15:40Z</time>
      </trkpt>
      <trkpt lat="44.81783" lon="5.49396">
        <ele>1860.29</ele>
        <time>2023-09-24T11:15:53Z</time>
      </trkpt>
      <trkpt lat="44.81774" lon="5.49392">
        <ele>1860.29</ele>
        <time>2023-09-24T11:16:04Z</time>
      </trkpt>
      <trkpt lat="44.81765" lon="5.49393">
        <ele>1859.81</ele>
        <time>2023-09-24T11:16:14Z</time>
      </trkpt>
      <trkpt lat="44.81762" lon="5.49394">
        <ele>1859.81</ele>
        <time>2023-09-24T11:16:17Z</time>
      </trkpt>
      <trkpt lat="44.81759" lon="5.49395">
        <ele>1859.81</ele>
        <time>2023-09-24T11:16:20Z</time>
      </trkpt>
      <trkpt lat="44.81747" lon="5.49397">
        <ele>1860.77</ele>
        <time>2023-09-24T11:16:35Z</time>
      </trkpt>
      <trkpt lat="44.81739" lon="5.494">
        <ele>1861.25</ele>
        <time>2023-09-24T11:16:44Z</time>
      </trkpt>
      <trkpt lat="44.81729" lon="5.49405">
        <ele>1862.69</ele>
        <time>2023-09-24T11:16:58Z</time>
      </trkpt>
      <trkpt lat="44.81716" lon="5.49409">
        <ele>1863.17</ele>
        <time>2023-09-24T11:17:14Z</time>
      </trkpt>
      <trkpt lat="44.81701" lon="5.49409">
        <ele>1863.65</ele>
        <time>2023-09-24T11:17:32Z</time>
      </trkpt>
      <trkpt lat="44.81693" lon="5.4941">
        <ele>1862.69</ele>
        <time>2023-09-24T11:17:44Z</time>
      </trkpt>
      <trkpt lat="44.81682" lon="5.49411">
        <ele>1862.69</ele>
        <time>2023-09-24T11:17:58Z</time>
      </trkpt>
      <trkpt lat="44.81672" lon="5.49414">
        <ele>1864.13</ele>
        <time>2023-09-24T11:18:12Z</time>
      </trkpt>
      <trkpt lat="44.81661" lon="5.49413">
        <ele>1864.61</ele>
        <time>2023-09-24T11:18:24Z</time>
      </trkpt>
      <trkpt lat="44.81657" lon="5.49409">
        <ele>1864.13</ele>
        <time>2023-09-24T11:18:28Z</time>
      </trkpt>
      <trkpt lat="44.81647" lon="5.49407">
        <ele>1864.13</ele>
        <time>2023-09-24T11:18:44Z</time>
      </trkpt>
      <trkpt lat="44.81639" lon="5.49401">
        <ele>1864.13</ele>
        <time>2023-09-24T11:18:59Z</time>
      </trkpt>
      <trkpt lat="44.81633" lon="5.49399">
        <ele>1862.69</ele>
        <time>2023-09-24T11:19:06Z</time>
      </trkpt>
      <trkpt lat="44.81619" lon="5.49393">
        <ele>1860.77</ele>
        <time>2023-09-24T11:19:22Z</time>
      </trkpt>
      <trkpt lat="44.81609" lon="5.4939">
        <ele>1857.89</ele>
        <time>2023-09-24T11:19:36Z</time>
      </trkpt>
      <trkpt lat="44.816" lon="5.49389">
        <ele>1856.92</ele>
        <time>2023-09-24T11:19:51Z</time>
      </trkpt>
      <trkpt lat="44.8159" lon="5.49389">
        <ele>1856.92</ele>
        <time>2023-09-24T11:20:06Z</time>
      </trkpt>
      <trkpt lat="44.81588" lon="5.49389">
        <ele>1856.44</ele>
        <time>2023-09-24T11:20:08Z</time>
      </trkpt>
      <trkpt lat="44.81576" lon="5.49384">
        <ele>1854.52</ele>
        <time>2023-09-24T11:20:24Z</time>
      </trkpt>
      <trkpt lat="44.81565" lon="5.49376">
        <ele>1852.6</ele>
        <time>2023-09-24T11:20:38Z</time>
      </trkpt>
      <trkpt lat="44.81562" lon="5.49364">
        <ele>1850.19</ele>
        <time>2023-09-24T11:20:51Z</time>
      </trkpt>
      <trkpt lat="44.81558" lon="5.49355">
        <ele>1848.75</ele>
        <time>2023-09-24T11:21:04Z</time>
      </trkpt>
      <trkpt lat="44.81555" lon="5.49345">
        <ele>1846.35</ele>
        <time>2023-09-24T11:21:18Z</time>
      </trkpt>
      <trkpt lat="44.81559" lon="5.49338">
        <ele>1844.43</ele>
        <time>2023-09-24T11:21:30Z</time>
      </trkpt>
      <trkpt lat="44.81561" lon="5.49337">
        <ele>1843.95</ele>
        <time>2023-09-24T11:21:32Z</time>
      </trkpt>
      <trkpt lat="44.81562" lon="5.49336">
        <ele>1843.95</ele>
        <time>2023-09-24T11:21:34Z</time>
      </trkpt>
      <trkpt lat="44.81563" lon="5.49322">
        <ele>1842.5</ele>
        <time>2023-09-24T11:21:48Z</time>
      </trkpt>
      <trkpt lat="44.81562" lon="5.49308">
        <ele>1839.62</ele>
        <time>2023-09-24T11:22:04Z</time>
      </trkpt>
      <trkpt lat="44.81565" lon="5.49297">
        <ele>1836.74</ele>
        <time>2023-09-24T11:22:19Z</time>
      </trkpt>
      <trkpt lat="44.81565" lon="5.49284">
        <ele>1834.81</ele>
        <time>2023-09-24T11:22:34Z</time>
      </trkpt>
      <trkpt lat="44.81569" lon="5.49276">
        <ele>1832.41</ele>
        <time>2023-09-24T11:22:46Z</time>
      </trkpt>
      <trkpt lat="44.81568" lon="5.49264">
        <ele>1829.53</ele>
        <time>2023-09-24T11:22:59Z</time>
      </trkpt>
      <trkpt lat="44.8157" lon="5.49252">
        <ele>1826.16</ele>
        <time>2023-09-24T11:23:12Z</time>
      </trkpt>
      <trkpt lat="44.81567" lon="5.49238">
        <ele>1825.68</ele>
        <time>2023-09-24T11:23:29Z</time>
      </trkpt>
      <trkpt lat="44.81559" lon="5.49232">
        <ele>1823.76</ele>
        <time>2023-09-24T11:23:44Z</time>
      </trkpt>
      <trkpt lat="44.81555" lon="5.49226">
        <ele>1821.35</ele>
        <time>2023-09-24T11:23:56Z</time>
      </trkpt>
      <trkpt lat="44.81551" lon="5.49218">
        <ele>1818.47</ele>
        <time>2023-09-24T11:24:09Z</time>
      </trkpt>
      <trkpt lat="44.81548" lon="5.49206">
        <ele>1817.03</ele>
        <time>2023-09-24T11:24:23Z</time>
      </trkpt>
      <trkpt lat="44.8154" lon="5.49203">
        <ele>1817.03</ele>
        <time>2023-09-24T11:24:36Z</time>
      </trkpt>
      <trkpt lat="44.81531" lon="5.49199">
        <ele>1816.55</ele>
        <time>2023-09-24T11:24:47Z</time>
      </trkpt>
      <trkpt lat="44.81524" lon="5.49196">
        <ele>1816.07</ele>
        <time>2023-09-24T11:24:54Z</time>
      </trkpt>
      <trkpt lat="44.8151" lon="5.49188">
        <ele>1813.66</ele>
        <time>2023-09-24T11:25:11Z</time>
      </trkpt>
      <trkpt lat="44.81501" lon="5.49185">
        <ele>1813.18</ele>
        <time>2023-09-24T11:25:23Z</time>
      </trkpt>
      <trkpt lat="44.81495" lon="5.49175">
        <ele>1809.82</ele>
        <time>2023-09-24T11:25:34Z</time>
      </trkpt>
      <trkpt lat="44.81488" lon="5.49166">
        <ele>1808.38</ele>
        <time>2023-09-24T11:25:46Z</time>
      </trkpt>
      <trkpt lat="44.81481" lon="5.49159">
        <ele>1807.9</ele>
        <time>2023-09-24T11:26:01Z</time>
      </trkpt>
      <trkpt lat="44.8147" lon="5.49148">
        <ele>1806.94</ele>
        <time>2023-09-24T11:26:17Z</time>
      </trkpt>
      <trkpt lat="44.81466" lon="5.49147">
        <ele>1806.45</ele>
        <time>2023-09-24T11:26:29Z</time>
      </trkpt>
      <trkpt lat="44.81465" lon="5.49145">
        <ele>1805.49</ele>
        <time>2023-09-24T11:26:44Z</time>
      </trkpt>
      <trkpt lat="44.81461" lon="5.49145">
        <ele>1805.01</ele>
        <time>2023-09-24T11:27:15Z</time>
      </trkpt>
      <trkpt lat="44.81458" lon="5.49144">
        <ele>1805.01</ele>
        <time>2023-09-24T11:27:35Z</time>
      </trkpt>
      <trkpt lat="44.81452" lon="5.49151">
        <ele>1804.53</ele>
        <time>2023-09-24T11:27:47Z</time>
      </trkpt>
      <trkpt lat="44.81446" lon="5.49158">
        <ele>1805.97</ele>
        <time>2023-09-24T11:27:59Z</time>
      </trkpt>
      <trkpt lat="44.81447" lon="5.49159">
        <ele>1806.45</ele>
        <time>2023-09-24T11:28:16Z</time>
      </trkpt>
      <trkpt lat="44.81447" lon="5.4916">
        <ele>1806.45</ele>
        <time>2023-09-24T11:28:18Z</time>
      </trkpt>
      <trkpt lat="44.81447" lon="5.49164">
        <ele>1806.94</ele>
        <time>2023-09-24T11:28:23Z</time>
      </trkpt>
      <trkpt lat="44.81439" lon="5.49172">
        <ele>1806.94</ele>
        <time>2023-09-24T11:28:35Z</time>
      </trkpt>
      <trkpt lat="44.81431" lon="5.4917">
        <ele>1806.94</ele>
        <time>2023-09-24T11:28:48Z</time>
      </trkpt>
      <trkpt lat="44.81425" lon="5.49169">
        <ele>1806.94</ele>
        <time>2023-09-24T11:29:00Z</time>
      </trkpt>
      <trkpt lat="44.81421" lon="5.49162">
        <ele>1805.49</ele>
        <time>2023-09-24T11:29:10Z</time>
      </trkpt>
      <trkpt lat="44.81411" lon="5.49161">
        <ele>1805.01</ele>
        <time>2023-09-24T11:29:25Z</time>
      </trkpt>
      <trkpt lat="44.81407" lon="5.49155">
        <ele>1804.05</ele>
        <time>2023-09-24T11:29:39Z</time>
      </trkpt>
      <trkpt lat="44.81404" lon="5.49145">
        <ele>1801.65</ele>
        <time>2023-09-24T11:29:54Z</time>
      </trkpt>
      <trkpt lat="44.81399" lon="5.49136">
        <ele>1799.24</ele>
        <time>2023-09-24T11:30:07Z</time>
      </trkpt>
      <trkpt lat="44.81396" lon="5.49127">
        <ele>1797.32</ele>
        <time>2023-09-24T11:30:21Z</time>
      </trkpt>
      <trkpt lat="44.81394" lon="5.49117">
        <ele>1795.4</ele>
        <time>2023-09-24T11:30:34Z</time>
      </trkpt>
      <trkpt lat="44.81388" lon="5.49108">
        <ele>1793</ele>
        <time>2023-09-24T11:30:49Z</time>
      </trkpt>
      <trkpt lat="44.81387" lon="5.49103">
        <ele>1791.07</ele>
        <time>2023-09-24T11:31:00Z</time>
      </trkpt>
      <trkpt lat="44.81386" lon="5.4909">
        <ele>1790.59</ele>
        <time>2023-09-24T11:31:16Z</time>
      </trkpt>
      <trkpt lat="44.81378" lon="5.49075">
        <ele>1792.03</ele>
        <time>2023-09-24T11:31:32Z</time>
      </trkpt>
      <trkpt lat="44.81376" lon="5.4907">
        <ele>1790.59</ele>
        <time>2023-09-24T11:31:38Z</time>
      </trkpt>
      <trkpt lat="44.81374" lon="5.49061">
        <ele>1790.59</ele>
        <time>2023-09-24T11:31:46Z</time>
      </trkpt>
      <trkpt lat="44.81375" lon="5.49052">
        <ele>1791.55</ele>
        <time>2023-09-24T11:31:53Z</time>
      </trkpt>
      <trkpt lat="44.81371" lon="5.49032">
        <ele>1792.52</ele>
        <time>2023-09-24T11:32:09Z</time>
      </trkpt>
      <trkpt lat="44.81369" lon="5.49025">
        <ele>1792.52</ele>
        <time>2023-09-24T11:32:29Z</time>
      </trkpt>
      <trkpt lat="44.81364" lon="5.49017">
        <ele>1792.52</ele>
        <time>2023-09-24T11:32:41Z</time>
      </trkpt>
      <trkpt lat="44.81363" lon="5.49017">
        <ele>1791.07</ele>
        <time>2023-09-24T11:32:56Z</time>
      </trkpt>
      <trkpt lat="44.81361" lon="5.49015">
        <ele>1790.59</ele>
        <time>2023-09-24T11:33:16Z</time>
      </trkpt>
      <trkpt lat="44.81366" lon="5.49012">
        <ele>1790.59</ele>
        <time>2023-09-24T11:33:30Z</time>
      </trkpt>
      <trkpt lat="44.81371" lon="5.49005">
        <ele>1789.63</ele>
        <time>2023-09-24T11:33:45Z</time>
      </trkpt>
      <trkpt lat="44.8137" lon="5.49">
        <ele>1788.67</ele>
        <time>2023-09-24T11:33:53Z</time>
      </trkpt>
      <trkpt lat="44.8137" lon="5.4899">
        <ele>1788.19</ele>
        <time>2023-09-24T11:34:05Z</time>
      </trkpt>
      <trkpt lat="44.81367" lon="5.48978">
        <ele>1785.79</ele>
        <time>2023-09-24T11:34:20Z</time>
      </trkpt>
      <trkpt lat="44.81364" lon="5.48975">
        <ele>1784.82</ele>
        <time>2023-09-24T11:34:34Z</time>
      </trkpt>
      <trkpt lat="44.81368" lon="5.48965">
        <ele>1787.23</ele>
        <time>2023-09-24T11:34:47Z</time>
      </trkpt>
      <trkpt lat="44.81366" lon="5.48962">
        <ele>1785.79</ele>
        <time>2023-09-24T11:34:58Z</time>
      </trkpt>
      <trkpt lat="44.81367" lon="5.48955">
        <ele>1783.86</ele>
        <time>2023-09-24T11:35:08Z</time>
      </trkpt>
      <trkpt lat="44.81364" lon="5.48939">
        <ele>1782.9</ele>
        <time>2023-09-24T11:35:23Z</time>
      </trkpt>
      <trkpt lat="44.81365" lon="5.48932">
        <ele>1781.46</ele>
        <time>2023-09-24T11:35:36Z</time>
      </trkpt>
      <trkpt lat="44.81366" lon="5.48922">
        <ele>1780.5</ele>
        <time>2023-09-24T11:35:49Z</time>
      </trkpt>
      <trkpt lat="44.81369" lon="5.48911">
        <ele>1779.06</ele>
        <time>2023-09-24T11:36:02Z</time>
      </trkpt>
      <trkpt lat="44.81375" lon="5.489">
        <ele>1779.06</ele>
        <time>2023-09-24T11:36:16Z</time>
      </trkpt>
      <trkpt lat="44.81377" lon="5.48892">
        <ele>1777.61</ele>
        <time>2023-09-24T11:36:31Z</time>
      </trkpt>
      <trkpt lat="44.8138" lon="5.48881">
        <ele>1777.13</ele>
        <time>2023-09-24T11:36:47Z</time>
      </trkpt>
      <trkpt lat="44.81383" lon="5.48872">
        <ele>1777.13</ele>
        <time>2023-09-24T11:37:02Z</time>
      </trkpt>
      <trkpt lat="44.81382" lon="5.4887">
        <ele>1776.65</ele>
        <time>2023-09-24T11:37:17Z</time>
      </trkpt>
      <trkpt lat="44.81383" lon="5.48863">
        <ele>1774.25</ele>
        <time>2023-09-24T11:37:33Z</time>
      </trkpt>
      <trkpt lat="44.81384" lon="5.48859">
        <ele>1774.25</ele>
        <time>2023-09-24T11:37:38Z</time>
      </trkpt>
      <trkpt lat="44.81384" lon="5.48843">
        <ele>1774.25</ele>
        <time>2023-09-24T11:37:52Z</time>
      </trkpt>
      <trkpt lat="44.81384" lon="5.48832">
        <ele>1771.85</ele>
        <time>2023-09-24T11:38:04Z</time>
      </trkpt>
      <trkpt lat="44.81385" lon="5.48827">
        <ele>1770.89</ele>
        <time>2023-09-24T11:38:19Z</time>
      </trkpt>
      <trkpt lat="44.81384" lon="5.48824">
        <ele>1769.92</ele>
        <time>2023-09-24T11:38:34Z</time>
      </trkpt>
      <trkpt lat="44.81384" lon="5.48819">
        <ele>1767.04</ele>
        <time>2023-09-24T11:38:51Z</time>
      </trkpt>
      <trkpt lat="44.81381" lon="5.48814">
        <ele>1764.64</ele>
        <time>2023-09-24T11:39:06Z</time>
      </trkpt>
      <trkpt lat="44.8138" lon="5.48809">
        <ele>1762.23</ele>
        <time>2023-09-24T11:39:19Z</time>
      </trkpt>
      <trkpt lat="44.8138" lon="5.488">
        <ele>1759.35</ele>
        <time>2023-09-24T11:39:35Z</time>
      </trkpt>
      <trkpt lat="44.81376" lon="5.48795">
        <ele>1755.99</ele>
        <time>2023-09-24T11:39:45Z</time>
      </trkpt>
      <trkpt lat="44.81374" lon="5.48782">
        <ele>1752.62</ele>
        <time>2023-09-24T11:39:58Z</time>
      </trkpt>
      <trkpt lat="44.81373" lon="5.4878">
        <ele>1752.14</ele>
        <time>2023-09-24T11:40:01Z</time>
      </trkpt>
      <trkpt lat="44.81366" lon="5.48775">
        <ele>1749.26</ele>
        <time>2023-09-24T11:40:16Z</time>
      </trkpt>
      <trkpt lat="44.81365" lon="5.48771">
        <ele>1747.81</ele>
        <time>2023-09-24T11:40:33Z</time>
      </trkpt>
      <trkpt lat="44.81362" lon="5.48768">
        <ele>1747.81</ele>
        <time>2023-09-24T11:40:51Z</time>
      </trkpt>
      <trkpt lat="44.81361" lon="5.48766">
        <ele>1745.89</ele>
        <time>2023-09-24T11:41:08Z</time>
      </trkpt>
      <trkpt lat="44.81358" lon="5.48762">
        <ele>1743.49</ele>
        <time>2023-09-24T11:41:22Z</time>
      </trkpt>
      <trkpt lat="44.81353" lon="5.48759">
        <ele>1741.08</ele>
        <time>2023-09-24T11:41:34Z</time>
      </trkpt>
      <trkpt lat="44.8135" lon="5.48755">
        <ele>1737.72</ele>
        <time>2023-09-24T11:41:47Z</time>
      </trkpt>
      <trkpt lat="44.8135" lon="5.48746">
        <ele>1734.36</ele>
        <time>2023-09-24T11:42:03Z</time>
      </trkpt>
      <trkpt lat="44.8135" lon="5.48738">
        <ele>1732.43</ele>
        <time>2023-09-24T11:42:15Z</time>
      </trkpt>
      <trkpt lat="44.81352" lon="5.48734">
        <ele>1731.95</ele>
        <time>2023-09-24T11:42:19Z</time>
      </trkpt>
      <trkpt lat="44.81352" lon="5.4873">
        <ele>1731.47</ele>
        <time>2023-09-24T11:42:23Z</time>
      </trkpt>
      <trkpt lat="44.81353" lon="5.48727">
        <ele>1731.47</ele>
        <time>2023-09-24T11:42:25Z</time>
      </trkpt>
      <trkpt lat="44.81358" lon="5.48707">
        <ele>1730.03</ele>
        <time>2023-09-24T11:42:41Z</time>
      </trkpt>
      <trkpt lat="44.81359" lon="5.48696">
        <ele>1727.15</ele>
        <time>2023-09-24T11:42:52Z</time>
      </trkpt>
      <trkpt lat="44.8136" lon="5.4869">
        <ele>1725.7</ele>
        <time>2023-09-24T11:43:05Z</time>
      </trkpt>
      <trkpt lat="44.8136" lon="5.48684">
        <ele>1724.26</ele>
        <time>2023-09-24T11:43:19Z</time>
      </trkpt>
      <trkpt lat="44.81361" lon="5.48679">
        <ele>1721.38</ele>
        <time>2023-09-24T11:43:30Z</time>
      </trkpt>
      <trkpt lat="44.81364" lon="5.48672">
        <ele>1718.01</ele>
        <time>2023-09-24T11:43:42Z</time>
      </trkpt>
      <trkpt lat="44.81367" lon="5.48661">
        <ele>1714.65</ele>
        <time>2023-09-24T11:43:55Z</time>
      </trkpt>
      <trkpt lat="44.81372" lon="5.48651">
        <ele>1711.28</ele>
        <time>2023-09-24T11:44:08Z</time>
      </trkpt>
      <trkpt lat="44.81367" lon="5.48642">
        <ele>1708.88</ele>
        <time>2023-09-24T11:44:22Z</time>
      </trkpt>
      <trkpt lat="44.8136" lon="5.48628">
        <ele>1706</ele>
        <time>2023-09-24T11:44:38Z</time>
      </trkpt>
      <trkpt lat="44.81359" lon="5.48618">
        <ele>1704.55</ele>
        <time>2023-09-24T11:44:45Z</time>
      </trkpt>
      <trkpt lat="44.81358" lon="5.48593">
        <ele>1703.11</ele>
        <time>2023-09-24T11:45:01Z</time>
      </trkpt>
      <trkpt lat="44.8136" lon="5.48585">
        <ele>1702.63</ele>
        <time>2023-09-24T11:45:07Z</time>
      </trkpt>
      <trkpt lat="44.81363" lon="5.48568">
        <ele>1702.15</ele>
        <time>2023-09-24T11:45:19Z</time>
      </trkpt>
      <trkpt lat="44.81367" lon="5.48548">
        <ele>1702.15</ele>
        <time>2023-09-24T11:45:33Z</time>
      </trkpt>
      <trkpt lat="44.8137" lon="5.48528">
        <ele>1702.15</ele>
        <time>2023-09-24T11:45:47Z</time>
      </trkpt>
      <trkpt lat="44.81371" lon="5.48516">
        <ele>1703.11</ele>
        <time>2023-09-24T11:45:56Z</time>
      </trkpt>
      <trkpt lat="44.8137" lon="5.48508">
        <ele>1703.11</ele>
        <time>2023-09-24T11:46:04Z</time>
      </trkpt>
      <trkpt lat="44.8137" lon="5.48491">
        <ele>1703.59</ele>
        <time>2023-09-24T11:46:17Z</time>
      </trkpt>
      <trkpt lat="44.81371" lon="5.4849">
        <ele>1703.59</ele>
        <time>2023-09-24T11:46:18Z</time>
      </trkpt>
      <trkpt lat="44.81368" lon="5.4847">
        <ele>1702.63</ele>
        <time>2023-09-24T11:46:31Z</time>
      </trkpt>
      <trkpt lat="44.81367" lon="5.4846">
        <ele>1702.15</ele>
        <time>2023-09-24T11:46:37Z</time>
      </trkpt>
      <trkpt lat="44.81365" lon="5.48456">
        <ele>1703.11</ele>
        <time>2023-09-24T11:46:40Z</time>
      </trkpt>
      <trkpt lat="44.81364" lon="5.48453">
        <ele>1703.11</ele>
        <time>2023-09-24T11:46:43Z</time>
      </trkpt>
      <trkpt lat="44.81364" lon="5.48445">
        <ele>1704.07</ele>
        <time>2023-09-24T11:46:58Z</time>
      </trkpt>
      <trkpt lat="44.81365" lon="5.48427">
        <ele>1705.52</ele>
        <time>2023-09-24T11:47:11Z</time>
      </trkpt>
      <trkpt lat="44.81364" lon="5.48425">
        <ele>1706</ele>
        <time>2023-09-24T11:47:13Z</time>
      </trkpt>
      <trkpt lat="44.81364" lon="5.48419">
        <ele>1706</ele>
        <time>2023-09-24T11:47:17Z</time>
      </trkpt>
      <trkpt lat="44.8136" lon="5.4841">
        <ele>1706.96</ele>
        <time>2023-09-24T11:47:24Z</time>
      </trkpt>
      <trkpt lat="44.81356" lon="5.48402">
        <ele>1706.96</ele>
        <time>2023-09-24T11:47:30Z</time>
      </trkpt>
      <trkpt lat="44.81354" lon="5.48376">
        <ele>1708.4</ele>
        <time>2023-09-24T11:47:48Z</time>
      </trkpt>
      <trkpt lat="44.81355" lon="5.48369">
        <ele>1708.88</ele>
        <time>2023-09-24T11:47:54Z</time>
      </trkpt>
      <trkpt lat="44.81357" lon="5.48351">
        <ele>1710.8</ele>
        <time>2023-09-24T11:48:10Z</time>
      </trkpt>
      <trkpt lat="44.81356" lon="5.48344">
        <ele>1711.28</ele>
        <time>2023-09-24T11:48:15Z</time>
      </trkpt>
      <trkpt lat="44.81354" lon="5.48328">
        <ele>1709.84</ele>
        <time>2023-09-24T11:48:30Z</time>
      </trkpt>
      <trkpt lat="44.81351" lon="5.48317">
        <ele>1707.44</ele>
        <time>2023-09-24T11:48:44Z</time>
      </trkpt>
      <trkpt lat="44.81343" lon="5.48304">
        <ele>1704.07</ele>
        <time>2023-09-24T11:49:00Z</time>
      </trkpt>
      <trkpt lat="44.8134" lon="5.48293">
        <ele>1703.11</ele>
        <time>2023-09-24T11:49:09Z</time>
      </trkpt>
      <trkpt lat="44.81339" lon="5.48288">
        <ele>1703.11</ele>
        <time>2023-09-24T11:49:13Z</time>
      </trkpt>
      <trkpt lat="44.81333" lon="5.48269">
        <ele>1702.15</ele>
        <time>2023-09-24T11:49:28Z</time>
      </trkpt>
      <trkpt lat="44.81332" lon="5.48256">
        <ele>1701.67</ele>
        <time>2023-09-24T11:49:36Z</time>
      </trkpt>
      <trkpt lat="44.81329" lon="5.48248">
        <ele>1701.67</ele>
        <time>2023-09-24T11:49:42Z</time>
      </trkpt>
      <trkpt lat="44.81325" lon="5.48227">
        <ele>1701.67</ele>
        <time>2023-09-24T11:49:58Z</time>
      </trkpt>
      <trkpt lat="44.81313" lon="5.48214">
        <ele>1701.67</ele>
        <time>2023-09-24T11:50:12Z</time>
      </trkpt>
      <trkpt lat="44.81311" lon="5.48204">
        <ele>1701.67</ele>
        <time>2023-09-24T11:50:21Z</time>
      </trkpt>
      <trkpt lat="44.81307" lon="5.48201">
        <ele>1701.67</ele>
        <time>2023-09-24T11:50:25Z</time>
      </trkpt>
      <trkpt lat="44.81292" lon="5.48186">
        <ele>1700.23</ele>
        <time>2023-09-24T11:50:42Z</time>
      </trkpt>
      <trkpt lat="44.81291" lon="5.48182">
        <ele>1700.71</ele>
        <time>2023-09-24T11:50:57Z</time>
      </trkpt>
      <trkpt lat="44.8129" lon="5.48176">
        <ele>1699.75</ele>
        <time>2023-09-24T11:53:36Z</time>
      </trkpt>
      <trkpt lat="44.81284" lon="5.48176">
        <ele>1696.38</ele>
        <time>2023-09-24T11:53:47Z</time>
      </trkpt>
      <trkpt lat="44.81274" lon="5.48177">
        <ele>1693.5</ele>
        <time>2023-09-24T11:53:58Z</time>
      </trkpt>
      <trkpt lat="44.81265" lon="5.48174">
        <ele>1689.65</ele>
        <time>2023-09-24T11:54:10Z</time>
      </trkpt>
      <trkpt lat="44.81259" lon="5.48168">
        <ele>1686.77</ele>
        <time>2023-09-24T11:54:19Z</time>
      </trkpt>
      <trkpt lat="44.81256" lon="5.48159">
        <ele>1683.89</ele>
        <time>2023-09-24T11:54:26Z</time>
      </trkpt>
      <trkpt lat="44.81255" lon="5.48135">
        <ele>1681.48</ele>
        <time>2023-09-24T11:54:41Z</time>
      </trkpt>
      <trkpt lat="44.81261" lon="5.48118">
        <ele>1678.6</ele>
        <time>2023-09-24T11:54:57Z</time>
      </trkpt>
      <trkpt lat="44.81261" lon="5.48105">
        <ele>1674.75</ele>
        <time>2023-09-24T11:55:11Z</time>
      </trkpt>
      <trkpt lat="44.8126" lon="5.48095">
        <ele>1671.39</ele>
        <time>2023-09-24T11:55:24Z</time>
      </trkpt>
      <trkpt lat="44.81259" lon="5.48087">
        <ele>1668.51</ele>
        <time>2023-09-24T11:55:34Z</time>
      </trkpt>
      <trkpt lat="44.81258" lon="5.4808">
        <ele>1664.66</ele>
        <time>2023-09-24T11:56:11Z</time>
      </trkpt>
      <trkpt lat="44.81255" lon="5.48072">
        <ele>1661.78</ele>
        <time>2023-09-24T11:56:21Z</time>
      </trkpt>
      <trkpt lat="44.81252" lon="5.48063">
        <ele>1658.41</ele>
        <time>2023-09-24T11:56:32Z</time>
      </trkpt>
      <trkpt lat="44.81256" lon="5.48044">
        <ele>1655.53</ele>
        <time>2023-09-24T11:56:47Z</time>
      </trkpt>
      <trkpt lat="44.81261" lon="5.48033">
        <ele>1653.6</ele>
        <time>2023-09-24T11:56:56Z</time>
      </trkpt>
      <trkpt lat="44.81261" lon="5.48022">
        <ele>1651.68</ele>
        <time>2023-09-24T11:57:02Z</time>
      </trkpt>
      <trkpt lat="44.81265" lon="5.48004">
        <ele>1651.2</ele>
        <time>2023-09-24T11:57:16Z</time>
      </trkpt>
      <trkpt lat="44.8127" lon="5.47992">
        <ele>1650.72</ele>
        <time>2023-09-24T11:57:24Z</time>
      </trkpt>
      <trkpt lat="44.81272" lon="5.47987">
        <ele>1650.24</ele>
        <time>2023-09-24T11:57:28Z</time>
      </trkpt>
      <trkpt lat="44.81278" lon="5.47982">
        <ele>1651.68</ele>
        <time>2023-09-24T11:57:36Z</time>
      </trkpt>
      <trkpt lat="44.81287" lon="5.47962">
        <ele>1652.16</ele>
        <time>2023-09-24T11:57:52Z</time>
      </trkpt>
      <trkpt lat="44.81289" lon="5.47958">
        <ele>1652.16</ele>
        <time>2023-09-24T11:57:55Z</time>
      </trkpt>
      <trkpt lat="44.81296" lon="5.47949">
        <ele>1652.64</ele>
        <time>2023-09-24T11:58:08Z</time>
      </trkpt>
      <trkpt lat="44.813" lon="5.4794">
        <ele>1653.12</ele>
        <time>2023-09-24T11:58:15Z</time>
      </trkpt>
      <trkpt lat="44.81311" lon="5.47923">
        <ele>1653.6</ele>
        <time>2023-09-24T11:58:30Z</time>
      </trkpt>
      <trkpt lat="44.81314" lon="5.47919">
        <ele>1653.6</ele>
        <time>2023-09-24T11:58:34Z</time>
      </trkpt>
      <trkpt lat="44.81316" lon="5.47917">
        <ele>1653.6</ele>
        <time>2023-09-24T11:58:36Z</time>
      </trkpt>
      <trkpt lat="44.81321" lon="5.47897">
        <ele>1654.57</ele>
        <time>2023-09-24T11:58:50Z</time>
      </trkpt>
      <trkpt lat="44.81318" lon="5.47877">
        <ele>1653.6</ele>
        <time>2023-09-24T11:59:03Z</time>
      </trkpt>
      <trkpt lat="44.8133" lon="5.47863">
        <ele>1653.12</ele>
        <time>2023-09-24T11:59:17Z</time>
      </trkpt>
      <trkpt lat="44.81337" lon="5.47856">
        <ele>1654.57</ele>
        <time>2023-09-24T11:59:26Z</time>
      </trkpt>
      <trkpt lat="44.8135" lon="5.47843">
        <ele>1656.49</ele>
        <time>2023-09-24T11:59:41Z</time>
      </trkpt>
      <trkpt lat="44.81362" lon="5.47831">
        <ele>1657.93</ele>
        <time>2023-09-24T11:59:56Z</time>
      </trkpt>
      <trkpt lat="44.81377" lon="5.47819">
        <ele>1658.41</ele>
        <time>2023-09-24T12:00:11Z</time>
      </trkpt>
      <trkpt lat="44.81393" lon="5.47814">
        <ele>1658.41</ele>
        <time>2023-09-24T12:00:26Z</time>
      </trkpt>
      <trkpt lat="44.81408" lon="5.47806">
        <ele>1658.41</ele>
        <time>2023-09-24T12:00:41Z</time>
      </trkpt>
      <trkpt lat="44.81409" lon="5.47805">
        <ele>1658.41</ele>
        <time>2023-09-24T12:00:42Z</time>
      </trkpt>
      <trkpt lat="44.81419" lon="5.47794">
        <ele>1659.37</ele>
        <time>2023-09-24T12:00:55Z</time>
      </trkpt>
      <trkpt lat="44.8143" lon="5.47782">
        <ele>1660.33</ele>
        <time>2023-09-24T12:01:09Z</time>
      </trkpt>
      <trkpt lat="44.81442" lon="5.47775">
        <ele>1661.78</ele>
        <time>2023-09-24T12:01:22Z</time>
      </trkpt>
      <trkpt lat="44.81456" lon="5.47776">
        <ele>1662.74</ele>
        <time>2023-09-24T12:01:35Z</time>
      </trkpt>
      <trkpt lat="44.81475" lon="5.47771">
        <ele>1662.74</ele>
        <time>2023-09-24T12:01:51Z</time>
      </trkpt>
      <trkpt lat="44.81492" lon="5.47761">
        <ele>1662.74</ele>
        <time>2023-09-24T12:02:06Z</time>
      </trkpt>
      <trkpt lat="44.81506" lon="5.47758">
        <ele>1663.22</ele>
        <time>2023-09-24T12:02:19Z</time>
      </trkpt>
      <trkpt lat="44.81522" lon="5.47756">
        <ele>1663.7</ele>
        <time>2023-09-24T12:02:34Z</time>
      </trkpt>
      <trkpt lat="44.81531" lon="5.4775">
        <ele>1664.66</ele>
        <time>2023-09-24T12:02:45Z</time>
      </trkpt>
      <trkpt lat="44.81534" lon="5.47746">
        <ele>1665.14</ele>
        <time>2023-09-24T12:02:50Z</time>
      </trkpt>
      <trkpt lat="44.81539" lon="5.47734">
        <ele>1665.14</ele>
        <time>2023-09-24T12:03:00Z</time>
      </trkpt>
      <trkpt lat="44.81551" lon="5.47728">
        <ele>1665.14</ele>
        <time>2023-09-24T12:03:38Z</time>
      </trkpt>
      <trkpt lat="44.81547" lon="5.47727">
        <ele>1665.14</ele>
        <time>2023-09-24T12:03:44Z</time>
      </trkpt>
      <trkpt lat="44.81534" lon="5.47718">
        <ele>1667.54</ele>
        <time>2023-09-24T12:04:01Z</time>
      </trkpt>
      <trkpt lat="44.8152" lon="5.47712">
        <ele>1668.51</ele>
        <time>2023-09-24T12:04:16Z</time>
      </trkpt>
      <trkpt lat="44.815" lon="5.47717">
        <ele>1668.99</ele>
        <time>2023-09-24T12:04:35Z</time>
      </trkpt>
      <trkpt lat="44.81479" lon="5.47719">
        <ele>1668.99</ele>
        <time>2023-09-24T12:04:54Z</time>
      </trkpt>
      <trkpt lat="44.81467" lon="5.47717">
        <ele>1667.54</ele>
        <time>2023-09-24T12:05:05Z</time>
      </trkpt>
      <trkpt lat="44.81445" lon="5.47712">
        <ele>1665.14</ele>
        <time>2023-09-24T12:05:24Z</time>
      </trkpt>
      <trkpt lat="44.81426" lon="5.47715">
        <ele>1664.18</ele>
        <time>2023-09-24T12:05:40Z</time>
      </trkpt>
      <trkpt lat="44.81411" lon="5.47719">
        <ele>1663.22</ele>
        <time>2023-09-24T12:05:54Z</time>
      </trkpt>
      <trkpt lat="44.81405" lon="5.47717">
        <ele>1662.74</ele>
        <time>2023-09-24T12:06:10Z</time>
      </trkpt>
      <trkpt lat="44.81402" lon="5.47712">
        <ele>1662.74</ele>
        <time>2023-09-24T12:06:26Z</time>
      </trkpt>
      <trkpt lat="44.81397" lon="5.47708">
        <ele>1660.33</ele>
        <time>2023-09-24T12:06:39Z</time>
      </trkpt>
      <trkpt lat="44.81393" lon="5.477">
        <ele>1657.45</ele>
        <time>2023-09-24T12:06:49Z</time>
      </trkpt>
      <trkpt lat="44.81396" lon="5.47684">
        <ele>1654.09</ele>
        <time>2023-09-24T12:07:02Z</time>
      </trkpt>
      <trkpt lat="44.814" lon="5.47671">
        <ele>1652.16</ele>
        <time>2023-09-24T12:07:11Z</time>
      </trkpt>
      <trkpt lat="44.81401" lon="5.47669">
        <ele>1651.68</ele>
        <time>2023-09-24T12:07:13Z</time>
      </trkpt>
      <trkpt lat="44.81402" lon="5.47657">
        <ele>1650.24</ele>
        <time>2023-09-24T12:07:21Z</time>
      </trkpt>
      <trkpt lat="44.81399" lon="5.47646">
        <ele>1649.28</ele>
        <time>2023-09-24T12:07:32Z</time>
      </trkpt>
      <trkpt lat="44.81386" lon="5.47632">
        <ele>1645.91</ele>
        <time>2023-09-24T12:07:50Z</time>
      </trkpt>
      <trkpt lat="44.81383" lon="5.47628">
        <ele>1644.95</ele>
        <time>2023-09-24T12:07:55Z</time>
      </trkpt>
      <trkpt lat="44.81372" lon="5.47617">
        <ele>1641.59</ele>
        <time>2023-09-24T12:08:08Z</time>
      </trkpt>
      <trkpt lat="44.81369" lon="5.47615">
        <ele>1641.11</ele>
        <time>2023-09-24T12:08:11Z</time>
      </trkpt>
      <trkpt lat="44.8136" lon="5.47596">
        <ele>1637.26</ele>
        <time>2023-09-24T12:08:27Z</time>
      </trkpt>
      <trkpt lat="44.81356" lon="5.47575">
        <ele>1633.9</ele>
        <time>2023-09-24T12:08:40Z</time>
      </trkpt>
      <trkpt lat="44.81355" lon="5.4757">
        <ele>1632.94</ele>
        <time>2023-09-24T12:08:44Z</time>
      </trkpt>
      <trkpt lat="44.81353" lon="5.47567">
        <ele>1632.46</ele>
        <time>2023-09-24T12:08:47Z</time>
      </trkpt>
      <trkpt lat="44.8135" lon="5.47565">
        <ele>1631.98</ele>
        <time>2023-09-24T12:08:57Z</time>
      </trkpt>
      <trkpt lat="44.8136" lon="5.47553">
        <ele>1629.09</ele>
        <time>2023-09-24T12:09:13Z</time>
      </trkpt>
      <trkpt lat="44.81357" lon="5.47545">
        <ele>1626.21</ele>
        <time>2023-09-24T12:09:24Z</time>
      </trkpt>
      <trkpt lat="44.81355" lon="5.47544">
        <ele>1625.25</ele>
        <time>2023-09-24T12:09:26Z</time>
      </trkpt>
      <trkpt lat="44.8135" lon="5.47532">
        <ele>1622.36</ele>
        <time>2023-09-24T12:09:40Z</time>
      </trkpt>
      <trkpt lat="44.81346" lon="5.47521">
        <ele>1619.48</ele>
        <time>2023-09-24T12:09:50Z</time>
      </trkpt>
      <trkpt lat="44.81346" lon="5.47519">
        <ele>1619.48</ele>
        <time>2023-09-24T12:09:51Z</time>
      </trkpt>
      <trkpt lat="44.81344" lon="5.47498">
        <ele>1618.04</ele>
        <time>2023-09-24T12:10:04Z</time>
      </trkpt>
      <trkpt lat="44.81339" lon="5.47487">
        <ele>1616.59</ele>
        <time>2023-09-24T12:10:14Z</time>
      </trkpt>
      <trkpt lat="44.8133" lon="5.47477">
        <ele>1614.19</ele>
        <time>2023-09-24T12:10:27Z</time>
      </trkpt>
      <trkpt lat="44.81323" lon="5.47463">
        <ele>1611.79</ele>
        <time>2023-09-24T12:10:41Z</time>
      </trkpt>
      <trkpt lat="44.81321" lon="5.47451">
        <ele>1610.35</ele>
        <time>2023-09-24T12:10:51Z</time>
      </trkpt>
      <trkpt lat="44.81319" lon="5.47447">
        <ele>1609.38</ele>
        <time>2023-09-24T12:10:54Z</time>
      </trkpt>
      <trkpt lat="44.81313" lon="5.47427">
        <ele>1606.98</ele>
        <time>2023-09-24T12:11:09Z</time>
      </trkpt>
      <trkpt lat="44.81304" lon="5.47407">
        <ele>1605.06</ele>
        <time>2023-09-24T12:11:22Z</time>
      </trkpt>
      <trkpt lat="44.81304" lon="5.47406">
        <ele>1605.06</ele>
        <time>2023-09-24T12:11:23Z</time>
      </trkpt>
      <trkpt lat="44.81294" lon="5.47393">
        <ele>1603.14</ele>
        <time>2023-09-24T12:11:35Z</time>
      </trkpt>
      <trkpt lat="44.81282" lon="5.4738">
        <ele>1601.69</ele>
        <time>2023-09-24T12:11:47Z</time>
      </trkpt>
      <trkpt lat="44.81268" lon="5.4737">
        <ele>1600.25</ele>
        <time>2023-09-24T12:12:01Z</time>
      </trkpt>
      <trkpt lat="44.81258" lon="5.47374">
        <ele>1598.33</ele>
        <time>2023-09-24T12:12:14Z</time>
      </trkpt>
      <trkpt lat="44.81246" lon="5.47381">
        <ele>1596.89</ele>
        <time>2023-09-24T12:12:28Z</time>
      </trkpt>
      <trkpt lat="44.81234" lon="5.47382">
        <ele>1594.96</ele>
        <time>2023-09-24T12:12:40Z</time>
      </trkpt>
      <trkpt lat="44.81218" lon="5.47392">
        <ele>1593.52</ele>
        <time>2023-09-24T12:12:54Z</time>
      </trkpt>
      <trkpt lat="44.81214" lon="5.47394">
        <ele>1593.04</ele>
        <time>2023-09-24T12:12:56Z</time>
      </trkpt>
      <trkpt lat="44.81209" lon="5.47395">
        <ele>1592.56</ele>
        <time>2023-09-24T12:13:00Z</time>
      </trkpt>
      <trkpt lat="44.81202" lon="5.47397">
        <ele>1592.08</ele>
        <time>2023-09-24T12:13:05Z</time>
      </trkpt>
      <trkpt lat="44.81186" lon="5.47406">
        <ele>1590.16</ele>
        <time>2023-09-24T12:13:18Z</time>
      </trkpt>
      <trkpt lat="44.81174" lon="5.47406">
        <ele>1588.72</ele>
        <time>2023-09-24T12:13:31Z</time>
      </trkpt>
      <trkpt lat="44.81164" lon="5.474">
        <ele>1587.27</ele>
        <time>2023-09-24T12:13:44Z</time>
      </trkpt>
      <trkpt lat="44.81157" lon="5.47377">
        <ele>1586.31</ele>
        <time>2023-09-24T12:13:59Z</time>
      </trkpt>
      <trkpt lat="44.8115" lon="5.47352">
        <ele>1584.87</ele>
        <time>2023-09-24T12:14:14Z</time>
      </trkpt>
      <trkpt lat="44.81142" lon="5.47339">
        <ele>1584.39</ele>
        <time>2023-09-24T12:14:27Z</time>
      </trkpt>
      <trkpt lat="44.81137" lon="5.4733">
        <ele>1582.47</ele>
        <time>2023-09-24T12:14:42Z</time>
      </trkpt>
      <trkpt lat="44.81126" lon="5.47319">
        <ele>1581.03</ele>
        <time>2023-09-24T12:14:56Z</time>
      </trkpt>
      <trkpt lat="44.81115" lon="5.47321">
        <ele>1580.06</ele>
        <time>2023-09-24T12:15:09Z</time>
      </trkpt>
      <trkpt lat="44.81111" lon="5.47325">
        <ele>1579.1</ele>
        <time>2023-09-24T12:15:15Z</time>
      </trkpt>
      <trkpt lat="44.81099" lon="5.47336">
        <ele>1578.14</ele>
        <time>2023-09-24T12:15:27Z</time>
      </trkpt>
      <trkpt lat="44.8109" lon="5.47339">
        <ele>1577.18</ele>
        <time>2023-09-24T12:15:36Z</time>
      </trkpt>
      <trkpt lat="44.81077" lon="5.47344">
        <ele>1575.74</ele>
        <time>2023-09-24T12:15:50Z</time>
      </trkpt>
      <trkpt lat="44.81068" lon="5.47355">
        <ele>1573.33</ele>
        <time>2023-09-24T12:16:03Z</time>
      </trkpt>
      <trkpt lat="44.81065" lon="5.47354">
        <ele>1571.41</ele>
        <time>2023-09-24T12:16:16Z</time>
      </trkpt>
      <trkpt lat="44.81064" lon="5.47336">
        <ele>1569.97</ele>
        <time>2023-09-24T12:16:28Z</time>
      </trkpt>
      <trkpt lat="44.81059" lon="5.47314">
        <ele>1567.57</ele>
        <time>2023-09-24T12:16:42Z</time>
      </trkpt>
      <trkpt lat="44.81059" lon="5.47307">
        <ele>1566.61</ele>
        <time>2023-09-24T12:16:48Z</time>
      </trkpt>
      <trkpt lat="44.81057" lon="5.47287">
        <ele>1563.72</ele>
        <time>2023-09-24T12:17:01Z</time>
      </trkpt>
      <trkpt lat="44.81052" lon="5.47264">
        <ele>1561.8</ele>
        <time>2023-09-24T12:17:15Z</time>
      </trkpt>
      <trkpt lat="44.81047" lon="5.47246">
        <ele>1559.88</ele>
        <time>2023-09-24T12:17:31Z</time>
      </trkpt>
      <trkpt lat="44.81044" lon="5.47234">
        <ele>1557.95</ele>
        <time>2023-09-24T12:17:42Z</time>
      </trkpt>
      <trkpt lat="44.81041" lon="5.47226">
        <ele>1556.51</ele>
        <time>2023-09-24T12:17:48Z</time>
      </trkpt>
      <trkpt lat="44.81032" lon="5.47203">
        <ele>1555.07</ele>
        <time>2023-09-24T12:18:02Z</time>
      </trkpt>
      <trkpt lat="44.81022" lon="5.47201">
        <ele>1555.07</ele>
        <time>2023-09-24T12:18:17Z</time>
      </trkpt>
      <trkpt lat="44.81011" lon="5.47206">
        <ele>1555.07</ele>
        <time>2023-09-24T12:18:29Z</time>
      </trkpt>
      <trkpt lat="44.80999" lon="5.4722">
        <ele>1553.15</ele>
        <time>2023-09-24T12:18:42Z</time>
      </trkpt>
      <trkpt lat="44.80991" lon="5.47236">
        <ele>1551.71</ele>
        <time>2023-09-24T12:18:54Z</time>
      </trkpt>
      <trkpt lat="44.8098" lon="5.47243">
        <ele>1549.78</ele>
        <time>2023-09-24T12:19:05Z</time>
      </trkpt>
      <trkpt lat="44.80974" lon="5.47247">
        <ele>1548.34</ele>
        <time>2023-09-24T12:19:10Z</time>
      </trkpt>
      <trkpt lat="44.8096" lon="5.47256">
        <ele>1546.42</ele>
        <time>2023-09-24T12:19:23Z</time>
      </trkpt>
      <trkpt lat="44.80953" lon="5.4726">
        <ele>1545.46</ele>
        <time>2023-09-24T12:19:36Z</time>
      </trkpt>
      <trkpt lat="44.8095" lon="5.47262">
        <ele>1544.5</ele>
        <time>2023-09-24T12:19:53Z</time>
      </trkpt>
      <trkpt lat="44.80947" lon="5.47268">
        <ele>1544.5</ele>
        <time>2023-09-24T12:20:20Z</time>
      </trkpt>
      <trkpt lat="44.80947" lon="5.47269">
        <ele>1546.9</ele>
        <time>2023-09-24T12:23:53Z</time>
      </trkpt>
      <trkpt lat="44.80944" lon="5.4727">
        <ele>1546.9</ele>
        <time>2023-09-24T12:24:13Z</time>
      </trkpt>
      <trkpt lat="44.80937" lon="5.47273">
        <ele>1545.94</ele>
        <time>2023-09-24T12:24:27Z</time>
      </trkpt>
      <trkpt lat="44.80929" lon="5.47267">
        <ele>1543.53</ele>
        <time>2023-09-24T12:24:44Z</time>
      </trkpt>
      <trkpt lat="44.80922" lon="5.47258">
        <ele>1541.61</ele>
        <time>2023-09-24T12:24:59Z</time>
      </trkpt>
      <trkpt lat="44.80915" lon="5.47244">
        <ele>1538.73</ele>
        <time>2023-09-24T12:25:13Z</time>
      </trkpt>
      <trkpt lat="44.80915" lon="5.47237">
        <ele>1535.84</ele>
        <time>2023-09-24T12:25:27Z</time>
      </trkpt>
      <trkpt lat="44.80914" lon="5.47236">
        <ele>1535.36</ele>
        <time>2023-09-24T12:25:28Z</time>
      </trkpt>
      <trkpt lat="44.80904" lon="5.47219">
        <ele>1533.92</ele>
        <time>2023-09-24T12:25:43Z</time>
      </trkpt>
      <trkpt lat="44.80895" lon="5.47206">
        <ele>1530.56</ele>
        <time>2023-09-24T12:25:55Z</time>
      </trkpt>
      <trkpt lat="44.80891" lon="5.47201">
        <ele>1529.59</ele>
        <time>2023-09-24T12:26:01Z</time>
      </trkpt>
      <trkpt lat="44.80889" lon="5.47199">
        <ele>1529.59</ele>
        <time>2023-09-24T12:26:03Z</time>
      </trkpt>
      <trkpt lat="44.80882" lon="5.47188">
        <ele>1528.63</ele>
        <time>2023-09-24T12:26:10Z</time>
      </trkpt>
      <trkpt lat="44.80874" lon="5.47171">
        <ele>1526.23</ele>
        <time>2023-09-24T12:26:25Z</time>
      </trkpt>
      <trkpt lat="44.8088" lon="5.4717">
        <ele>1523.35</ele>
        <time>2023-09-24T12:26:40Z</time>
      </trkpt>
      <trkpt lat="44.80889" lon="5.47173">
        <ele>1521.42</ele>
        <time>2023-09-24T12:26:50Z</time>
      </trkpt>
      <trkpt lat="44.80897" lon="5.47184">
        <ele>1518.06</ele>
        <time>2023-09-24T12:27:04Z</time>
      </trkpt>
      <trkpt lat="44.80898" lon="5.47185">
        <ele>1517.58</ele>
        <time>2023-09-24T12:27:06Z</time>
      </trkpt>
      <trkpt lat="44.80908" lon="5.47178">
        <ele>1514.21</ele>
        <time>2023-09-24T12:27:19Z</time>
      </trkpt>
      <trkpt lat="44.80914" lon="5.47165">
        <ele>1510.85</ele>
        <time>2023-09-24T12:27:31Z</time>
      </trkpt>
      <trkpt lat="44.80917" lon="5.47151">
        <ele>1507</ele>
        <time>2023-09-24T12:27:43Z</time>
      </trkpt>
      <trkpt lat="44.80918" lon="5.47141">
        <ele>1506.04</ele>
        <time>2023-09-24T12:27:49Z</time>
      </trkpt>
      <trkpt lat="44.80921" lon="5.47115">
        <ele>1502.68</ele>
        <time>2023-09-24T12:28:06Z</time>
      </trkpt>
      <trkpt lat="44.80921" lon="5.4711">
        <ele>1501.72</ele>
        <time>2023-09-24T12:28:10Z</time>
      </trkpt>
      <trkpt lat="44.8092" lon="5.47106">
        <ele>1499.79</ele>
        <time>2023-09-24T12:28:25Z</time>
      </trkpt>
      <trkpt lat="44.80922" lon="5.471">
        <ele>1499.79</ele>
        <time>2023-09-24T12:28:46Z</time>
      </trkpt>
      <trkpt lat="44.80924" lon="5.47094">
        <ele>1498.35</ele>
        <time>2023-09-24T12:28:56Z</time>
      </trkpt>
      <trkpt lat="44.80932" lon="5.47079">
        <ele>1495.47</ele>
        <time>2023-09-24T12:29:09Z</time>
      </trkpt>
      <trkpt lat="44.80933" lon="5.47073">
        <ele>1494.03</ele>
        <time>2023-09-24T12:29:13Z</time>
      </trkpt>
      <trkpt lat="44.80941" lon="5.47056">
        <ele>1491.62</ele>
        <time>2023-09-24T12:29:25Z</time>
      </trkpt>
      <trkpt lat="44.80943" lon="5.47045">
        <ele>1490.66</ele>
        <time>2023-09-24T12:29:31Z</time>
      </trkpt>
      <trkpt lat="44.80945" lon="5.47037">
        <ele>1490.18</ele>
        <time>2023-09-24T12:29:36Z</time>
      </trkpt>
      <trkpt lat="44.80945" lon="5.47021">
        <ele>1486.34</ele>
        <time>2023-09-24T12:29:47Z</time>
      </trkpt>
      <trkpt lat="44.80943" lon="5.47005">
        <ele>1484.41</ele>
        <time>2023-09-24T12:29:59Z</time>
      </trkpt>
      <trkpt lat="44.80939" lon="5.46996">
        <ele>1483.93</ele>
        <time>2023-09-24T12:30:26Z</time>
      </trkpt>
      <trkpt lat="44.80924" lon="5.47009">
        <ele>1482.01</ele>
        <time>2023-09-24T12:31:42Z</time>
      </trkpt>
      <trkpt lat="44.80919" lon="5.47009">
        <ele>1481.05</ele>
        <time>2023-09-24T12:31:47Z</time>
      </trkpt>
      <trkpt lat="44.80906" lon="5.47011">
        <ele>1479.13</ele>
        <time>2023-09-24T12:32:01Z</time>
      </trkpt>
      <trkpt lat="44.80904" lon="5.47014">
        <ele>1478.65</ele>
        <time>2023-09-24T12:32:04Z</time>
      </trkpt>
      <trkpt lat="44.80895" lon="5.47024">
        <ele>1477.2</ele>
        <time>2023-09-24T12:32:16Z</time>
      </trkpt>
      <trkpt lat="44.80886" lon="5.47017">
        <ele>1477.2</ele>
        <time>2023-09-24T12:32:30Z</time>
      </trkpt>
      <trkpt lat="44.80884" lon="5.47014">
        <ele>1477.2</ele>
        <time>2023-09-24T12:32:33Z</time>
      </trkpt>
      <trkpt lat="44.80869" lon="5.47001">
        <ele>1478.16</ele>
        <time>2023-09-24T12:32:46Z</time>
      </trkpt>
      <trkpt lat="44.80862" lon="5.46989">
        <ele>1476.72</ele>
        <time>2023-09-24T12:32:55Z</time>
      </trkpt>
      <trkpt lat="44.80851" lon="5.46973">
        <ele>1476.24</ele>
        <time>2023-09-24T12:33:09Z</time>
      </trkpt>
      <trkpt lat="44.80841" lon="5.46956">
        <ele>1475.76</ele>
        <time>2023-09-24T12:33:22Z</time>
      </trkpt>
      <trkpt lat="44.80826" lon="5.46931">
        <ele>1476.24</ele>
        <time>2023-09-24T12:33:37Z</time>
      </trkpt>
      <trkpt lat="44.80822" lon="5.46923">
        <ele>1476.72</ele>
        <time>2023-09-24T12:33:42Z</time>
      </trkpt>
      <trkpt lat="44.80816" lon="5.46914">
        <ele>1477.2</ele>
        <time>2023-09-24T12:33:49Z</time>
      </trkpt>
      <trkpt lat="44.80808" lon="5.46894">
        <ele>1477.68</ele>
        <time>2023-09-24T12:34:04Z</time>
      </trkpt>
      <trkpt lat="44.80809" lon="5.46872">
        <ele>1479.61</ele>
        <time>2023-09-24T12:34:18Z</time>
      </trkpt>
      <trkpt lat="44.80809" lon="5.46857">
        <ele>1480.57</ele>
        <time>2023-09-24T12:34:31Z</time>
      </trkpt>
      <trkpt lat="44.80806" lon="5.46847">
        <ele>1479.13</ele>
        <time>2023-09-24T12:34:38Z</time>
      </trkpt>
      <trkpt lat="44.80806" lon="5.46844">
        <ele>1479.13</ele>
        <time>2023-09-24T12:34:39Z</time>
      </trkpt>
      <trkpt lat="44.80812" lon="5.46818">
        <ele>1478.16</ele>
        <time>2023-09-24T12:34:55Z</time>
      </trkpt>
      <trkpt lat="44.8082" lon="5.46802">
        <ele>1478.16</ele>
        <time>2023-09-24T12:35:07Z</time>
      </trkpt>
      <trkpt lat="44.80829" lon="5.46789">
        <ele>1481.53</ele>
        <time>2023-09-24T12:35:20Z</time>
      </trkpt>
      <trkpt lat="44.80833" lon="5.46782">
        <ele>1481.53</ele>
        <time>2023-09-24T12:35:26Z</time>
      </trkpt>
      <trkpt lat="44.80844" lon="5.46768">
        <ele>1482.97</ele>
        <time>2023-09-24T12:35:41Z</time>
      </trkpt>
      <trkpt lat="44.80848" lon="5.46757">
        <ele>1482.49</ele>
        <time>2023-09-24T12:36:16Z</time>
      </trkpt>
      <trkpt lat="44.80848" lon="5.46756">
        <ele>1480.57</ele>
        <time>2023-09-24T12:42:29Z</time>
      </trkpt>
      <trkpt lat="44.80844" lon="5.4675">
        <ele>1479.61</ele>
        <time>2023-09-24T12:42:43Z</time>
      </trkpt>
      <trkpt lat="44.80833" lon="5.46741">
        <ele>1478.65</ele>
        <time>2023-09-24T12:42:57Z</time>
      </trkpt>
      <trkpt lat="44.80823" lon="5.46732">
        <ele>1476.72</ele>
        <time>2023-09-24T12:43:09Z</time>
      </trkpt>
      <trkpt lat="44.80816" lon="5.46711">
        <ele>1476.24</ele>
        <time>2023-09-24T12:43:22Z</time>
      </trkpt>
      <trkpt lat="44.80803" lon="5.4669">
        <ele>1474.32</ele>
        <time>2023-09-24T12:43:36Z</time>
      </trkpt>
      <trkpt lat="44.80795" lon="5.4668">
        <ele>1472.4</ele>
        <time>2023-09-24T12:43:48Z</time>
      </trkpt>
      <trkpt lat="44.80794" lon="5.46675">
        <ele>1472.4</ele>
        <time>2023-09-24T12:43:51Z</time>
      </trkpt>
      <trkpt lat="44.80789" lon="5.46658">
        <ele>1472.4</ele>
        <time>2023-09-24T12:44:01Z</time>
      </trkpt>
      <trkpt lat="44.80786" lon="5.46631">
        <ele>1470.47</ele>
        <time>2023-09-24T12:44:15Z</time>
      </trkpt>
      <trkpt lat="44.80784" lon="5.4662">
        <ele>1469.03</ele>
        <time>2023-09-24T12:44:21Z</time>
      </trkpt>
      <trkpt lat="44.80783" lon="5.46595">
        <ele>1468.55</ele>
        <time>2023-09-24T12:44:35Z</time>
      </trkpt>
      <trkpt lat="44.8078" lon="5.46577">
        <ele>1467.59</ele>
        <time>2023-09-24T12:44:49Z</time>
      </trkpt>
      <trkpt lat="44.8077" lon="5.46567">
        <ele>1466.63</ele>
        <time>2023-09-24T12:45:05Z</time>
      </trkpt>
      <trkpt lat="44.80755" lon="5.46564">
        <ele>1464.23</ele>
        <time>2023-09-24T12:45:21Z</time>
      </trkpt>
      <trkpt lat="44.80739" lon="5.46561">
        <ele>1462.3</ele>
        <time>2023-09-24T12:45:35Z</time>
      </trkpt>
      <trkpt lat="44.80723" lon="5.46551">
        <ele>1462.3</ele>
        <time>2023-09-24T12:45:50Z</time>
      </trkpt>
      <trkpt lat="44.8071" lon="5.46538">
        <ele>1460.38</ele>
        <time>2023-09-24T12:46:03Z</time>
      </trkpt>
      <trkpt lat="44.80695" lon="5.46525">
        <ele>1458.94</ele>
        <time>2023-09-24T12:46:17Z</time>
      </trkpt>
      <trkpt lat="44.80678" lon="5.46515">
        <ele>1456.05</ele>
        <time>2023-09-24T12:46:33Z</time>
      </trkpt>
      <trkpt lat="44.8067" lon="5.4651">
        <ele>1455.09</ele>
        <time>2023-09-24T12:46:40Z</time>
      </trkpt>
      <trkpt lat="44.80662" lon="5.46485">
        <ele>1452.69</ele>
        <time>2023-09-24T12:46:54Z</time>
      </trkpt>
      <trkpt lat="44.80662" lon="5.46483">
        <ele>1452.21</ele>
        <time>2023-09-24T12:46:55Z</time>
      </trkpt>
      <trkpt lat="44.80663" lon="5.46459">
        <ele>1451.25</ele>
        <time>2023-09-24T12:47:10Z</time>
      </trkpt>
      <trkpt lat="44.80663" lon="5.46456">
        <ele>1450.77</ele>
        <time>2023-09-24T12:47:12Z</time>
      </trkpt>
      <trkpt lat="44.80653" lon="5.46436">
        <ele>1448.84</ele>
        <time>2023-09-24T12:47:28Z</time>
      </trkpt>
      <trkpt lat="44.80644" lon="5.46429">
        <ele>1445.48</ele>
        <time>2023-09-24T12:47:39Z</time>
      </trkpt>
      <trkpt lat="44.80632" lon="5.46426">
        <ele>1442.6</ele>
        <time>2023-09-24T12:47:53Z</time>
      </trkpt>
      <trkpt lat="44.80625" lon="5.46425">
        <ele>1441.15</ele>
        <time>2023-09-24T12:47:59Z</time>
      </trkpt>
      <trkpt lat="44.80612" lon="5.46419">
        <ele>1438.27</ele>
        <time>2023-09-24T12:48:13Z</time>
      </trkpt>
      <trkpt lat="44.80599" lon="5.46405">
        <ele>1436.35</ele>
        <time>2023-09-24T12:48:26Z</time>
      </trkpt>
      <trkpt lat="44.80591" lon="5.46387">
        <ele>1435.39</ele>
        <time>2023-09-24T12:48:38Z</time>
      </trkpt>
      <trkpt lat="44.8058" lon="5.46365">
        <ele>1432.98</ele>
        <time>2023-09-24T12:48:53Z</time>
      </trkpt>
      <trkpt lat="44.8057" lon="5.4634">
        <ele>1431.54</ele>
        <time>2023-09-24T12:49:09Z</time>
      </trkpt>
      <trkpt lat="44.80561" lon="5.46321">
        <ele>1429.62</ele>
        <time>2023-09-24T12:49:23Z</time>
      </trkpt>
      <trkpt lat="44.80556" lon="5.46302">
        <ele>1428.66</ele>
        <time>2023-09-24T12:49:35Z</time>
      </trkpt>
      <trkpt lat="44.80556" lon="5.46287">
        <ele>1428.18</ele>
        <time>2023-09-24T12:49:48Z</time>
      </trkpt>
      <trkpt lat="44.80558" lon="5.46265">
        <ele>1427.7</ele>
        <time>2023-09-24T12:50:02Z</time>
      </trkpt>
      <trkpt lat="44.80566" lon="5.4625">
        <ele>1428.66</ele>
        <time>2023-09-24T12:50:12Z</time>
      </trkpt>
      <trkpt lat="44.80565" lon="5.46227">
        <ele>1429.14</ele>
        <time>2023-09-24T12:50:26Z</time>
      </trkpt>
      <trkpt lat="44.80565" lon="5.46213">
        <ele>1430.58</ele>
        <time>2023-09-24T12:50:35Z</time>
      </trkpt>
      <trkpt lat="44.80564" lon="5.46191">
        <ele>1430.1</ele>
        <time>2023-09-24T12:50:48Z</time>
      </trkpt>
      <trkpt lat="44.80564" lon="5.46177">
        <ele>1430.1</ele>
        <time>2023-09-24T12:50:57Z</time>
      </trkpt>
      <trkpt lat="44.80555" lon="5.46159">
        <ele>1429.14</ele>
        <time>2023-09-24T12:51:11Z</time>
      </trkpt>
      <trkpt lat="44.80542" lon="5.46138">
        <ele>1427.7</ele>
        <time>2023-09-24T12:51:28Z</time>
      </trkpt>
      <trkpt lat="44.80534" lon="5.46132">
        <ele>1425.77</ele>
        <time>2023-09-24T12:51:37Z</time>
      </trkpt>
      <trkpt lat="44.80518" lon="5.46116">
        <ele>1425.29</ele>
        <time>2023-09-24T12:51:53Z</time>
      </trkpt>
      <trkpt lat="44.80513" lon="5.46105">
        <ele>1423.85</ele>
        <time>2023-09-24T12:52:03Z</time>
      </trkpt>
      <trkpt lat="44.80513" lon="5.46083">
        <ele>1423.85</ele>
        <time>2023-09-24T12:52:17Z</time>
      </trkpt>
      <trkpt lat="44.80511" lon="5.46068">
        <ele>1423.85</ele>
        <time>2023-09-24T12:52:31Z</time>
      </trkpt>
      <trkpt lat="44.80505" lon="5.46053">
        <ele>1422.41</ele>
        <time>2023-09-24T12:52:44Z</time>
      </trkpt>
      <trkpt lat="44.80496" lon="5.46036">
        <ele>1420.97</ele>
        <time>2023-09-24T12:52:59Z</time>
      </trkpt>
      <trkpt lat="44.805" lon="5.46019">
        <ele>1420</ele>
        <time>2023-09-24T12:53:11Z</time>
      </trkpt>
      <trkpt lat="44.80507" lon="5.45997">
        <ele>1420</ele>
        <time>2023-09-24T12:53:26Z</time>
      </trkpt>
      <trkpt lat="44.80513" lon="5.45972">
        <ele>1422.89</ele>
        <time>2023-09-24T12:53:39Z</time>
      </trkpt>
      <trkpt lat="44.80516" lon="5.4595">
        <ele>1424.81</ele>
        <time>2023-09-24T12:53:53Z</time>
      </trkpt>
      <trkpt lat="44.80519" lon="5.45942">
        <ele>1425.29</ele>
        <time>2023-09-24T12:54:11Z</time>
      </trkpt>
      <trkpt lat="44.80519" lon="5.4594">
        <ele>1425.77</ele>
        <time>2023-09-24T12:54:53Z</time>
      </trkpt>
      <trkpt lat="44.80521" lon="5.45926">
        <ele>1425.77</ele>
        <time>2023-09-24T12:55:11Z</time>
      </trkpt>
      <trkpt lat="44.80522" lon="5.45913">
        <ele>1422.89</ele>
        <time>2023-09-24T12:55:27Z</time>
      </trkpt>
      <trkpt lat="44.80523" lon="5.45902">
        <ele>1420</ele>
        <time>2023-09-24T12:55:36Z</time>
      </trkpt>
      <trkpt lat="44.80525" lon="5.45911">
        <ele>1417.12</ele>
        <time>2023-09-24T12:55:47Z</time>
      </trkpt>
      <trkpt lat="44.80525" lon="5.45912">
        <ele>1417.12</ele>
        <time>2023-09-24T12:55:48Z</time>
      </trkpt>
      <trkpt lat="44.8053" lon="5.4593">
        <ele>1413.76</ele>
        <time>2023-09-24T12:56:00Z</time>
      </trkpt>
      <trkpt lat="44.8053" lon="5.45942">
        <ele>1410.39</ele>
        <time>2023-09-24T12:56:12Z</time>
      </trkpt>
      <trkpt lat="44.80536" lon="5.45935">
        <ele>1408.47</ele>
        <time>2023-09-24T12:56:25Z</time>
      </trkpt>
      <trkpt lat="44.80535" lon="5.45942">
        <ele>1405.58</ele>
        <time>2023-09-24T12:56:39Z</time>
      </trkpt>
      <trkpt lat="44.80537" lon="5.45955">
        <ele>1403.18</ele>
        <time>2023-09-24T12:56:51Z</time>
      </trkpt>
      <trkpt lat="44.80545" lon="5.45949">
        <ele>1399.82</ele>
        <time>2023-09-24T12:57:04Z</time>
      </trkpt>
      <trkpt lat="44.8055" lon="5.45934">
        <ele>1396.45</ele>
        <time>2023-09-24T12:57:17Z</time>
      </trkpt>
      <trkpt lat="44.80554" lon="5.45939">
        <ele>1393.57</ele>
        <time>2023-09-24T12:57:28Z</time>
      </trkpt>
      <trkpt lat="44.80556" lon="5.45956">
        <ele>1390.2</ele>
        <time>2023-09-24T12:57:40Z</time>
      </trkpt>
      <trkpt lat="44.80555" lon="5.45971">
        <ele>1387.32</ele>
        <time>2023-09-24T12:57:53Z</time>
      </trkpt>
      <trkpt lat="44.80552" lon="5.45986">
        <ele>1383.96</ele>
        <time>2023-09-24T12:58:07Z</time>
      </trkpt>
      <trkpt lat="44.80556" lon="5.45989">
        <ele>1380.59</ele>
        <time>2023-09-24T12:58:17Z</time>
      </trkpt>
      <trkpt lat="44.80566" lon="5.45985">
        <ele>1377.71</ele>
        <time>2023-09-24T12:58:31Z</time>
      </trkpt>
      <trkpt lat="44.80573" lon="5.4598">
        <ele>1374.82</ele>
        <time>2023-09-24T12:58:44Z</time>
      </trkpt>
      <trkpt lat="44.80579" lon="5.45969">
        <ele>1371.94</ele>
        <time>2023-09-24T12:58:56Z</time>
      </trkpt>
      <trkpt lat="44.80581" lon="5.45958">
        <ele>1369.05</ele>
        <time>2023-09-24T12:59:09Z</time>
      </trkpt>
      <trkpt lat="44.80587" lon="5.45943">
        <ele>1366.17</ele>
        <time>2023-09-24T12:59:20Z</time>
      </trkpt>
      <trkpt lat="44.8059" lon="5.45931">
        <ele>1363.77</ele>
        <time>2023-09-24T12:59:32Z</time>
      </trkpt>
      <trkpt lat="44.80592" lon="5.45914">
        <ele>1361.36</ele>
        <time>2023-09-24T12:59:47Z</time>
      </trkpt>
      <trkpt lat="44.80596" lon="5.4591">
        <ele>1358.48</ele>
        <time>2023-09-24T13:00:03Z</time>
      </trkpt>
      <trkpt lat="44.806" lon="5.45912">
        <ele>1355.12</ele>
        <time>2023-09-24T13:00:17Z</time>
      </trkpt>
      <trkpt lat="44.80605" lon="5.45903">
        <ele>1351.75</ele>
        <time>2023-09-24T13:00:26Z</time>
      </trkpt>
      <trkpt lat="44.80608" lon="5.459">
        <ele>1348.39</ele>
        <time>2023-09-24T13:00:38Z</time>
      </trkpt>
      <trkpt lat="44.8061" lon="5.45911">
        <ele>1345.02</ele>
        <time>2023-09-24T13:00:51Z</time>
      </trkpt>
      <trkpt lat="44.80612" lon="5.45924">
        <ele>1341.66</ele>
        <time>2023-09-24T13:01:02Z</time>
      </trkpt>
      <trkpt lat="44.80615" lon="5.45938">
        <ele>1338.29</ele>
        <time>2023-09-24T13:01:13Z</time>
      </trkpt>
      <trkpt lat="44.80616" lon="5.45951">
        <ele>1334.93</ele>
        <time>2023-09-24T13:01:23Z</time>
      </trkpt>
      <trkpt lat="44.80618" lon="5.45963">
        <ele>1332.52</ele>
        <time>2023-09-24T13:01:32Z</time>
      </trkpt>
      <trkpt lat="44.80623" lon="5.45969">
        <ele>1328.68</ele>
        <time>2023-09-24T13:01:47Z</time>
      </trkpt>
      <trkpt lat="44.80629" lon="5.45954">
        <ele>1325.8</ele>
        <time>2023-09-24T13:02:01Z</time>
      </trkpt>
      <trkpt lat="44.80634" lon="5.45941">
        <ele>1322.91</ele>
        <time>2023-09-24T13:02:14Z</time>
      </trkpt>
      <trkpt lat="44.80637" lon="5.45941">
        <ele>1319.55</ele>
        <time>2023-09-24T13:02:26Z</time>
      </trkpt>
      <trkpt lat="44.80642" lon="5.45952">
        <ele>1316.18</ele>
        <time>2023-09-24T13:02:40Z</time>
      </trkpt>
      <trkpt lat="44.80644" lon="5.4596">
        <ele>1313.3</ele>
        <time>2023-09-24T13:02:54Z</time>
      </trkpt>
      <trkpt lat="44.80649" lon="5.45948">
        <ele>1309.93</ele>
        <time>2023-09-24T13:03:07Z</time>
      </trkpt>
      <trkpt lat="44.80652" lon="5.45937">
        <ele>1307.53</ele>
        <time>2023-09-24T13:03:17Z</time>
      </trkpt>
      <trkpt lat="44.80655" lon="5.45929">
        <ele>1305.61</ele>
        <time>2023-09-24T13:03:25Z</time>
      </trkpt>
      <trkpt lat="44.80661" lon="5.45912">
        <ele>1302.72</ele>
        <time>2023-09-24T13:03:38Z</time>
      </trkpt>
      <trkpt lat="44.80664" lon="5.45899">
        <ele>1299.36</ele>
        <time>2023-09-24T13:03:52Z</time>
      </trkpt>
      <trkpt lat="44.80669" lon="5.45889">
        <ele>1296.48</ele>
        <time>2023-09-24T13:04:04Z</time>
      </trkpt>
      <trkpt lat="44.80674" lon="5.45882">
        <ele>1293.11</ele>
        <time>2023-09-24T13:04:17Z</time>
      </trkpt>
      <trkpt lat="44.80678" lon="5.45878">
        <ele>1290.71</ele>
        <time>2023-09-24T13:04:32Z</time>
      </trkpt>
      <trkpt lat="44.8068" lon="5.45873">
        <ele>1288.78</ele>
        <time>2023-09-24T13:04:50Z</time>
      </trkpt>
      <trkpt lat="44.80683" lon="5.45866">
        <ele>1285.42</ele>
        <time>2023-09-24T13:05:05Z</time>
      </trkpt>
      <trkpt lat="44.80687" lon="5.45869">
        <ele>1282.54</ele>
        <time>2023-09-24T13:05:20Z</time>
      </trkpt>
      <trkpt lat="44.80692" lon="5.45865">
        <ele>1279.65</ele>
        <time>2023-09-24T13:05:33Z</time>
      </trkpt>
      <trkpt lat="44.80692" lon="5.45875">
        <ele>1276.77</ele>
        <time>2023-09-24T13:05:45Z</time>
      </trkpt>
      <trkpt lat="44.80698" lon="5.45864">
        <ele>1273.4</ele>
        <time>2023-09-24T13:05:58Z</time>
      </trkpt>
      <trkpt lat="44.80701" lon="5.45852">
        <ele>1270.52</ele>
        <time>2023-09-24T13:06:12Z</time>
      </trkpt>
      <trkpt lat="44.80698" lon="5.45846">
        <ele>1267.16</ele>
        <time>2023-09-24T13:06:23Z</time>
      </trkpt>
      <trkpt lat="44.807" lon="5.45841">
        <ele>1265.23</ele>
        <time>2023-09-24T13:06:36Z</time>
      </trkpt>
      <trkpt lat="44.80699" lon="5.45835">
        <ele>1261.87</ele>
        <time>2023-09-24T13:06:50Z</time>
      </trkpt>
      <trkpt lat="44.80705" lon="5.45832">
        <ele>1258.98</ele>
        <time>2023-09-24T13:07:05Z</time>
      </trkpt>
      <trkpt lat="44.80709" lon="5.45828">
        <ele>1255.62</ele>
        <time>2023-09-24T13:07:20Z</time>
      </trkpt>
      <trkpt lat="44.80713" lon="5.45822">
        <ele>1252.74</ele>
        <time>2023-09-24T13:07:32Z</time>
      </trkpt>
      <trkpt lat="44.80718" lon="5.4582">
        <ele>1249.85</ele>
        <time>2023-09-24T13:07:45Z</time>
      </trkpt>
      <trkpt lat="44.80709" lon="5.45815">
        <ele>1246.49</ele>
        <time>2023-09-24T13:07:59Z</time>
      </trkpt>
      <trkpt lat="44.80705" lon="5.45807">
        <ele>1243.12</ele>
        <time>2023-09-24T13:08:11Z</time>
      </trkpt>
      <trkpt lat="44.80711" lon="5.45802">
        <ele>1241.2</ele>
        <time>2023-09-24T13:08:25Z</time>
      </trkpt>
      <trkpt lat="44.80719" lon="5.45796">
        <ele>1238.32</ele>
        <time>2023-09-24T13:08:35Z</time>
      </trkpt>
      <trkpt lat="44.80729" lon="5.45793">
        <ele>1234.95</ele>
        <time>2023-09-24T13:08:46Z</time>
      </trkpt>
      <trkpt lat="44.80738" lon="5.45795">
        <ele>1232.07</ele>
        <time>2023-09-24T13:08:56Z</time>
      </trkpt>
      <trkpt lat="44.80744" lon="5.45797">
        <ele>1229.66</ele>
        <time>2023-09-24T13:09:09Z</time>
      </trkpt>
      <trkpt lat="44.80746" lon="5.45799">
        <ele>1228.22</ele>
        <time>2023-09-24T13:09:41Z</time>
      </trkpt>
      <trkpt lat="44.8075" lon="5.45792">
        <ele>1225.34</ele>
        <time>2023-09-24T13:09:55Z</time>
      </trkpt>
      <trkpt lat="44.80742" lon="5.45783">
        <ele>1221.97</ele>
        <time>2023-09-24T13:10:09Z</time>
      </trkpt>
      <trkpt lat="44.80733" lon="5.45772">
        <ele>1218.61</ele>
        <time>2023-09-24T13:10:22Z</time>
      </trkpt>
      <trkpt lat="44.80738" lon="5.45763">
        <ele>1215.24</ele>
        <time>2023-09-24T13:10:35Z</time>
      </trkpt>
      <trkpt lat="44.80747" lon="5.45758">
        <ele>1211.88</ele>
        <time>2023-09-24T13:10:46Z</time>
      </trkpt>
      <trkpt lat="44.80756" lon="5.45758">
        <ele>1209</ele>
        <time>2023-09-24T13:10:56Z</time>
      </trkpt>
      <trkpt lat="44.80767" lon="5.45759">
        <ele>1205.63</ele>
        <time>2023-09-24T13:11:08Z</time>
      </trkpt>
      <trkpt lat="44.80774" lon="5.4576">
        <ele>1202.27</ele>
        <time>2023-09-24T13:11:21Z</time>
      </trkpt>
      <trkpt lat="44.80769" lon="5.45752">
        <ele>1198.9</ele>
        <time>2023-09-24T13:11:34Z</time>
      </trkpt>
      <trkpt lat="44.80758" lon="5.45739">
        <ele>1196.02</ele>
        <time>2023-09-24T13:11:48Z</time>
      </trkpt>
      <trkpt lat="44.80757" lon="5.45733">
        <ele>1192.65</ele>
        <time>2023-09-24T13:11:59Z</time>
      </trkpt>
      <trkpt lat="44.80764" lon="5.45726">
        <ele>1189.77</ele>
        <time>2023-09-24T13:12:10Z</time>
      </trkpt>
      <trkpt lat="44.80772" lon="5.45725">
        <ele>1186.4</ele>
        <time>2023-09-24T13:12:21Z</time>
      </trkpt>
      <trkpt lat="44.80782" lon="5.45725">
        <ele>1183.52</ele>
        <time>2023-09-24T13:12:34Z</time>
      </trkpt>
      <trkpt lat="44.80788" lon="5.45722">
        <ele>1180.16</ele>
        <time>2023-09-24T13:12:45Z</time>
      </trkpt>
      <trkpt lat="44.80798" lon="5.45719">
        <ele>1177.27</ele>
        <time>2023-09-24T13:12:56Z</time>
      </trkpt>
      <trkpt lat="44.80809" lon="5.45715">
        <ele>1173.91</ele>
        <time>2023-09-24T13:13:09Z</time>
      </trkpt>
      <trkpt lat="44.8081" lon="5.45712">
        <ele>1170.54</ele>
        <time>2023-09-24T13:13:21Z</time>
      </trkpt>
      <trkpt lat="44.80802" lon="5.45708">
        <ele>1167.66</ele>
        <time>2023-09-24T13:13:35Z</time>
      </trkpt>
      <trkpt lat="44.80797" lon="5.45698">
        <ele>1164.29</ele>
        <time>2023-09-24T13:13:46Z</time>
      </trkpt>
      <trkpt lat="44.80805" lon="5.45692">
        <ele>1161.89</ele>
        <time>2023-09-24T13:13:58Z</time>
      </trkpt>
      <trkpt lat="44.80815" lon="5.45689">
        <ele>1159.01</ele>
        <time>2023-09-24T13:14:11Z</time>
      </trkpt>
      <trkpt lat="44.8082" lon="5.45685">
        <ele>1155.64</ele>
        <time>2023-09-24T13:14:23Z</time>
      </trkpt>
      <trkpt lat="44.80819" lon="5.45685">
        <ele>1153.72</ele>
        <time>2023-09-24T13:14:34Z</time>
      </trkpt>
      <trkpt lat="44.80814" lon="5.45682">
        <ele>1150.35</ele>
        <time>2023-09-24T13:14:48Z</time>
      </trkpt>
      <trkpt lat="44.8082" lon="5.45672">
        <ele>1146.99</ele>
        <time>2023-09-24T13:15:00Z</time>
      </trkpt>
      <trkpt lat="44.8083" lon="5.45667">
        <ele>1143.63</ele>
        <time>2023-09-24T13:15:13Z</time>
      </trkpt>
      <trkpt lat="44.80841" lon="5.45666">
        <ele>1140.26</ele>
        <time>2023-09-24T13:15:26Z</time>
      </trkpt>
      <trkpt lat="44.80846" lon="5.45673">
        <ele>1137.38</ele>
        <time>2023-09-24T13:15:39Z</time>
      </trkpt>
      <trkpt lat="44.80852" lon="5.45675">
        <ele>1134.49</ele>
        <time>2023-09-24T13:15:52Z</time>
      </trkpt>
      <trkpt lat="44.80858" lon="5.45671">
        <ele>1131.61</ele>
        <time>2023-09-24T13:16:02Z</time>
      </trkpt>
      <trkpt lat="44.80858" lon="5.45659">
        <ele>1128.24</ele>
        <time>2023-09-24T13:16:15Z</time>
      </trkpt>
      <trkpt lat="44.80857" lon="5.45648">
        <ele>1124.88</ele>
        <time>2023-09-24T13:16:27Z</time>
      </trkpt>
      <trkpt lat="44.80857" lon="5.45637">
        <ele>1121.52</ele>
        <time>2023-09-24T13:16:40Z</time>
      </trkpt>
      <trkpt lat="44.80864" lon="5.45642">
        <ele>1118.15</ele>
        <time>2023-09-24T13:16:51Z</time>
      </trkpt>
      <trkpt lat="44.80868" lon="5.45645">
        <ele>1116.71</ele>
        <time>2023-09-24T13:16:56Z</time>
      </trkpt>
      <trkpt lat="44.80878" lon="5.45655">
        <ele>1113.34</ele>
        <time>2023-09-24T13:17:08Z</time>
      </trkpt>
      <trkpt lat="44.80885" lon="5.45663">
        <ele>1109.98</ele>
        <time>2023-09-24T13:17:20Z</time>
      </trkpt>
      <trkpt lat="44.80895" lon="5.45673">
        <ele>1106.61</ele>
        <time>2023-09-24T13:17:32Z</time>
      </trkpt>
      <trkpt lat="44.80896" lon="5.45671">
        <ele>1106.13</ele>
        <time>2023-09-24T13:17:34Z</time>
      </trkpt>
      <trkpt lat="44.80894" lon="5.45654">
        <ele>1102.77</ele>
        <time>2023-09-24T13:17:49Z</time>
      </trkpt>
      <trkpt lat="44.80893" lon="5.45641">
        <ele>1099.89</ele>
        <time>2023-09-24T13:18:00Z</time>
      </trkpt>
      <trkpt lat="44.8089" lon="5.45631">
        <ele>1096.52</ele>
        <time>2023-09-24T13:18:11Z</time>
      </trkpt>
      <trkpt lat="44.80888" lon="5.4562">
        <ele>1093.16</ele>
        <time>2023-09-24T13:18:22Z</time>
      </trkpt>
      <trkpt lat="44.80896" lon="5.4562">
        <ele>1089.79</ele>
        <time>2023-09-24T13:18:35Z</time>
      </trkpt>
      <trkpt lat="44.80904" lon="5.45623">
        <ele>1086.43</ele>
        <time>2023-09-24T13:18:48Z</time>
      </trkpt>
      <trkpt lat="44.80913" lon="5.45631">
        <ele>1083.06</ele>
        <time>2023-09-24T13:19:01Z</time>
      </trkpt>
      <trkpt lat="44.8092" lon="5.4564">
        <ele>1079.7</ele>
        <time>2023-09-24T13:19:13Z</time>
      </trkpt>
      <trkpt lat="44.80928" lon="5.45648">
        <ele>1077.29</ele>
        <time>2023-09-24T13:19:28Z</time>
      </trkpt>
      <trkpt lat="44.80933" lon="5.45653">
        <ele>1074.41</ele>
        <time>2023-09-24T13:19:38Z</time>
      </trkpt>
      <trkpt lat="44.80937" lon="5.45645">
        <ele>1071.05</ele>
        <time>2023-09-24T13:19:49Z</time>
      </trkpt>
      <trkpt lat="44.80939" lon="5.45634">
        <ele>1067.68</ele>
        <time>2023-09-24T13:20:01Z</time>
      </trkpt>
      <trkpt lat="44.80942" lon="5.45623">
        <ele>1064.32</ele>
        <time>2023-09-24T13:20:13Z</time>
      </trkpt>
      <trkpt lat="44.80948" lon="5.45629">
        <ele>1062.39</ele>
        <time>2023-09-24T13:20:25Z</time>
      </trkpt>
      <trkpt lat="44.80953" lon="5.45638">
        <ele>1059.51</ele>
        <time>2023-09-24T13:20:36Z</time>
      </trkpt>
      <trkpt lat="44.80961" lon="5.4565">
        <ele>1055.67</ele>
        <time>2023-09-24T13:20:50Z</time>
      </trkpt>
      <trkpt lat="44.80967" lon="5.4566">
        <ele>1052.78</ele>
        <time>2023-09-24T13:21:03Z</time>
      </trkpt>
      <trkpt lat="44.80973" lon="5.45645">
        <ele>1050.38</ele>
        <time>2023-09-24T13:21:17Z</time>
      </trkpt>
      <trkpt lat="44.80976" lon="5.45628">
        <ele>1047.01</ele>
        <time>2023-09-24T13:21:30Z</time>
      </trkpt>
      <trkpt lat="44.80974" lon="5.4562">
        <ele>1045.57</ele>
        <time>2023-09-24T13:21:36Z</time>
      </trkpt>
      <trkpt lat="44.80971" lon="5.45612">
        <ele>1045.09</ele>
        <time>2023-09-24T13:21:42Z</time>
      </trkpt>
      <trkpt lat="44.80966" lon="5.45603">
        <ele>1045.09</ele>
        <time>2023-09-24T13:21:49Z</time>
      </trkpt>
      <trkpt lat="44.80965" lon="5.45601">
        <ele>1045.09</ele>
        <time>2023-09-24T13:21:51Z</time>
      </trkpt>
      <trkpt lat="44.80957" lon="5.45574">
        <ele>1044.61</ele>
        <time>2023-09-24T13:22:10Z</time>
      </trkpt>
      <trkpt lat="44.80958" lon="5.45559">
        <ele>1040.76</ele>
        <time>2023-09-24T13:22:25Z</time>
      </trkpt>
      <trkpt lat="44.80957" lon="5.45557">
        <ele>1040.76</ele>
        <time>2023-09-24T13:22:27Z</time>
      </trkpt>
      <trkpt lat="44.80948" lon="5.45552">
        <ele>1040.76</ele>
        <time>2023-09-24T13:22:40Z</time>
      </trkpt>
      <trkpt lat="44.80953" lon="5.45553">
        <ele>1041.25</ele>
        <time>2023-09-24T13:23:21Z</time>
      </trkpt>
      <trkpt lat="44.80962" lon="5.45553">
        <ele>1041.25</ele>
        <time>2023-09-24T13:23:54Z</time>
      </trkpt>
      <trkpt lat="44.80959" lon="5.45542">
        <ele>1040.76</ele>
        <time>2023-09-24T13:28:12Z</time>
      </trkpt>
      <trkpt lat="44.80955" lon="5.45535">
        <ele>1039.8</ele>
        <time>2023-09-24T13:28:17Z</time>
      </trkpt>
      <trkpt lat="44.80946" lon="5.45531">
        <ele>1039.8</ele>
        <time>2023-09-24T13:28:25Z</time>
      </trkpt>
      <trkpt lat="44.80943" lon="5.45531">
        <ele>1039.8</ele>
        <time>2023-09-24T13:28:28Z</time>
      </trkpt>
      <trkpt lat="44.8094" lon="5.4553">
        <ele>1039.8</ele>
        <time>2023-09-24T13:28:31Z</time>
      </trkpt>
      <trkpt lat="44.80928" lon="5.45533">
        <ele>1039.8</ele>
        <time>2023-09-24T13:28:40Z</time>
      </trkpt>
      <trkpt lat="44.80908" lon="5.45535">
        <ele>1042.21</ele>
        <time>2023-09-24T13:28:55Z</time>
      </trkpt>
      <trkpt lat="44.80895" lon="5.45533">
        <ele>1043.65</ele>
        <time>2023-09-24T13:29:06Z</time>
      </trkpt>
      <trkpt lat="44.8089" lon="5.45534">
        <ele>1043.65</ele>
        <time>2023-09-24T13:29:10Z</time>
      </trkpt>
      <trkpt lat="44.80888" lon="5.45535">
        <ele>1044.13</ele>
        <time>2023-09-24T13:29:12Z</time>
      </trkpt>
      <trkpt lat="44.8088" lon="5.45538">
        <ele>1045.09</ele>
        <time>2023-09-24T13:29:18Z</time>
      </trkpt>
      <trkpt lat="44.80863" lon="5.4555">
        <ele>1045.57</ele>
        <time>2023-09-24T13:29:30Z</time>
      </trkpt>
      <trkpt lat="44.80845" lon="5.45551">
        <ele>1047.01</ele>
        <time>2023-09-24T13:29:45Z</time>
      </trkpt>
      <trkpt lat="44.80832" lon="5.45551">
        <ele>1048.45</ele>
        <time>2023-09-24T13:29:58Z</time>
      </trkpt>
      <trkpt lat="44.80828" lon="5.4555">
        <ele>1048.45</ele>
        <time>2023-09-24T13:30:02Z</time>
      </trkpt>
      <trkpt lat="44.80813" lon="5.45549">
        <ele>1050.38</ele>
        <time>2023-09-24T13:30:15Z</time>
      </trkpt>
      <trkpt lat="44.80811" lon="5.45549">
        <ele>1050.86</ele>
        <time>2023-09-24T13:30:17Z</time>
      </trkpt>
      <trkpt lat="44.80796" lon="5.45545">
        <ele>1051.82</ele>
        <time>2023-09-24T13:30:28Z</time>
      </trkpt>
      <trkpt lat="44.80787" lon="5.45538">
        <ele>1052.78</ele>
        <time>2023-09-24T13:30:33Z</time>
      </trkpt>
      <trkpt lat="44.80779" lon="5.45515">
        <ele>1052.78</ele>
        <time>2023-09-24T13:30:47Z</time>
      </trkpt>
      <trkpt lat="44.80785" lon="5.45501">
        <ele>1053.26</ele>
        <time>2023-09-24T13:30:57Z</time>
      </trkpt>
      <trkpt lat="44.80791" lon="5.45487">
        <ele>1053.74</ele>
        <time>2023-09-24T13:31:06Z</time>
      </trkpt>
      <trkpt lat="44.80798" lon="5.45475">
        <ele>1054.7</ele>
        <time>2023-09-24T13:31:15Z</time>
      </trkpt>
      <trkpt lat="44.8081" lon="5.4546">
        <ele>1055.67</ele>
        <time>2023-09-24T13:31:28Z</time>
      </trkpt>
      <trkpt lat="44.8082" lon="5.45444">
        <ele>1056.15</ele>
        <time>2023-09-24T13:31:39Z</time>
      </trkpt>
      <trkpt lat="44.8082" lon="5.4542">
        <ele>1058.07</ele>
        <time>2023-09-24T13:31:55Z</time>
      </trkpt>
      <trkpt lat="44.80815" lon="5.45402">
        <ele>1059.51</ele>
        <time>2023-09-24T13:32:10Z</time>
      </trkpt>
      <trkpt lat="44.80815" lon="5.45398">
        <ele>1059.51</ele>
        <time>2023-09-24T13:32:13Z</time>
      </trkpt>
      <trkpt lat="44.80818" lon="5.45381">
        <ele>1059.99</ele>
        <time>2023-09-24T13:32:23Z</time>
      </trkpt>
      <trkpt lat="44.80824" lon="5.45368">
        <ele>1060.47</ele>
        <time>2023-09-24T13:32:32Z</time>
      </trkpt>
      <trkpt lat="44.80825" lon="5.45363">
        <ele>1060.95</ele>
        <time>2023-09-24T13:32:35Z</time>
      </trkpt>
      <trkpt lat="44.80828" lon="5.45358">
        <ele>1060.95</ele>
        <time>2023-09-24T13:32:39Z</time>
      </trkpt>
      <trkpt lat="44.80831" lon="5.45335">
        <ele>1062.39</ele>
        <time>2023-09-24T13:32:52Z</time>
      </trkpt>
      <trkpt lat="44.80831" lon="5.45332">
        <ele>1062.39</ele>
        <time>2023-09-24T13:32:54Z</time>
      </trkpt>
      <trkpt lat="44.8084" lon="5.45311">
        <ele>1063.84</ele>
        <time>2023-09-24T13:33:09Z</time>
      </trkpt>
      <trkpt lat="44.80845" lon="5.45295">
        <ele>1064.8</ele>
        <time>2023-09-24T13:33:20Z</time>
      </trkpt>
      <trkpt lat="44.80845" lon="5.45293">
        <ele>1064.8</ele>
        <time>2023-09-24T13:33:21Z</time>
      </trkpt>
      <trkpt lat="44.80846" lon="5.45289">
        <ele>1064.8</ele>
        <time>2023-09-24T13:33:24Z</time>
      </trkpt>
      <trkpt lat="44.80847" lon="5.45284">
        <ele>1065.76</ele>
        <time>2023-09-24T13:33:28Z</time>
      </trkpt>
      <trkpt lat="44.80852" lon="5.45268">
        <ele>1066.24</ele>
        <time>2023-09-24T13:33:39Z</time>
      </trkpt>
      <trkpt lat="44.80854" lon="5.45253">
        <ele>1066.72</ele>
        <time>2023-09-24T13:33:48Z</time>
      </trkpt>
      <trkpt lat="44.80854" lon="5.45246">
        <ele>1067.2</ele>
        <time>2023-09-24T13:33:52Z</time>
      </trkpt>
      <trkpt lat="44.80854" lon="5.45242">
        <ele>1067.68</ele>
        <time>2023-09-24T13:33:55Z</time>
      </trkpt>
      <trkpt lat="44.80855" lon="5.45216">
        <ele>1068.64</ele>
        <time>2023-09-24T13:34:11Z</time>
      </trkpt>
      <trkpt lat="44.80858" lon="5.452">
        <ele>1070.08</ele>
        <time>2023-09-24T13:34:22Z</time>
      </trkpt>
      <trkpt lat="44.80862" lon="5.45183">
        <ele>1072.01</ele>
        <time>2023-09-24T13:34:35Z</time>
      </trkpt>
      <trkpt lat="44.80862" lon="5.45176">
        <ele>1072.49</ele>
        <time>2023-09-24T13:34:40Z</time>
      </trkpt>
      <trkpt lat="44.80865" lon="5.45167">
        <ele>1073.45</ele>
        <time>2023-09-24T13:34:46Z</time>
      </trkpt>
      <trkpt lat="44.80865" lon="5.45165">
        <ele>1073.45</ele>
        <time>2023-09-24T13:34:48Z</time>
      </trkpt>
      <trkpt lat="44.80868" lon="5.45149">
        <ele>1074.41</ele>
        <time>2023-09-24T13:35:01Z</time>
      </trkpt>
      <trkpt lat="44.80868" lon="5.45134">
        <ele>1074.89</ele>
        <time>2023-09-24T13:35:10Z</time>
      </trkpt>
      <trkpt lat="44.80872" lon="5.45112">
        <ele>1076.33</ele>
        <time>2023-09-24T13:35:24Z</time>
      </trkpt>
      <trkpt lat="44.80873" lon="5.45109">
        <ele>1076.33</ele>
        <time>2023-09-24T13:35:26Z</time>
      </trkpt>
      <trkpt lat="44.80874" lon="5.45101">
        <ele>1076.81</ele>
        <time>2023-09-24T13:35:31Z</time>
      </trkpt>
      <trkpt lat="44.80871" lon="5.45076">
        <ele>1077.78</ele>
        <time>2023-09-24T13:35:47Z</time>
      </trkpt>
      <trkpt lat="44.80863" lon="5.45065">
        <ele>1077.78</ele>
        <time>2023-09-24T13:35:57Z</time>
      </trkpt>
      <trkpt lat="44.80859" lon="5.45062">
        <ele>1076.81</ele>
        <time>2023-09-24T13:36:01Z</time>
      </trkpt>
      <trkpt lat="44.80841" lon="5.45047">
        <ele>1074.41</ele>
        <time>2023-09-24T13:36:21Z</time>
      </trkpt>
      <trkpt lat="44.80826" lon="5.45042">
        <ele>1072.01</ele>
        <time>2023-09-24T13:36:37Z</time>
      </trkpt>
      <trkpt lat="44.80809" lon="5.45044">
        <ele>1070.08</ele>
        <time>2023-09-24T13:36:54Z</time>
      </trkpt>
      <trkpt lat="44.80792" lon="5.45039">
        <ele>1068.16</ele>
        <time>2023-09-24T13:37:08Z</time>
      </trkpt>
      <trkpt lat="44.80766" lon="5.45023">
        <ele>1065.76</ele>
        <time>2023-09-24T13:37:27Z</time>
      </trkpt>
      <trkpt lat="44.80756" lon="5.45018">
        <ele>1064.32</ele>
        <time>2023-09-24T13:37:36Z</time>
      </trkpt>
      <trkpt lat="44.80744" lon="5.45008">
        <ele>1062.39</ele>
        <time>2023-09-24T13:37:46Z</time>
      </trkpt>
      <trkpt lat="44.80741" lon="5.45004">
        <ele>1061.91</ele>
        <time>2023-09-24T13:37:49Z</time>
      </trkpt>
      <trkpt lat="44.80725" lon="5.44985">
        <ele>1059.99</ele>
        <time>2023-09-24T13:38:03Z</time>
      </trkpt>
      <trkpt lat="44.80711" lon="5.44967">
        <ele>1057.59</ele>
        <time>2023-09-24T13:38:19Z</time>
      </trkpt>
      <trkpt lat="44.807" lon="5.44956">
        <ele>1056.15</ele>
        <time>2023-09-24T13:38:32Z</time>
      </trkpt>
      <trkpt lat="44.80698" lon="5.44942">
        <ele>1054.7</ele>
        <time>2023-09-24T13:38:42Z</time>
      </trkpt>
      <trkpt lat="44.80701" lon="5.44932">
        <ele>1053.74</ele>
        <time>2023-09-24T13:38:48Z</time>
      </trkpt>
      <trkpt lat="44.80701" lon="5.44905">
        <ele>1051.34</ele>
        <time>2023-09-24T13:39:02Z</time>
      </trkpt>
      <trkpt lat="44.80698" lon="5.44884">
        <ele>1048.94</ele>
        <time>2023-09-24T13:39:13Z</time>
      </trkpt>
      <trkpt lat="44.80695" lon="5.44858">
        <ele>1045.57</ele>
        <time>2023-09-24T13:39:28Z</time>
      </trkpt>
      <trkpt lat="44.80683" lon="5.44838">
        <ele>1042.69</ele>
        <time>2023-09-24T13:39:44Z</time>
      </trkpt>
      <trkpt lat="44.80664" lon="5.44821">
        <ele>1040.28</ele>
        <time>2023-09-24T13:40:00Z</time>
      </trkpt>
      <trkpt lat="44.80651" lon="5.44798">
        <ele>1037.4</ele>
        <time>2023-09-24T13:40:14Z</time>
      </trkpt>
      <trkpt lat="44.80639" lon="5.44776">
        <ele>1034.52</ele>
        <time>2023-09-24T13:40:29Z</time>
      </trkpt>
      <trkpt lat="44.80626" lon="5.44756">
        <ele>1032.11</ele>
        <time>2023-09-24T13:40:44Z</time>
      </trkpt>
      <trkpt lat="44.80623" lon="5.44753">
        <ele>1031.63</ele>
        <time>2023-09-24T13:40:48Z</time>
      </trkpt>
      <trkpt lat="44.80618" lon="5.44744">
        <ele>1030.67</ele>
        <time>2023-09-24T13:40:54Z</time>
      </trkpt>
      <trkpt lat="44.80607" lon="5.44726">
        <ele>1028.27</ele>
        <time>2023-09-24T13:41:06Z</time>
      </trkpt>
      <trkpt lat="44.80597" lon="5.44702">
        <ele>1025.38</ele>
        <time>2023-09-24T13:41:20Z</time>
      </trkpt>
      <trkpt lat="44.8059" lon="5.44678">
        <ele>1022.5</ele>
        <time>2023-09-24T13:41:33Z</time>
      </trkpt>
      <trkpt lat="44.80584" lon="5.44654">
        <ele>1020.1</ele>
        <time>2023-09-24T13:41:49Z</time>
      </trkpt>
      <trkpt lat="44.80579" lon="5.44629">
        <ele>1018.17</ele>
        <time>2023-09-24T13:42:03Z</time>
      </trkpt>
      <trkpt lat="44.80578" lon="5.44623">
        <ele>1017.69</ele>
        <time>2023-09-24T13:42:06Z</time>
      </trkpt>
      <trkpt lat="44.80577" lon="5.44615">
        <ele>1016.73</ele>
        <time>2023-09-24T13:42:11Z</time>
      </trkpt>
      <trkpt lat="44.80576" lon="5.44607">
        <ele>1016.25</ele>
        <time>2023-09-24T13:42:16Z</time>
      </trkpt>
      <trkpt lat="44.80572" lon="5.44581">
        <ele>1013.85</ele>
        <time>2023-09-24T13:42:32Z</time>
      </trkpt>
      <trkpt lat="44.80569" lon="5.44557">
        <ele>1011.93</ele>
        <time>2023-09-24T13:42:48Z</time>
      </trkpt>
      <trkpt lat="44.80571" lon="5.44528">
        <ele>1010.48</ele>
        <time>2023-09-24T13:43:04Z</time>
      </trkpt>
      <trkpt lat="44.80573" lon="5.44526">
        <ele>1009.52</ele>
        <time>2023-09-24T13:43:06Z</time>
      </trkpt>
      <trkpt lat="44.80581" lon="5.44534">
        <ele>1007.6</ele>
        <time>2023-09-24T13:43:18Z</time>
      </trkpt>
      <trkpt lat="44.80589" lon="5.44552">
        <ele>1006.64</ele>
        <time>2023-09-24T13:43:29Z</time>
      </trkpt>
      <trkpt lat="44.80594" lon="5.44572">
        <ele>1004.72</ele>
        <time>2023-09-24T13:43:43Z</time>
      </trkpt>
      <trkpt lat="44.80594" lon="5.44595">
        <ele>1003.75</ele>
        <time>2023-09-24T13:43:58Z</time>
      </trkpt>
      <trkpt lat="44.80599" lon="5.44618">
        <ele>1002.79</ele>
        <time>2023-09-24T13:44:14Z</time>
      </trkpt>
      <trkpt lat="44.80609" lon="5.44639">
        <ele>1000.87</ele>
        <time>2023-09-24T13:44:29Z</time>
      </trkpt>
      <trkpt lat="44.80617" lon="5.44652">
        <ele>998.95</ele>
        <time>2023-09-24T13:44:42Z</time>
      </trkpt>
      <trkpt lat="44.80635" lon="5.44656">
        <ele>996.54</ele>
        <time>2023-09-24T13:44:54Z</time>
      </trkpt>
      <trkpt lat="44.80645" lon="5.44654">
        <ele>995.1</ele>
        <time>2023-09-24T13:45:11Z</time>
      </trkpt>
    </trkseg>
  </trk>
</gpx>